Darstellungsparameter: Aktuell verwendete Einstellungen:
Skalierung der Graphiken ... ?
xyx+y,   Skalierungsfaktor:      Skalierung: Modus: x, Faktor: 1
Darstellungszeitraum ... ?
Vom - - bis: - -   Zeitraum: 15.07.2006 - 14.08.2006
Min/Max/Avg-Anzeige ... ?
Zeige MMA aktuell
Zeige MMA Monat
Zeige MMA alles
Zeige --A aktuell
Zeige --A Monat
Zeige --A alles
Keine MMA-Anzeige
MMA:
Keine MMA-Graphiken
MMA-Basis: 15.07.2006 - 14.08.2006
Quicknavigation für Darstellung... ?
Tage:      1T, 2T, 3T, 5T -1T -2T -3T -5T +1T +2T +3T +5T
Wochen: 1W, 2W, 3W -1W -2W -3W +1W +2W +3W
Monate: 1M, 3M, 6M -1M -3M -6M +1M +3M +6M
Jahre:    1J, 3J, 5J, 10J -1J -3J -5J -10J +1J +3J +5J +10J
Nutze für die Darstellung ... ?
Originaldaten oder Mittelwerte auf ...
Stundenbasis Tagesbasis Wochenbasis
Monatsbasis Jahresbasis      Datenbasis: Original-Daten
Darstellen als:
Statistik (Auto) Statistik J:M      Darstellung:
Zur Graphik,    zurück zur Übersicht aller Sensoren.
 
Tabellarische Datenbersicht: ?
 
Sensor: Nr:Datum:Temp:Feuchte:Taupunkt:
Aussen-T/F 1 15-07-2006 00:04:02 20.1 C 40 % 6.09 C
2 15-07-2006 00:14:02 19.8 C 40 % 5.82 C
3 15-07-2006 00:24:02 19.9 C 41 % 6.27 C
4 15-07-2006 00:34:02 19.8 C 42 % 6.53 C
5 15-07-2006 00:44:03 19.6 C 43 % 6.69 C
6 15-07-2006 00:54:02 19.4 C 43 % 6.51 C
7 15-07-2006 01:04:02 19.1 C 44 % 6.57 C
8 15-07-2006 01:14:02 18.8 C 45 % 6.63 C
9 15-07-2006 01:24:02 18.5 C 46 % 6.67 C
10 15-07-2006 01:34:02 18.3 C 46 % 6.49 C
11 15-07-2006 01:44:02 18.2 C 47 % 6.71 C
12 15-07-2006 01:54:03 18.1 C 47 % 6.62 C
13 15-07-2006 02:04:03 18.1 C 47 % 6.62 C
14 15-07-2006 02:14:03 18 C 48 % 6.84 C
15 15-07-2006 02:24:03 18 C 49 % 7.14 C
16 15-07-2006 02:34:03 17.7 C 50 % 7.16 C
17 15-07-2006 02:44:03 17.5 C 51 % 7.26 C
18 15-07-2006 02:55:04 17.3 C 51 % 7.08 C
19 15-07-2006 03:05:04 16.9 C 52 % 6.99 C
20 15-07-2006 03:15:03 16.8 C 53 % 7.18 C
21 15-07-2006 03:25:03 16.5 C 54 % 7.17 C
22 15-07-2006 03:35:02 16.4 C 55 % 7.35 C
23 15-07-2006 03:45:02 16.2 C 56 % 7.42 C
24 15-07-2006 03:55:02 16 C 56 % 7.24 C
25 15-07-2006 04:05:02 15.9 C 58 % 7.66 C
Sensor: Nr:Datum:Temp:Feuchte:Taupunkt:
Aussen-T/F 26 15-07-2006 04:15:02 15.6 C 59 % 7.62 C
27 15-07-2006 04:25:02 15.5 C 59 % 7.53 C
28 15-07-2006 04:35:02 15.3 C 61 % 7.83 C
29 15-07-2006 04:45:02 15.2 C 61 % 7.74 C
30 15-07-2006 04:55:02 15 C 63 % 8.02 C
31 15-07-2006 05:05:02 14.7 C 65 % 8.2 C
32 15-07-2006 05:15:02 14.6 C 65 % 8.1 C
33 15-07-2006 05:25:02 14.6 C 66 % 8.33 C
34 15-07-2006 05:35:02 14.6 C 66 % 8.33 C
35 15-07-2006 05:45:02 14.6 C 64 % 7.87 C
36 15-07-2006 05:55:02 14.6 C 67 % 8.55 C
37 15-07-2006 06:05:02 14.8 C 66 % 8.52 C
38 15-07-2006 06:15:02 15.6 C 61 % 8.11 C
39 15-07-2006 06:25:02 16 C 57 % 7.49 C
40 15-07-2006 06:35:02 15.9 C 58 % 7.66 C
41 15-07-2006 06:45:02 15.8 C 59 % 7.81 C
42 15-07-2006 06:55:02 15.9 C 59 % 7.91 C
43 15-07-2006 07:05:02 15.7 C 65 % 9.15 C
44 15-07-2006 07:15:02 15.3 C 66 % 8.99 C
45 15-07-2006 07:25:02 15.6 C 64 % 8.82 C
46 15-07-2006 07:35:02 16.2 C 59 % 8.19 C
47 15-07-2006 07:45:02 16.6 C 57 % 8.06 C
48 15-07-2006 07:55:02 16.8 C 56 % 7.98 C
49 15-07-2006 08:05:02 17 C 56 % 8.17 C
50 15-07-2006 08:15:02 17.2 C 55 % 8.09 C
Sensor: Nr:Datum:Temp:Feuchte:Taupunkt:
Aussen-T/F 51 15-07-2006 08:25:02 17.4 C 54 % 8.01 C
52 15-07-2006 08:35:01 17.7 C 53 % 8.01 C
53 15-07-2006 08:45:02 17.9 C 51 % 7.63 C
54 15-07-2006 08:55:02 18.2 C 50 % 7.62 C
55 15-07-2006 09:05:02 18.6 C 49 % 7.69 C
56 15-07-2006 09:15:02 19 C 48 % 7.75 C
57 15-07-2006 09:25:02 19.5 C 46 % 7.58 C
58 15-07-2006 09:35:02 20 C 43 % 7.05 C
59 15-07-2006 09:45:03 20.5 C 42 % 7.16 C
60 15-07-2006 09:55:03 21.2 C 40 % 7.08 C
61 15-07-2006 10:05:02 21.4 C 39 % 6.89 C
62 15-07-2006 10:15:02 21.8 C 38 % 6.86 C
63 15-07-2006 10:25:02 22.1 C 35 % 5.94 C
64 15-07-2006 10:35:02 22.8 C 34 % 6.13 C
65 15-07-2006 10:45:01 22.9 C 32 % 5.35 C
66 15-07-2006 10:55:02 23.2 C 32 % 5.61 C
67 15-07-2006 11:05:01 23.1 C 31 % 5.06 C
68 15-07-2006 11:15:01 23.4 C 31 % 5.32 C
69 15-07-2006 11:25:01 23.7 C 30 % 5.11 C
70 15-07-2006 11:35:01 24.1 C 29 % 4.97 C
71 15-07-2006 11:45:02 24.2 C 26 % 3.5 C
72 15-07-2006 11:55:02 24.9 C 26 % 4.09 C
73 15-07-2006 12:05:02 25.3 C 23 % 2.7 C
74 15-07-2006 12:15:02 26 C 21 % 2 C
75 15-07-2006 12:25:03 26.6 C 20 % 1.82 C
Sensor: Nr:Datum:Temp:Feuchte:Taupunkt:
Aussen-T/F 76 15-07-2006 12:35:02 26.9 C 20 % 2.06 C
77 15-07-2006 12:45:02 27.1 C 20 % 2.23 C
78 15-07-2006 12:55:02 27.7 C 20 % 2.72 C
79 15-07-2006 13:05:02 28.3 C 20 % 3.21 C
80 15-07-2006 13:15:02 28.2 C 20 % 3.13 C
81 15-07-2006 13:25:02 29.2 C 20 % 3.95 C
82 15-07-2006 13:35:02 29.8 C 20 % 4.44 C
83 15-07-2006 13:45:02 29.9 C 20 % 4.52 C
84 15-07-2006 13:55:02 29.7 C 20 % 4.36 C
85 15-07-2006 14:05:02 30 C 20 % 4.61 C
86 15-07-2006 14:15:02 29.4 C 20 % 4.11 C
87 15-07-2006 14:25:02 29.2 C 20 % 3.95 C
88 15-07-2006 14:35:02 29.3 C 20 % 4.03 C
89 15-07-2006 14:45:02 29.4 C 20 % 4.11 C
90 15-07-2006 14:55:02 30.3 C 20 % 4.85 C
91 15-07-2006 15:05:02 30.7 C 20 % 5.18 C
92 15-07-2006 15:15:01 30.9 C 20 % 5.34 C
93 15-07-2006 15:25:01 31 C 20 % 5.42 C
94 15-07-2006 15:35:02 31.2 C 20 % 5.59 C
95 15-07-2006 15:45:02 30.9 C 20 % 5.34 C
96 15-07-2006 15:55:02 31.2 C 20 % 5.59 C
97 15-07-2006 16:05:02 31.5 C 20 % 5.83 C
98 15-07-2006 16:15:01 31.8 C 20 % 6.08 C
99 15-07-2006 16:25:01 31.7 C 20 % 6 C
100 15-07-2006 16:35:02 31.8 C 20 % 6.08 C
Sensor: Nr:Datum:Temp:Feuchte:Taupunkt:
Aussen-T/F 101 15-07-2006 16:45:02 31.8 C 20 % 6.08 C
102 15-07-2006 16:55:03 31.8 C 20 % 6.08 C
103 15-07-2006 17:05:01 32 C 20 % 6.24 C
104 15-07-2006 17:15:01 32.1 C 20 % 6.32 C
105 15-07-2006 17:25:01 31.8 C 20 % 6.08 C
106 15-07-2006 17:35:02 31.9 C 20 % 6.16 C
107 15-07-2006 17:45:02 32.1 C 20 % 6.32 C
108 15-07-2006 17:55:02 31.7 C 20 % 6 C
109 15-07-2006 18:05:01 31.9 C 20 % 6.16 C
110 15-07-2006 18:15:01 32.1 C 20 % 6.32 C
111 15-07-2006 18:25:01 32.1 C 20 % 6.32 C
112 15-07-2006 18:35:02 32 C 20 % 6.24 C
113 15-07-2006 18:45:02 31.5 C 20 % 5.83 C
114 15-07-2006 18:55:02 31.4 C 20 % 5.75 C
115 15-07-2006 19:05:02 31.4 C 20 % 5.75 C
116 15-07-2006 19:15:02 31.3 C 20 % 5.67 C
117 15-07-2006 19:25:02 30.9 C 20 % 5.34 C
118 15-07-2006 19:35:03 31 C 20 % 5.42 C
119 15-07-2006 19:45:02 31 C 20 % 5.42 C
120 15-07-2006 19:55:02 31.3 C 20 % 5.67 C
121 15-07-2006 20:05:02 30.9 C 20 % 5.34 C
122 15-07-2006 20:15:02 30.9 C 20 % 5.34 C
123 15-07-2006 20:25:02 30.4 C 20 % 4.93 C
124 15-07-2006 20:35:03 30 C 20 % 4.61 C
125 15-07-2006 20:45:02 29.4 C 20 % 4.11 C
Sensor: Nr:Datum:Temp:Feuchte:Taupunkt:
Aussen-T/F 126 15-07-2006 20:55:03 28.4 C 21 % 3.99 C
127 15-07-2006 21:05:02 27.5 C 23 % 4.53 C
128 15-07-2006 21:15:02 26.7 C 25 % 5.06 C
129 15-07-2006 21:25:02 26.2 C 26 % 5.2 C
130 15-07-2006 21:35:03 25.7 C 26 % 4.77 C
131 15-07-2006 21:45:02 24.7 C 27 % 4.46 C
132 15-07-2006 21:55:02 24.3 C 28 % 4.64 C
133 15-07-2006 22:05:02 24.1 C 28 % 4.47 C
134 15-07-2006 22:15:02 23.8 C 30 % 5.2 C
135 15-07-2006 22:25:02 23.5 C 30 % 4.94 C
136 15-07-2006 22:35:02 23.3 C 31 % 5.24 C
137 15-07-2006 22:45:02 23 C 31 % 4.98 C
138 15-07-2006 22:55:03 23.1 C 31 % 5.06 C
139 15-07-2006 23:05:02 22.5 C 33 % 5.44 C
140 15-07-2006 23:15:02 22.3 C 34 % 5.69 C
141 15-07-2006 23:25:02 22 C 35 % 5.85 C
142 15-07-2006 23:35:02 21.9 C 36 % 6.17 C
143 15-07-2006 23:45:02 21.7 C 36 % 5.99 C
144 15-07-2006 23:55:02 21.5 C 37 % 6.21 C
145 16-07-2006 00:05:01 21.4 C 37 % 6.12 C
146 16-07-2006 00:15:02 21.2 C 37 % 5.94 C
147 16-07-2006 00:25:02 21.1 C 37 % 5.86 C
148 16-07-2006 00:35:01 20.9 C 39 % 6.44 C
149 16-07-2006 00:45:02 20.6 C 40 % 6.54 C
150 16-07-2006 00:55:03 20.4 C 40 % 6.36 C
Sensor: Nr:Datum:Temp:Feuchte:Taupunkt:
Aussen-T/F 151 16-07-2006 01:05:02 20.3 C 40 % 6.27 C
152 16-07-2006 01:15:02 20.1 C 41 % 6.45 C
153 16-07-2006 01:25:02 19.8 C 41 % 6.18 C
154 16-07-2006 01:35:02 19.5 C 43 % 6.6 C
155 16-07-2006 01:45:02 19.3 C 45 % 7.08 C
156 16-07-2006 01:55:03 19 C 45 % 6.81 C
157 16-07-2006 02:05:02 18.7 C 46 % 6.86 C
158 16-07-2006 02:15:02 18.5 C 46 % 6.67 C
159 16-07-2006 02:25:02 18.3 C 47 % 6.8 C
160 16-07-2006 02:35:03 18.3 C 47 % 6.8 C
161 16-07-2006 02:46:04 18.1 C 48 % 6.93 C
162 16-07-2006 02:56:04 17.9 C 52 % 7.91 C
163 16-07-2006 03:06:04 17.5 C 55 % 8.37 C
164 16-07-2006 03:16:04 17.3 C 57 % 8.71 C
165 16-07-2006 03:26:04 17.1 C 58 % 8.78 C
166 16-07-2006 03:36:02 16.9 C 58 % 8.59 C
167 16-07-2006 03:46:02 16.8 C 59 % 8.75 C
168 16-07-2006 03:56:03 16.5 C 58 % 8.22 C
169 16-07-2006 04:06:02 16.4 C 59 % 8.38 C
170 16-07-2006 04:16:02 16.2 C 59 % 8.19 C
171 16-07-2006 04:26:02 15.9 C 58 % 7.66 C
172 16-07-2006 04:36:02 15.8 C 60 % 8.06 C
173 16-07-2006 04:46:03 15.8 C 60 % 8.06 C
174 16-07-2006 04:56:03 15.5 C 61 % 8.02 C
175 16-07-2006 05:06:03 15.3 C 61 % 7.83 C
Sensor: Nr:Datum:Temp:Feuchte:Taupunkt:
Aussen-T/F 176 16-07-2006 05:16:03 15.2 C 61 % 7.74 C
177 16-07-2006 05:26:03 15.1 C 63 % 8.12 C
178 16-07-2006 05:36:03 14.9 C 62 % 7.69 C
179 16-07-2006 05:46:01 14.7 C 63 % 7.74 C
180 16-07-2006 05:56:01 14.7 C 64 % 7.97 C
181 16-07-2006 06:06:02 14.6 C 64 % 7.87 C
182 16-07-2006 06:16:02 14.6 C 64 % 7.87 C
183 16-07-2006 06:26:02 14.7 C 65 % 8.2 C
184 16-07-2006 06:36:01 14.8 C 66 % 8.52 C
185 16-07-2006 06:46:02 14.8 C 67 % 8.74 C
186 16-07-2006 06:56:02 15 C 66 % 8.71 C
187 16-07-2006 07:06:02 15.2 C 66 % 8.9 C
188 16-07-2006 07:16:02 15.4 C 66 % 9.09 C
189 16-07-2006 07:26:02 15.4 C 65 % 8.86 C
190 16-07-2006 07:36:02 15.7 C 64 % 8.92 C
191 16-07-2006 07:46:02 15.9 C 64 % 9.11 C
192 16-07-2006 07:56:03 16.2 C 63 % 9.16 C
193 16-07-2006 08:06:02 16.4 C 63 % 9.35 C
194 16-07-2006 08:16:01 16.8 C 61 % 9.24 C
195 16-07-2006 08:26:01 17.1 C 60 % 9.28 C
196 16-07-2006 08:36:02 17.3 C 60 % 9.47 C
197 16-07-2006 08:46:02 17.6 C 60 % 9.75 C
198 16-07-2006 08:56:02 18.1 C 58 % 9.71 C
199 16-07-2006 09:06:01 18.7 C 56 % 9.75 C
200 16-07-2006 09:16:01 19.3 C 55 % 10.04 C
Sensor: Nr:Datum:Temp:Feuchte:Taupunkt:
Aussen-T/F 201 16-07-2006 09:26:01 19.9 C 52 % 9.76 C
202 16-07-2006 09:36:01 20.8 C 47 % 9.08 C
203 16-07-2006 09:46:02 21.4 C 43 % 8.31 C
204 16-07-2006 09:56:03 22 C 40 % 7.79 C
205 16-07-2006 10:06:01 22.6 C 37 % 7.18 C
206 16-07-2006 10:16:01 23.1 C 36 % 7.23 C
207 16-07-2006 10:26:01 23.6 C 35 % 7.25 C
208 16-07-2006 10:36:01 24.1 C 33 % 6.84 C
209 16-07-2006 10:46:02 24.3 C 33 % 7.01 C
210 16-07-2006 10:56:02 24.8 C 32 % 7 C
211 16-07-2006 11:06:02 25.1 C 30 % 6.32 C
212 16-07-2006 11:16:02 25.6 C 30 % 6.75 C
213 16-07-2006 11:26:03 26.1 C 29 % 6.69 C
214 16-07-2006 11:36:01 26.4 C 28 % 6.43 C
215 16-07-2006 11:46:02 26.7 C 27 % 6.16 C
216 16-07-2006 11:56:02 27.4 C 27 % 6.76 C
217 16-07-2006 12:06:02 27.8 C 25 % 5.98 C
218 16-07-2006 12:16:02 28.3 C 24 % 5.81 C
219 16-07-2006 12:26:02 28.7 C 24 % 6.15 C
220 16-07-2006 12:36:02 29.3 C 21 % 4.73 C
221 16-07-2006 12:46:02 29.8 C 21 % 5.14 C
222 16-07-2006 12:56:02 30 C 20 % 4.61 C
223 16-07-2006 13:06:02 30.3 C 20 % 4.85 C
224 16-07-2006 13:16:04 31 C 20 % 5.42 C
225 16-07-2006 13:26:04 31.1 C 20 % 5.51 C
Sensor: Nr:Datum:Temp:Feuchte:Taupunkt:
Aussen-T/F 226 16-07-2006 13:36:04 31.2 C 20 % 5.59 C
227 16-07-2006 13:46:02 31.2 C 20 % 5.59 C
228 16-07-2006 13:56:02 31.2 C 20 % 5.59 C
229 16-07-2006 14:06:02 31.3 C 20 % 5.67 C
230 16-07-2006 14:16:02 30.9 C 20 % 5.34 C
231 16-07-2006 14:26:02 30.8 C 20 % 5.26 C
232 16-07-2006 14:36:03 30.8 C 20 % 5.26 C
233 16-07-2006 14:46:02 31.2 C 20 % 5.59 C
234 16-07-2006 14:56:02 31.3 C 20 % 5.67 C
235 16-07-2006 15:06:02 31.5 C 20 % 5.83 C
236 16-07-2006 15:16:02 31.5 C 20 % 5.83 C
237 16-07-2006 15:26:02 31.9 C 20 % 6.16 C
238 16-07-2006 15:36:02 32 C 20 % 6.24 C
239 16-07-2006 15:46:03 32.3 C 20 % 6.49 C
240 16-07-2006 15:56:03 32.5 C 20 % 6.65 C
241 16-07-2006 16:06:03 32.6 C 20 % 6.73 C
242 16-07-2006 16:16:03 32.8 C 20 % 6.9 C
243 16-07-2006 16:26:03 32.7 C 20 % 6.81 C
244 16-07-2006 16:36:03 32.7 C 20 % 6.81 C
245 16-07-2006 16:46:02 32.7 C 20 % 6.81 C
246 16-07-2006 16:56:02 33 C 20 % 7.06 C
247 16-07-2006 17:06:01 33 C 20 % 7.06 C
248 16-07-2006 17:16:01 32.9 C 20 % 6.98 C
249 16-07-2006 17:26:01 33.1 C 20 % 7.14 C
250 16-07-2006 17:36:01 33.3 C 20 % 7.3 C
Sensor: Nr:Datum:Temp:Feuchte:Taupunkt:
Aussen-T/F 251 16-07-2006 17:46:02 33.4 C 20 % 7.39 C
252 16-07-2006 17:56:03 33.2 C 20 % 7.22 C
253 16-07-2006 18:06:01 33.3 C 20 % 7.3 C
254 16-07-2006 18:16:01 33.2 C 20 % 7.22 C
255 16-07-2006 18:26:01 33.3 C 20 % 7.3 C
256 16-07-2006 18:36:02 33 C 20 % 7.06 C
257 16-07-2006 18:46:02 32.9 C 20 % 6.98 C
258 16-07-2006 18:56:02 33 C 20 % 7.06 C
259 16-07-2006 19:06:02 32.7 C 20 % 6.81 C
260 16-07-2006 19:16:02 32.7 C 20 % 6.81 C
261 16-07-2006 19:26:02 32.3 C 20 % 6.49 C
262 16-07-2006 19:36:03 32 C 20 % 6.24 C
263 16-07-2006 19:46:02 31.8 C 20 % 6.08 C
264 16-07-2006 19:56:02 31.4 C 20 % 5.75 C
265 16-07-2006 20:06:02 31 C 20 % 5.42 C
266 16-07-2006 20:16:02 31.1 C 20 % 5.51 C
267 16-07-2006 20:26:02 31.1 C 20 % 5.51 C
268 16-07-2006 20:36:02 30.7 C 20 % 5.18 C
269 16-07-2006 20:46:02 30.2 C 20 % 4.77 C
270 16-07-2006 20:56:02 29.6 C 20 % 4.28 C
271 16-07-2006 21:06:02 28.6 C 23 % 5.45 C
272 16-07-2006 21:16:02 27.9 C 23 % 4.87 C
273 16-07-2006 21:26:02 27.4 C 24 % 5.06 C
274 16-07-2006 21:36:02 26.9 C 25 % 5.22 C
275 16-07-2006 21:46:02 26.4 C 26 % 5.37 C
Sensor: Nr:Datum:Temp:Feuchte:Taupunkt:
Aussen-T/F 276 16-07-2006 21:56:02 25.7 C 26 % 4.77 C
277 16-07-2006 22:06:02 25.4 C 26 % 4.52 C
278 16-07-2006 22:16:02 25.1 C 27 % 4.8 C
279 16-07-2006 22:26:02 24.7 C 28 % 4.98 C
280 16-07-2006 22:36:02 24.4 C 28 % 4.73 C
281 16-07-2006 22:46:02 24.2 C 29 % 5.06 C
282 16-07-2006 22:56:03 24.1 C 29 % 4.97 C
283 16-07-2006 23:06:02 24.1 C 28 % 4.47 C
284 16-07-2006 23:16:02 23.8 C 30 % 5.2 C
285 16-07-2006 23:26:02 23.8 C 30 % 5.2 C
286 16-07-2006 23:36:03 23.7 C 30 % 5.11 C
287 16-07-2006 23:46:02 23.5 C 30 % 4.94 C
288 16-07-2006 23:56:03 23.4 C 30 % 4.85 C
289 17-07-2006 00:06:02 23.3 C 30 % 4.77 C
290 17-07-2006 00:16:02 23.1 C 31 % 5.06 C
291 17-07-2006 00:26:02 23.1 C 30 % 4.59 C
292 17-07-2006 00:36:03 22.9 C 31 % 4.89 C
293 17-07-2006 00:46:03 22.8 C 32 % 5.26 C
294 17-07-2006 00:56:03 22.5 C 33 % 5.44 C
295 17-07-2006 01:06:03 22.4 C 33 % 5.35 C
296 17-07-2006 01:16:02 22.3 C 33 % 5.26 C
297 17-07-2006 01:26:02 21.8 C 36 % 6.08 C
298 17-07-2006 01:36:02 21.6 C 35 % 5.5 C
299 17-07-2006 01:46:02 21.2 C 36 % 5.55 C
300 17-07-2006 01:56:02 21 C 37 % 5.77 C
Sensor: Nr:Datum:Temp:Feuchte:Taupunkt:
Aussen-T/F 301 17-07-2006 02:06:02 20.8 C 39 % 6.35 C
302 17-07-2006 02:16:02 20.3 C 40 % 6.27 C
303 17-07-2006 02:26:02 20.1 C 40 % 6.09 C
304 17-07-2006 02:36:02 19.9 C 41 % 6.27 C
305 17-07-2006 02:47:04 19.7 C 41 % 6.09 C
306 17-07-2006 02:57:04 19.5 C 41 % 5.91 C
307 17-07-2006 03:07:04 19.3 C 42 % 6.08 C
308 17-07-2006 03:17:04 19.1 C 42 % 5.9 C
309 17-07-2006 03:27:04 19 C 43 % 6.15 C
310 17-07-2006 03:37:02 18.9 C 44 % 6.39 C
311 17-07-2006 03:47:02 18.7 C 44 % 6.21 C
312 17-07-2006 03:57:02 18.5 C 45 % 6.36 C
313 17-07-2006 04:07:02 18.5 C 46 % 6.67 C
314 17-07-2006 04:17:01 18.1 C 45 % 5.99 C
315 17-07-2006 04:27:01 17.9 C 47 % 6.44 C
316 17-07-2006 04:37:02 17.7 C 47 % 6.26 C
317 17-07-2006 04:47:03 17.5 C 49 % 6.68 C
318 17-07-2006 04:57:03 17.3 C 50 % 6.79 C
319 17-07-2006 05:07:02 17.2 C 50 % 6.7 C
320 17-07-2006 05:17:03 16.9 C 52 % 6.99 C
321 17-07-2006 05:27:03 16.7 C 53 % 7.08 C
322 17-07-2006 05:37:03 16.5 C 54 % 7.17 C
323 17-07-2006 05:47:02 16.4 C 55 % 7.35 C
324 17-07-2006 05:57:02 16.3 C 56 % 7.52 C
325 17-07-2006 06:07:01 16.2 C 56 % 7.42 C
Sensor: Nr:Datum:Temp:Feuchte:Taupunkt:
Aussen-T/F 326 17-07-2006 06:17:01 16.1 C 56 % 7.33 C
327 17-07-2006 06:27:01 16.2 C 58 % 7.94 C
328 17-07-2006 06:37:02 16.3 C 59 % 8.28 C
329 17-07-2006 06:47:02 16.3 C 59 % 8.28 C
330 17-07-2006 06:57:02 16.4 C 60 % 8.62 C
331 17-07-2006 07:07:02 16.5 C 61 % 8.96 C
332 17-07-2006 07:17:01 16.4 C 60 % 8.62 C
333 17-07-2006 07:27:01 16.6 C 60 % 8.81 C
334 17-07-2006 07:37:01 16.7 C 60 % 8.9 C
335 17-07-2006 07:47:02 16.8 C 59 % 8.75 C
336 17-07-2006 07:57:02 17 C 57 % 8.43 C
337 17-07-2006 08:07:01 17.2 C 58 % 8.87 C
338 17-07-2006 08:17:01 17.5 C 57 % 8.9 C
339 17-07-2006 08:27:01 17.7 C 56 % 8.82 C
340 17-07-2006 08:37:02 18 C 55 % 8.83 C
341 17-07-2006 08:47:02 18.4 C 55 % 9.2 C
342 17-07-2006 08:57:02 19.1 C 48 % 7.84 C
343 17-07-2006 09:07:01 19.6 C 47 % 7.99 C
344 17-07-2006 09:17:01 20.3 C 45 % 7.99 C
345 17-07-2006 09:27:01 20.8 C 42 % 7.43 C
346 17-07-2006 09:37:01 21.4 C 40 % 7.25 C
347 17-07-2006 09:47:01 22 C 37 % 6.65 C
348 17-07-2006 09:57:02 22.4 C 36 % 6.61 C
349 17-07-2006 10:07:01 22.8 C 36 % 6.96 C
350 17-07-2006 10:17:01 23.2 C 34 % 6.48 C
Sensor: Nr:Datum:Temp:Feuchte:Taupunkt:
Aussen-T/F 351 17-07-2006 10:27:01 23.7 C 34 % 6.92 C
352 17-07-2006 10:37:01 23.9 C 33 % 6.66 C
353 17-07-2006 10:47:02 24.8 C 32 % 7 C
354 17-07-2006 10:57:02 25.2 C 30 % 6.41 C
355 17-07-2006 11:07:02 25.5 C 28 % 5.67 C
356 17-07-2006 11:17:02 26 C 27 % 5.57 C
357 17-07-2006 11:27:02 26.7 C 27 % 6.16 C
358 17-07-2006 11:37:02 26.9 C 26 % 5.79 C
359 17-07-2006 11:47:02 27.5 C 26 % 6.3 C
360 17-07-2006 11:57:03 28 C 25 % 6.15 C
361 17-07-2006 12:07:02 28.7 C 22 % 4.9 C
362 17-07-2006 12:17:02 29.2 C 21 % 4.64 C
363 17-07-2006 12:27:02 29.1 C 20 % 3.87 C
364 17-07-2006 12:37:03 30 C 20 % 4.61 C
365 17-07-2006 12:47:02 30.2 C 20 % 4.77 C
366 17-07-2006 12:57:03 30.4 C 20 % 4.93 C
367 17-07-2006 13:07:02 30.4 C 20 % 4.93 C
368 17-07-2006 13:17:02 31 C 20 % 5.42 C
369 17-07-2006 13:27:02 31.2 C 20 % 5.59 C
370 17-07-2006 13:37:03 32 C 20 % 6.24 C
371 17-07-2006 13:47:02 31.9 C 20 % 6.16 C
372 17-07-2006 13:57:03 31.8 C 20 % 6.08 C
373 17-07-2006 14:07:02 31.5 C 20 % 5.83 C
374 17-07-2006 14:17:02 31.4 C 20 % 5.75 C
375 17-07-2006 14:27:02 31.4 C 20 % 5.75 C
Sensor: Nr:Datum:Temp:Feuchte:Taupunkt:
Aussen-T/F 376 17-07-2006 14:37:03 31.4 C 20 % 5.75 C
377 17-07-2006 14:47:02 31.7 C 20 % 6 C
378 17-07-2006 14:57:03 32.1 C 20 % 6.32 C
379 17-07-2006 15:07:02 32.3 C 20 % 6.49 C
380 17-07-2006 15:17:02 32.5 C 20 % 6.65 C
381 17-07-2006 15:27:02 32.8 C 20 % 6.9 C
382 17-07-2006 15:37:02 32.7 C 20 % 6.81 C
383 17-07-2006 15:47:02 33.1 C 20 % 7.14 C
384 17-07-2006 15:57:02 33.3 C 20 % 7.3 C
385 17-07-2006 16:07:02 33.6 C 20 % 7.55 C
386 17-07-2006 16:17:01 33.8 C 20 % 7.71 C
387 17-07-2006 16:27:01 33.8 C 20 % 7.71 C
388 17-07-2006 16:37:02 33.7 C 20 % 7.63 C
389 17-07-2006 16:47:02 33.9 C 20 % 7.8 C
390 17-07-2006 16:57:03 34.1 C 20 % 7.96 C
391 17-07-2006 17:07:02 34.1 C 20 % 7.96 C
392 17-07-2006 17:17:01 34 C 20 % 7.88 C
393 17-07-2006 17:27:01 34 C 20 % 7.88 C
394 17-07-2006 17:37:02 33.9 C 20 % 7.8 C
395 17-07-2006 17:47:02 34.2 C 20 % 8.04 C
396 17-07-2006 17:57:03 34 C 20 % 7.88 C
397 17-07-2006 18:07:02 34.2 C 20 % 8.04 C
398 17-07-2006 18:17:01 34.1 C 20 % 7.96 C
399 17-07-2006 18:27:01 34.2 C 20 % 8.04 C
400 17-07-2006 18:37:02 34 C 20 % 7.88 C
Sensor: Nr:Datum:Temp:Feuchte:Taupunkt:
Aussen-T/F 401 17-07-2006 18:47:02 34.3 C 20 % 8.12 C
402 17-07-2006 18:57:02 34.2 C 20 % 8.04 C
403 17-07-2006 19:07:02 34.1 C 20 % 7.96 C
404 17-07-2006 19:17:01 34 C 20 % 7.88 C
405 17-07-2006 19:27:01 33.8 C 20 % 7.71 C
406 17-07-2006 19:37:01 33.6 C 20 % 7.55 C
407 17-07-2006 19:47:02 33.6 C 20 % 7.55 C
408 17-07-2006 19:57:02 33.3 C 20 % 7.3 C
409 17-07-2006 20:07:02 33 C 20 % 7.06 C
410 17-07-2006 20:17:02 32.7 C 20 % 6.81 C
411 17-07-2006 20:27:02 32.5 C 20 % 6.65 C
412 17-07-2006 20:37:01 32 C 20 % 6.24 C
413 17-07-2006 20:47:02 31.8 C 20 % 6.08 C
414 17-07-2006 20:57:03 31 C 21 % 6.13 C
415 17-07-2006 21:07:02 30.4 C 23 % 6.95 C
416 17-07-2006 21:17:02 29.8 C 23 % 6.45 C
417 17-07-2006 21:27:02 29 C 23 % 5.78 C
418 17-07-2006 21:37:02 28.4 C 23 % 5.28 C
419 17-07-2006 21:47:02 27.9 C 25 % 6.07 C
420 17-07-2006 21:57:03 27.6 C 25 % 5.81 C
421 17-07-2006 22:07:02 27.3 C 26 % 6.13 C
422 17-07-2006 22:17:01 26.7 C 28 % 6.69 C
423 17-07-2006 22:27:01 26.3 C 28 % 6.35 C
424 17-07-2006 22:37:02 25.9 C 29 % 6.52 C
425 17-07-2006 22:47:02 25.5 C 30 % 6.66 C
Sensor: Nr:Datum:Temp:Feuchte:Taupunkt:
Aussen-T/F 426 17-07-2006 22:57:03 25.2 C 30 % 6.41 C
427 17-07-2006 23:07:01 24.8 C 32 % 7 C
428 17-07-2006 23:17:01 24.5 C 32 % 6.74 C
429 17-07-2006 23:27:01 24.4 C 33 % 7.1 C
430 17-07-2006 23:37:02 23.9 C 35 % 7.52 C
431 17-07-2006 23:47:02 23.7 C 36 % 7.75 C
432 17-07-2006 23:57:02 23.1 C 36 % 7.23 C
433 18-07-2006 00:07:02 23.2 C 36 % 7.31 C
434 18-07-2006 00:17:01 22.7 C 36 % 6.87 C
435 18-07-2006 00:27:01 22.5 C 38 % 7.48 C
436 18-07-2006 00:37:02 22.3 C 38 % 7.31 C
437 18-07-2006 00:47:03 21.9 C 39 % 7.33 C
438 18-07-2006 00:57:03 21.7 C 40 % 7.52 C
439 18-07-2006 01:07:02 21.5 C 41 % 7.7 C
440 18-07-2006 01:17:03 21.3 C 41 % 7.53 C
441 18-07-2006 01:27:03 21 C 42 % 7.61 C
442 18-07-2006 01:37:03 20.9 C 43 % 7.86 C
443 18-07-2006 01:47:02 20.8 C 45 % 8.44 C
444 18-07-2006 01:57:02 20.5 C 46 % 8.49 C
445 18-07-2006 02:07:02 20.5 C 46 % 8.49 C
446 18-07-2006 02:17:02 19.9 C 51 % 9.47 C
447 18-07-2006 02:27:02 19.6 C 50 % 8.9 C
448 18-07-2006 02:37:02 19.4 C 48 % 8.12 C
449 18-07-2006 02:48:04 19.3 C 48 % 8.03 C
450 18-07-2006 02:58:04 19 C 49 % 8.05 C
Sensor: Nr:Datum:Temp:Feuchte:Taupunkt:
Aussen-T/F 451 18-07-2006 03:08:04 18.9 C 50 % 8.26 C
452 18-07-2006 03:18:03 18.7 C 51 % 8.37 C
453 18-07-2006 03:28:03 18.6 C 52 % 8.56 C
454 18-07-2006 03:38:02 18.4 C 52 % 8.38 C
455 18-07-2006 03:48:02 18.4 C 52 % 8.38 C
456 18-07-2006 03:58:02 18.2 C 53 % 8.47 C
457 18-07-2006 04:08:02 17.9 C 55 % 8.74 C
458 18-07-2006 04:18:03 17.8 C 56 % 8.91 C
459 18-07-2006 04:28:03 17.6 C 57 % 8.99 C
460 18-07-2006 04:38:02 17.4 C 58 % 9.06 C
461 18-07-2006 04:48:03 17.2 C 57 % 8.62 C
462 18-07-2006 04:58:03 17 C 60 % 9.19 C
463 18-07-2006 05:08:03 16.8 C 62 % 9.49 C
464 18-07-2006 05:18:02 16.7 C 61 % 9.15 C
465 18-07-2006 05:28:02 16.5 C 63 % 9.44 C
466 18-07-2006 05:38:02 16.4 C 63 % 9.35 C
467 18-07-2006 05:48:02 16.3 C 63 % 9.25 C
468 18-07-2006 05:58:02 16.2 C 63 % 9.16 C
469 18-07-2006 06:08:01 16.1 C 64 % 9.29 C
470 18-07-2006 06:18:02 16.2 C 64 % 9.39 C
471 18-07-2006 06:28:02 16.1 C 65 % 9.53 C
472 18-07-2006 06:38:02 16.2 C 65 % 9.62 C
473 18-07-2006 06:48:03 16.4 C 65 % 9.81 C
474 18-07-2006 06:58:03 16.4 C 66 % 10.04 C
475 18-07-2006 07:08:02 16.5 C 66 % 10.13 C
Sensor: Nr:Datum:Temp:Feuchte:Taupunkt:
Aussen-T/F 476 18-07-2006 07:18:02 16.6 C 66 % 10.23 C
477 18-07-2006 07:28:02 16.6 C 66 % 10.23 C
478 18-07-2006 07:38:02 16.6 C 65 % 10 C
479 18-07-2006 07:48:01 16.6 C 65 % 10 C
480 18-07-2006 07:58:01 17 C 63 % 9.91 C
481 18-07-2006 08:08:01 17.2 C 64 % 10.34 C
482 18-07-2006 08:18:01 17.5 C 62 % 10.15 C
483 18-07-2006 08:28:01 17.7 C 61 % 10.09 C
484 18-07-2006 08:38:02 17.9 C 61 % 10.28 C
485 18-07-2006 08:48:02 18.2 C 58 % 9.81 C
486 18-07-2006 08:58:03 18.6 C 58 % 10.18 C
487 18-07-2006 09:08:01 19.1 C 58 % 10.65 C
488 18-07-2006 09:18:01 19.8 C 56 % 10.78 C
489 18-07-2006 09:28:01 20.4 C 54 % 10.79 C
490 18-07-2006 09:38:02 21.3 C 53 % 11.34 C
491 18-07-2006 09:48:02 21.9 C 51 % 11.31 C
492 18-07-2006 09:58:02 22.6 C 50 % 11.66 C
493 18-07-2006 10:08:01 23.4 C 47 % 11.45 C
494 18-07-2006 10:18:01 24.1 C 45 % 11.43 C
495 18-07-2006 10:28:01 24.9 C 43 % 11.47 C
496 18-07-2006 10:38:01 25.7 C 41 % 11.47 C
497 18-07-2006 10:48:02 26.6 C 39 % 11.51 C
498 18-07-2006 10:58:02 27.2 C 36 % 10.84 C
499 18-07-2006 11:08:01 27.8 C 31 % 9.13 C
500 18-07-2006 11:18:01 28.4 C 29 % 8.66 C
Sensor: Nr:Datum:Temp:Feuchte:Taupunkt:
Aussen-T/F 501 18-07-2006 11:28:01 29.1 C 28 % 8.74 C
502 18-07-2006 11:38:01 29.2 C 26 % 7.73 C
503 18-07-2006 11:48:02 29.7 C 25 % 7.58 C
504 18-07-2006 11:58:02 30 C 24 % 7.24 C
505 18-07-2006 12:08:02 30.2 C 24 % 7.4 C
506 18-07-2006 12:18:01 30.5 C 22 % 6.39 C
507 18-07-2006 12:28:01 31 C 21 % 6.13 C
508 18-07-2006 12:38:01 31.4 C 20 % 5.75 C
509 18-07-2006 12:48:03 31.6 C 20 % 5.91 C
510 18-07-2006 12:58:03 31.8 C 20 % 6.08 C
511 18-07-2006 13:08:02 32.2 C 20 % 6.41 C
512 18-07-2006 13:18:02 32.5 C 20 % 6.65 C
513 18-07-2006 13:28:02 32.4 C 20 % 6.57 C
514 18-07-2006 13:38:02 32.6 C 20 % 6.73 C
515 18-07-2006 13:48:02 32.7 C 20 % 6.81 C
516 18-07-2006 13:58:02 33 C 20 % 7.06 C
517 18-07-2006 14:08:02 32.9 C 20 % 6.98 C
518 18-07-2006 14:18:01 32.7 C 20 % 6.81 C
519 18-07-2006 14:28:01 32.8 C 20 % 6.9 C
520 18-07-2006 14:38:01 32.8 C 20 % 6.9 C
521 18-07-2006 14:48:02 33.3 C 20 % 7.3 C
522 18-07-2006 14:58:02 33.6 C 20 % 7.55 C
523 18-07-2006 15:08:02 33.7 C 20 % 7.63 C
524 18-07-2006 15:18:01 33.7 C 20 % 7.63 C
525 18-07-2006 15:28:01 33.9 C 20 % 7.8 C
Sensor: Nr:Datum:Temp:Feuchte:Taupunkt:
Aussen-T/F 526 18-07-2006 15:38:01 34.1 C 20 % 7.96 C
527 18-07-2006 15:48:02 33.9 C 20 % 7.8 C
528 18-07-2006 15:58:02 34.4 C 20 % 8.2 C
529 18-07-2006 16:08:02 34.5 C 20 % 8.28 C
530 18-07-2006 16:18:01 34.7 C 20 % 8.45 C
531 18-07-2006 16:28:01 34.9 C 20 % 8.61 C
532 18-07-2006 16:38:01 34.9 C 20 % 8.61 C
533 18-07-2006 16:48:02 34.4 C 20 % 8.2 C
534 18-07-2006 16:58:02 34.9 C 20 % 8.61 C
535 18-07-2006 17:08:02 35 C 20 % 8.69 C
536 18-07-2006 17:18:02 35.2 C 20 % 8.86 C
537 18-07-2006 17:28:02 35.2 C 20 % 8.86 C
538 18-07-2006 17:38:02 35.2 C 20 % 8.86 C
539 18-07-2006 17:48:02 34.8 C 20 % 8.53 C
540 18-07-2006 17:58:02 35.1 C 20 % 8.77 C
541 18-07-2006 18:08:02 35.2 C 20 % 8.86 C
542 18-07-2006 18:18:02 35.3 C 20 % 8.94 C
543 18-07-2006 18:28:02 35.2 C 20 % 8.86 C
544 18-07-2006 18:38:02 35.2 C 20 % 8.86 C
545 18-07-2006 18:48:02 35.5 C 20 % 9.1 C
546 18-07-2006 18:58:02 35.2 C 20 % 8.86 C
547 18-07-2006 19:08:02 35.2 C 20 % 8.86 C
548 18-07-2006 19:18:02 35 C 20 % 8.69 C
549 18-07-2006 19:28:02 34.9 C 20 % 8.61 C
550 18-07-2006 19:38:03 34.7 C 20 % 8.45 C
Sensor: Nr:Datum:Temp:Feuchte:Taupunkt:
Aussen-T/F 551 18-07-2006 19:48:02 34.7 C 20 % 8.45 C
552 18-07-2006 19:58:02 34.6 C 20 % 8.37 C
553 18-07-2006 20:08:02 34.5 C 20 % 8.28 C
554 18-07-2006 20:18:02 34.2 C 20 % 8.04 C
555 18-07-2006 20:28:02 33.9 C 20 % 7.8 C
556 18-07-2006 20:38:03 33.5 C 20 % 7.47 C
557 18-07-2006 20:48:02 32.7 C 20 % 6.81 C
558 18-07-2006 20:58:02 32.3 C 20 % 6.49 C
559 18-07-2006 21:08:02 31.7 C 20 % 6 C
560 18-07-2006 21:18:02 31 C 20 % 5.42 C
561 18-07-2006 21:28:02 30.8 C 20 % 5.26 C
562 18-07-2006 21:38:03 30.5 C 21 % 5.72 C
563 18-07-2006 21:48:03 30.2 C 22 % 6.14 C
564 18-07-2006 21:58:03 29.6 C 23 % 6.28 C
565 18-07-2006 22:08:02 29.1 C 24 % 6.48 C
566 18-07-2006 22:18:02 28.2 C 24 % 5.73 C
567 18-07-2006 22:28:02 27.6 C 26 % 6.38 C
568 18-07-2006 22:38:02 27.5 C 26 % 6.3 C
569 18-07-2006 22:48:01 27.6 C 26 % 6.38 C
570 18-07-2006 22:58:01 27.2 C 28 % 7.12 C
571 18-07-2006 23:08:01 26.9 C 30 % 7.87 C
572 18-07-2006 23:18:01 26.3 C 31 % 7.83 C
573 18-07-2006 23:28:01 26.2 C 31 % 7.75 C
574 18-07-2006 23:38:02 25.9 C 32 % 7.95 C
575 18-07-2006 23:48:02 25.4 C 33 % 7.97 C
Sensor: Nr:Datum:Temp:Feuchte:Taupunkt:
Aussen-T/F 576 18-07-2006 23:58:02 25 C 35 % 8.48 C
577 19-07-2006 00:08:02 24.5 C 38 % 9.26 C
578 19-07-2006 00:18:03 24.1 C 39 % 9.29 C
579 19-07-2006 00:28:03 23.9 C 40 % 9.49 C
580 19-07-2006 00:38:03 23.8 C 40 % 9.4 C
581 19-07-2006 00:48:02 23.7 C 40 % 9.31 C
582 19-07-2006 00:58:02 23.5 C 41 % 9.5 C
583 19-07-2006 01:08:03 23.2 C 41 % 9.23 C
584 19-07-2006 01:18:03 23.1 C 41 % 9.14 C
585 19-07-2006 01:28:03 22.8 C 41 % 8.87 C
586 19-07-2006 01:38:02 22.6 C 41 % 8.69 C
587 19-07-2006 01:48:02 22.5 C 44 % 9.65 C
588 19-07-2006 01:58:02 22.1 C 43 % 8.95 C
589 19-07-2006 02:08:02 22 C 43 % 8.85 C
590 19-07-2006 02:18:02 21.8 C 44 % 9.01 C
591 19-07-2006 02:28:02 21.6 C 45 % 9.17 C
592 19-07-2006 02:38:02 21.3 C 45 % 8.89 C
593 19-07-2006 02:49:04 21 C 45 % 8.62 C
594 19-07-2006 02:59:04 20.9 C 47 % 9.17 C
595 19-07-2006 03:09:04 20.4 C 49 % 9.34 C
596 19-07-2006 03:19:04 20.4 C 49 % 9.34 C
597 19-07-2006 03:29:04 20.1 C 49 % 9.06 C
598 19-07-2006 03:39:02 20 C 49 % 8.97 C
599 19-07-2006 03:49:02 19.9 C 50 % 9.18 C
600 19-07-2006 03:59:02 19.7 C 51 % 9.29 C
Sensor: Nr:Datum:Temp:Feuchte:Taupunkt:
Aussen-T/F 601 19-07-2006 04:09:02 19.6 C 51 % 9.2 C
602 19-07-2006 04:19:01 19.3 C 53 % 9.49 C
603 19-07-2006 04:29:01 19.1 C 54 % 9.58 C
604 19-07-2006 04:39:01 19 C 54 % 9.49 C
605 19-07-2006 04:49:03 18.8 C 55 % 9.58 C
606 19-07-2006 04:59:03 18.7 C 56 % 9.75 C
607 19-07-2006 05:09:03 18.4 C 57 % 9.74 C
608 19-07-2006 05:19:03 18.2 C 57 % 9.55 C
609 19-07-2006 05:29:03 18.2 C 57 % 9.55 C
610 19-07-2006 05:39:03 18 C 58 % 9.62 C
611 19-07-2006 05:49:01 18 C 58 % 9.62 C
612 19-07-2006 05:59:01 17.9 C 59 % 9.78 C
613 19-07-2006 06:09:01 17.7 C 59 % 9.59 C
614 19-07-2006 06:19:02 17.7 C 60 % 9.84 C
615 19-07-2006 06:29:02 17.7 C 62 % 10.33 C
616 19-07-2006 06:39:02 17.7 C 63 % 10.57 C
617 19-07-2006 06:49:02 17.7 C 63 % 10.57 C
618 19-07-2006 06:59:02 17.7 C 63 % 10.57 C
619 19-07-2006 07:09:02 17.8 C 64 % 10.9 C
620 19-07-2006 07:19:02 18 C 62 % 10.62 C
621 19-07-2006 07:29:02 18 C 62 % 10.62 C
622 19-07-2006 07:39:02 18 C 61 % 10.37 C
623 19-07-2006 07:49:02 18.2 C 61 % 10.56 C
624 19-07-2006 07:59:02 18.3 C 61 % 10.66 C
625 19-07-2006 08:09:02 18.6 C 61 % 10.94 C
Sensor: Nr:Datum:Temp:Feuchte:Taupunkt:
Aussen-T/F 626 19-07-2006 08:19:02 18.9 C 61 % 11.22 C
627 19-07-2006 08:29:02 19.2 C 60 % 11.25 C
628 19-07-2006 08:39:01 19.5 C 58 % 11.02 C
629 19-07-2006 08:49:02 19.8 C 58 % 11.3 C
630 19-07-2006 08:59:02 20.3 C 57 % 11.51 C
631 19-07-2006 09:09:02 21 C 55 % 11.62 C
632 19-07-2006 09:19:02 21.7 C 54 % 11.99 C
633 19-07-2006 09:29:02 22.4 C 52 % 12.07 C
634 19-07-2006 09:39:02 23.1 C 49 % 11.81 C
635 19-07-2006 09:49:02 23.8 C 47 % 11.82 C
636 19-07-2006 09:59:03 24.6 C 44 % 11.54 C
637 19-07-2006 10:09:02 25.6 C 40 % 11 C
638 19-07-2006 10:19:02 26.3 C 39 % 11.25 C
639 19-07-2006 10:29:02 27 C 37 % 11.07 C
640 19-07-2006 10:39:02 27.8 C 36 % 11.37 C
641 19-07-2006 10:49:02 28.4 C 36 % 11.89 C
642 19-07-2006 10:59:03 28.9 C 34 % 11.47 C
643 19-07-2006 11:09:02 29.5 C 30 % 10.11 C
644 19-07-2006 11:19:02 30.1 C 26 % 8.5 C
645 19-07-2006 11:29:02 30.4 C 24 % 7.57 C
646 19-07-2006 11:39:01 30.8 C 21 % 5.96 C
647 19-07-2006 11:49:02 31.4 C 20 % 5.75 C
648 19-07-2006 11:59:02 31.6 C 20 % 5.91 C
649 19-07-2006 12:09:02 31.8 C 20 % 6.08 C
650 19-07-2006 12:19:02 32.1 C 20 % 6.32 C
Sensor: Nr:Datum:Temp:Feuchte:Taupunkt:
Aussen-T/F 651 19-07-2006 12:29:02 32.5 C 20 % 6.65 C
652 19-07-2006 12:39:02 32.8 C 20 % 6.9 C
653 19-07-2006 12:49:02 32.9 C 20 % 6.98 C
654 19-07-2006 12:59:03 33.2 C 20 % 7.22 C
655 19-07-2006 13:09:02 33.3 C 20 % 7.3 C
656 19-07-2006 13:19:02 33.7 C 20 % 7.63 C
657 19-07-2006 13:29:02 33.8 C 20 % 7.71 C
658 19-07-2006 13:39:02 33.8 C 20 % 7.71 C
659 19-07-2006 13:49:02 33.8 C 20 % 7.71 C
660 19-07-2006 13:59:02 33.7 C 20 % 7.63 C
661 19-07-2006 14:09:02 33.3 C 20 % 7.3 C
662 19-07-2006 14:19:02 33 C 20 % 7.06 C
663 19-07-2006 14:29:02 33.1 C 20 % 7.14 C
664 19-07-2006 14:39:02 33.2 C 20 % 7.22 C
665 19-07-2006 14:49:02 33.3 C 20 % 7.3 C
666 19-07-2006 14:59:02 33.9 C 20 % 7.8 C
667 19-07-2006 15:09:02 34.1 C 20 % 7.96 C
668 19-07-2006 15:19:03 34.1 C 20 % 7.96 C
669 19-07-2006 15:29:03 34.3 C 20 % 8.12 C
670 19-07-2006 15:39:02 34.2 C 20 % 8.04 C
671 19-07-2006 15:49:02 34.5 C 20 % 8.28 C
672 19-07-2006 15:59:02 34.8 C 20 % 8.53 C
673 19-07-2006 16:09:02 34.9 C 20 % 8.61 C
674 19-07-2006 16:19:02 34.7 C 20 % 8.45 C
675 19-07-2006 16:29:02 34.6 C 20 % 8.37 C
Sensor: Nr:Datum:Temp:Feuchte:Taupunkt:
Aussen-T/F 676 19-07-2006 16:39:02 35.2 C 20 % 8.86 C
677 19-07-2006 16:49:02 35.2 C 20 % 8.86 C
678 19-07-2006 16:59:02 35.2 C 20 % 8.86 C
679 19-07-2006 17:09:02 35 C 20 % 8.69 C
680 19-07-2006 17:19:03 35.2 C 20 % 8.86 C
681 19-07-2006 17:29:03 35.5 C 20 % 9.1 C
682 19-07-2006 17:39:02 35.4 C 20 % 9.02 C
683 19-07-2006 17:49:02 35.5 C 20 % 9.1 C
684 19-07-2006 17:59:02 35.3 C 20 % 8.94 C
685 19-07-2006 18:09:02 35.4 C 20 % 9.02 C
686 19-07-2006 18:19:02 35.5 C 20 % 9.1 C
687 19-07-2006 18:29:02 35.6 C 20 % 9.18 C
688 19-07-2006 18:39:02 35.5 C 20 % 9.1 C
689 19-07-2006 18:49:02 35.6 C 20 % 9.18 C
690 19-07-2006 18:59:02 35.5 C 20 % 9.1 C
691 19-07-2006 19:09:02 35.6 C 20 % 9.18 C
692 19-07-2006 19:19:02 35.3 C 20 % 8.94 C
693 19-07-2006 19:29:02 35.1 C 20 % 8.77 C
694 19-07-2006 19:39:03 34.8 C 20 % 8.53 C
695 19-07-2006 19:49:02 34.7 C 20 % 8.45 C
696 19-07-2006 19:59:02 34.5 C 20 % 8.28 C
697 19-07-2006 20:09:02 34.2 C 20 % 8.04 C
698 19-07-2006 20:19:02 34.1 C 20 % 7.96 C
699 19-07-2006 20:29:02 33.9 C 20 % 7.8 C
700 19-07-2006 20:39:02 33.2 C 20 % 7.22 C
Sensor: Nr:Datum:Temp:Feuchte:Taupunkt:
Aussen-T/F 701 19-07-2006 20:49:02 32.6 C 20 % 6.73 C
702 19-07-2006 20:59:03 32.1 C 20 % 6.32 C
703 19-07-2006 21:09:02 31.8 C 20 % 6.08 C
704 19-07-2006 21:19:02 31.4 C 20 % 5.75 C
705 19-07-2006 21:29:02 30.8 C 21 % 5.96 C
706 19-07-2006 21:39:03 30.6 C 21 % 5.8 C
707 19-07-2006 21:49:02 30.3 C 22 % 6.22 C
708 19-07-2006 21:59:02 30.1 C 22 % 6.06 C
709 19-07-2006 22:09:02 30 C 21 % 5.3 C
710 19-07-2006 22:19:02 29.8 C 22 % 5.81 C
711 19-07-2006 22:29:02 29.7 C 23 % 6.37 C
712 19-07-2006 22:39:02 29.5 C 22 % 5.56 C
713 19-07-2006 22:49:02 29.3 C 23 % 6.03 C
714 19-07-2006 22:59:02 29.2 C 23 % 5.95 C
715 19-07-2006 23:09:02 29 C 23 % 5.78 C
716 19-07-2006 23:19:01 29 C 24 % 6.4 C
717 19-07-2006 23:29:01 28.9 C 25 % 6.91 C
718 19-07-2006 23:39:01 28.6 C 26 % 7.23 C
719 19-07-2006 23:49:02 28.4 C 25 % 6.49 C
720 19-07-2006 23:59:02 28.3 C 25 % 6.4 C
721 20-07-2006 00:09:01 27.9 C 27 % 7.18 C
722 20-07-2006 00:19:02 27.7 C 27 % 7.01 C
723 20-07-2006 00:29:03 27.3 C 28 % 7.2 C
724 20-07-2006 00:39:02 27.1 C 29 % 7.55 C
725 20-07-2006 00:49:02 26.7 C 31 % 8.18 C
Sensor: Nr:Datum:Temp:Feuchte:Taupunkt:
Aussen-T/F 726 20-07-2006 00:59:02 26.5 C 31 % 8.01 C
727 20-07-2006 01:09:02 26.2 C 31 % 7.75 C
728 20-07-2006 01:19:02 25.7 C 33 % 8.23 C
729 20-07-2006 01:29:02 25.7 C 33 % 8.23 C
730 20-07-2006 01:39:02 25.4 C 33 % 7.97 C
731 20-07-2006 01:49:03 25.2 C 34 % 8.23 C
732 20-07-2006 01:59:03 25.1 C 34 % 8.15 C
733 20-07-2006 02:09:03 24.9 C 35 % 8.4 C
734 20-07-2006 02:19:03 24.7 C 36 % 8.64 C
735 20-07-2006 02:29:03 24.5 C 36 % 8.46 C
736 20-07-2006 02:39:02 24.2 C 36 % 8.2 C
737 20-07-2006 02:50:04 24.1 C 36 % 8.11 C
738 20-07-2006 03:00:04 24 C 36 % 8.02 C
739 20-07-2006 03:10:03 23.8 C 36 % 7.84 C
740 20-07-2006 03:20:03 23.7 C 37 % 8.16 C
741 20-07-2006 03:30:03 23.5 C 38 % 8.37 C
742 20-07-2006 03:40:02 23.3 C 38 % 8.19 C
743 20-07-2006 03:50:02 23 C 40 % 8.68 C
744 20-07-2006 04:00:02 22.9 C 41 % 8.96 C
745 20-07-2006 04:10:02 22.8 C 41 % 8.87 C
746 20-07-2006 04:20:02 22.7 C 41 % 8.78 C
747 20-07-2006 04:30:02 22.6 C 42 % 9.05 C
748 20-07-2006 04:40:02 22.3 C 42 % 8.78 C
749 20-07-2006 04:50:03 22 C 45 % 9.53 C
750 20-07-2006 05:00:03 21.9 C 46 % 9.77 C
Sensor: Nr:Datum:Temp:Feuchte:Taupunkt:
Aussen-T/F 751 20-07-2006 05:10:02 21.8 C 45 % 9.35 C
752 20-07-2006 05:20:02 21.6 C 45 % 9.17 C
753 20-07-2006 05:30:02 21.5 C 46 % 9.4 C
754 20-07-2006 05:40:02 21.4 C 47 % 9.63 C
755 20-07-2006 05:50:02 21.5 C 47 % 9.72 C
756 20-07-2006 06:00:02 21.4 C 48 % 9.94 C
757 20-07-2006 06:10:02 21.4 C 50 % 10.55 C
758 20-07-2006 06:20:02 21.4 C 49 % 10.25 C
759 20-07-2006 06:30:02 21.5 C 49 % 10.34 C
760 20-07-2006 06:40:02 21.6 C 49 % 10.44 C
761 20-07-2006 06:50:01 21.8 C 49 % 10.62 C
762 20-07-2006 07:00:01 21.8 C 50 % 10.92 C
763 20-07-2006 07:10:02 21.8 C 51 % 11.22 C
764 20-07-2006 07:20:02 21.7 C 51 % 11.13 C
765 20-07-2006 07:30:02 21.7 C 52 % 11.42 C
766 20-07-2006 07:40:02 21.7 C 53 % 11.71 C
767 20-07-2006 07:50:03 21.9 C 53 % 11.89 C
768 20-07-2006 08:00:03 22.2 C 50 % 11.29 C
769 20-07-2006 08:10:03 22.2 C 48 % 10.67 C
770 20-07-2006 08:20:02 22.3 C 48 % 10.77 C
771 20-07-2006 08:30:03 22.9 C 46 % 10.67 C
772 20-07-2006 08:40:02 23.2 C 45 % 10.62 C
773 20-07-2006 08:50:02 23.6 C 45 % 10.98 C
774 20-07-2006 09:00:02 23.8 C 44 % 10.82 C
775 20-07-2006 09:10:02 24.2 C 42 % 10.48 C
Sensor: Nr:Datum:Temp:Feuchte:Taupunkt:
Aussen-T/F 776 20-07-2006 09:20:01 24.6 C 43 % 11.2 C
777 20-07-2006 09:30:01 25.1 C 40 % 10.56 C
778 20-07-2006 09:40:01 25.8 C 39 % 10.8 C
779 20-07-2006 09:50:02 26.5 C 39 % 11.42 C
780 20-07-2006 10:00:03 26.9 C 36 % 10.57 C
781 20-07-2006 10:10:01 28 C 37 % 11.96 C
782 20-07-2006 10:20:01 28.6 C 35 % 11.64 C
783 20-07-2006 10:30:01 29.1 C 34 % 11.64 C
784 20-07-2006 10:40:01 29.4 C 32 % 10.99 C
785 20-07-2006 10:50:02 30.1 C 31 % 11.12 C
786 20-07-2006 11:00:02 30.7 C 30 % 11.14 C
787 20-07-2006 11:10:02 31 C 29 % 10.89 C
788 20-07-2006 11:20:01 31.3 C 27 % 10.07 C
789 20-07-2006 11:30:01 31.5 C 27 % 10.24 C
790 20-07-2006 11:40:01 31.8 C 26 % 9.93 C
791 20-07-2006 11:50:02 31.9 C 25 % 9.43 C
792 20-07-2006 12:00:02 31.6 C 26 % 9.76 C
793 20-07-2006 12:10:02 31.8 C 25 % 9.35 C
794 20-07-2006 12:20:01 32 C 24 % 8.91 C
795 20-07-2006 12:30:01 32 C 23 % 8.28 C
796 20-07-2006 12:40:01 32.1 C 22 % 7.71 C
797 20-07-2006 12:50:02 32.4 C 22 % 7.96 C
798 20-07-2006 13:00:02 32.3 C 22 % 7.88 C
799 20-07-2006 13:10:02 32.6 C 22 % 8.13 C
800 20-07-2006 13:20:02 32.8 C 21 % 7.61 C
Sensor: Nr:Datum:Temp:Feuchte:Taupunkt:
Aussen-T/F 801 20-07-2006 13:30:02 32.9 C 20 % 6.98 C
802 20-07-2006 13:40:02 32.9 C 21 % 7.69 C
803 20-07-2006 13:50:02 32.7 C 21 % 7.53 C
804 20-07-2006 14:00:02 32.6 C 22 % 8.13 C
805 20-07-2006 14:10:02 32.7 C 21 % 7.53 C
806 20-07-2006 14:20:02 32.7 C 21 % 7.53 C
807 20-07-2006 14:30:02 33 C 21 % 7.77 C
808 20-07-2006 14:40:01 32.6 C 21 % 7.44 C
809 20-07-2006 14:50:02 33.1 C 20 % 7.14 C
810 20-07-2006 15:00:02 33.1 C 20 % 7.14 C
811 20-07-2006 15:10:02 33.3 C 20 % 7.3 C
812 20-07-2006 15:20:02 33.3 C 20 % 7.3 C
813 20-07-2006 15:30:02 33.3 C 20 % 7.3 C
814 20-07-2006 15:40:02 33.7 C 20 % 7.63 C
815 20-07-2006 15:50:02 33.7 C 20 % 7.63 C
816 20-07-2006 16:00:03 33.7 C 20 % 7.63 C
817 20-07-2006 16:10:02 33.7 C 20 % 7.63 C
818 20-07-2006 16:20:02 33.7 C 20 % 7.63 C
819 20-07-2006 16:30:02 34 C 20 % 7.88 C
820 20-07-2006 16:40:02 33.8 C 20 % 7.71 C
821 20-07-2006 16:50:03 33.9 C 20 % 7.8 C
822 20-07-2006 17:00:04 33.4 C 20 % 7.39 C
823 20-07-2006 17:10:03 32.7 C 21 % 7.53 C
824 20-07-2006 17:20:02 33.1 C 21 % 7.85 C
825 20-07-2006 17:30:02 33.5 C 20 % 7.47 C
Sensor: Nr:Datum:Temp:Feuchte:Taupunkt:
Aussen-T/F 826 20-07-2006 17:40:02 33 C 23 % 9.11 C
827 20-07-2006 17:50:02 32.6 C 25 % 10.02 C
828 20-07-2006 18:00:02 32.2 C 26 % 10.27 C
829 20-07-2006 18:10:02 32.1 C 27 % 10.75 C
830 20-07-2006 18:20:02 31.2 C 29 % 11.06 C
831 20-07-2006 18:30:03 31.7 C 29 % 11.48 C
832 20-07-2006 18:40:03 32.7 C 25 % 10.1 C
833 20-07-2006 18:50:03 32.6 C 25 % 10.02 C
834 20-07-2006 19:00:03 32.1 C 27 % 10.75 C
835 20-07-2006 19:10:03 32.1 C 28 % 11.3 C
836 20-07-2006 19:20:03 32.5 C 26 % 10.52 C
837 20-07-2006 19:30:03 32.5 C 26 % 10.52 C
838 20-07-2006 19:40:03 31.9 C 28 % 11.13 C
839 20-07-2006 19:50:03 31.8 C 29 % 11.57 C
840 20-07-2006 20:00:03 31.8 C 30 % 12.08 C
841 20-07-2006 20:10:03 31.3 C 33 % 13.1 C
842 20-07-2006 20:20:02 30.9 C 35 % 13.66 C
843 20-07-2006 20:30:03 30.6 C 35 % 13.39 C
844 20-07-2006 20:40:03 30.4 C 37 % 14.07 C
845 20-07-2006 20:50:03 30.1 C 36 % 13.39 C
846 20-07-2006 21:00:03 29.6 C 38 % 13.78 C
847 20-07-2006 21:10:03 29.6 C 39 % 14.18 C
848 20-07-2006 21:20:02 29.4 C 39 % 14 C
849 20-07-2006 21:30:02 29.1 C 40 % 14.12 C
850 20-07-2006 21:40:02 28.5 C 42 % 14.34 C
Sensor: Nr:Datum:Temp:Feuchte:Taupunkt:
Aussen-T/F 851 20-07-2006 21:50:01 28.3 C 42 % 14.16 C
852 20-07-2006 22:00:01 28.1 C 42 % 13.98 C
853 20-07-2006 22:10:01 27.9 C 44 % 14.52 C
854 20-07-2006 22:20:00 27.6 C 45 % 14.6 C
855 20-07-2006 22:30:00 27.6 C 45 % 14.6 C
856 20-07-2006 22:40:01 27.4 C 46 % 14.76 C
857 20-07-2006 22:50:01 27.2 C 47 % 14.91 C
858 20-07-2006 23:00:01 27.1 C 47 % 14.82 C
859 20-07-2006 23:10:01 26.9 C 49 % 15.28 C
860 20-07-2006 23:20:01 26.6 C 50 % 15.32 C
861 20-07-2006 23:30:01 26.4 C 50 % 15.14 C
862 20-07-2006 23:40:01 26.3 C 51 % 15.36 C
863 20-07-2006 23:50:01 26 C 52 % 15.38 C
864 21-07-2006 00:00:01 25.8 C 53 % 15.5 C
865 21-07-2006 00:10:02 25.6 C 53 % 15.31 C
866 21-07-2006 00:20:01 25.3 C 54 % 15.33 C
867 21-07-2006 00:30:01 25.1 C 54 % 15.14 C
868 21-07-2006 00:40:01 25 C 56 % 15.61 C
869 21-07-2006 00:50:02 24.8 C 57 % 15.7 C
870 21-07-2006 01:00:02 24.6 C 57 % 15.52 C
871 21-07-2006 01:10:02 24.5 C 58 % 15.7 C
872 21-07-2006 01:20:02 24.4 C 58 % 15.6 C
873 21-07-2006 01:30:02 24.2 C 59 % 15.68 C
874 21-07-2006 01:40:02 24.2 C 58 % 15.42 C
875 21-07-2006 01:50:01 24.1 C 58 % 15.32 C
Sensor: Nr:Datum:Temp:Feuchte:Taupunkt:
Aussen-T/F 876 21-07-2006 02:00:01 23.9 C 60 % 15.66 C
877 21-07-2006 02:10:01 23.6 C 61 % 15.64 C
878 21-07-2006 02:20:02 23.4 C 61 % 15.45 C
879 21-07-2006 02:30:02 23.3 C 61 % 15.36 C
880 21-07-2006 02:40:02 23.3 C 63 % 15.86 C
881 21-07-2006 02:51:04 23 C 63 % 15.58 C
882 21-07-2006 03:01:04 22.9 C 64 % 15.73 C
883 21-07-2006 03:11:03 22.8 C 64 % 15.64 C
884 21-07-2006 03:21:03 22.6 C 65 % 15.69 C
885 21-07-2006 03:31:03 22.4 C 65 % 15.5 C
886 21-07-2006 03:41:03 22.3 C 65 % 15.4 C
887 21-07-2006 03:51:03 22.2 C 66 % 15.55 C
888 21-07-2006 04:01:03 22 C 67 % 15.59 C
889 21-07-2006 04:11:03 21.9 C 68 % 15.73 C
890 21-07-2006 04:21:02 21.8 C 69 % 15.86 C
891 21-07-2006 04:31:02 21.7 C 69 % 15.77 C
892 21-07-2006 04:41:02 21.6 C 69 % 15.67 C
893 21-07-2006 04:51:02 21.5 C 69 % 15.57 C
894 21-07-2006 05:01:02 21.4 C 70 % 15.7 C
895 21-07-2006 05:11:02 21.3 C 70 % 15.61 C
896 21-07-2006 05:21:02 21.2 C 70 % 15.51 C
897 21-07-2006 05:31:02 21.1 C 71 % 15.64 C
898 21-07-2006 05:41:02 21.1 C 71 % 15.64 C
899 21-07-2006 05:51:02 21 C 71 % 15.54 C
900 21-07-2006 06:01:01 21 C 71 % 15.54 C
Sensor: Nr:Datum:Temp:Feuchte:Taupunkt:
Aussen-T/F 901 21-07-2006 06:11:01 21 C 71 % 15.54 C
902 21-07-2006 06:21:01 20.9 C 73 % 15.88 C
903 21-07-2006 06:31:01 20.8 C 73 % 15.78 C
904 21-07-2006 06:41:01 20.9 C 73 % 15.88 C
905 21-07-2006 06:51:02 20.9 C 74 % 16.09 C
906 21-07-2006 07:01:02 21 C 73 % 15.98 C
907 21-07-2006 07:11:02 21.1 C 72 % 15.86 C
908 21-07-2006 07:21:02 21.1 C 72 % 15.86 C
909 21-07-2006 07:31:01 21.2 C 72 % 15.95 C
910 21-07-2006 07:41:01 21.3 C 71 % 15.83 C
911 21-07-2006 07:51:02 21.5 C 71 % 16.02 C
912 21-07-2006 08:01:02 21.7 C 70 % 15.99 C
913 21-07-2006 08:11:02 22 C 68 % 15.82 C
914 21-07-2006 08:21:02 22.3 C 68 % 16.11 C
915 21-07-2006 08:31:02 22.5 C 66 % 15.83 C
916 21-07-2006 08:41:02 22.8 C 65 % 15.88 C
917 21-07-2006 08:51:02 23 C 64 % 15.82 C
918 21-07-2006 09:01:02 23.4 C 62 % 15.71 C
919 21-07-2006 09:11:02 23.9 C 61 % 15.92 C
920 21-07-2006 09:21:02 24.5 C 59 % 15.96 C
921 21-07-2006 09:31:02 25.1 C 56 % 15.71 C
922 21-07-2006 09:41:02 25.7 C 54 % 15.7 C
923 21-07-2006 09:51:02 26.1 C 51 % 15.17 C
924 21-07-2006 10:01:02 26.9 C 50 % 15.6 C
925 21-07-2006 10:11:02 27.2 C 47 % 14.91 C
Sensor: Nr:Datum:Temp:Feuchte:Taupunkt:
Aussen-T/F 926 21-07-2006 10:21:02 27.7 C 46 % 15.03 C
927 21-07-2006 10:31:03 28.3 C 43 % 14.53 C
928 21-07-2006 10:41:03 28.6 C 41 % 14.06 C
929 21-07-2006 10:51:02 29 C 37 % 12.84 C
930 21-07-2006 11:01:02 29.5 C 39 % 14.09 C
931 21-07-2006 11:11:02 29.9 C 38 % 14.04 C
932 21-07-2006 11:21:02 30.1 C 37 % 13.81 C
933 21-07-2006 11:31:03 30.3 C 36 % 13.56 C
934 21-07-2006 11:41:03 30.4 C 36 % 13.65 C
935 21-07-2006 11:51:02 30.6 C 34 % 12.95 C
936 21-07-2006 12:01:02 31.2 C 32 % 12.55 C
937 21-07-2006 12:11:02 31.7 C 31 % 12.5 C
938 21-07-2006 12:21:02 32.1 C 29 % 11.83 C
939 21-07-2006 12:31:03 32.1 C 27 % 10.75 C
940 21-07-2006 12:41:03 32.5 C 25 % 9.94 C
941 21-07-2006 12:51:03 32.7 C 26 % 10.69 C
942 21-07-2006 13:01:02 32.9 C 24 % 9.66 C
943 21-07-2006 13:11:02 33.1 C 23 % 9.2 C
944 21-07-2006 13:21:02 33.4 C 22 % 8.79 C
945 21-07-2006 13:31:02 33.4 C 21 % 8.1 C
946 21-07-2006 13:41:02 33.7 C 21 % 8.35 C
947 21-07-2006 13:51:02 33.2 C 21 % 7.94 C
948 21-07-2006 14:01:01 33.3 C 21 % 8.02 C
949 21-07-2006 14:11:01 33.1 C 22 % 8.54 C
950 21-07-2006 14:21:01 32.9 C 22 % 8.37 C
Sensor: Nr:Datum:Temp:Feuchte:Taupunkt:
Aussen-T/F 951 21-07-2006 14:31:02 33.3 C 21 % 8.02 C
952 21-07-2006 14:41:02 33.7 C 20 % 7.63 C
953 21-07-2006 14:51:02 34 C 20 % 7.88 C
954 21-07-2006 15:01:01 34.2 C 20 % 8.04 C
955 21-07-2006 15:11:01 33.5 C 20 % 7.47 C
956 21-07-2006 15:21:01 33.4 C 20 % 7.39 C
957 21-07-2006 15:31:02 34 C 20 % 7.88 C
958 21-07-2006 15:41:02 33.7 C 20 % 7.63 C
959 21-07-2006 15:51:02 34.1 C 20 % 7.96 C
960 21-07-2006 16:01:02 34.4 C 20 % 8.2 C
961 21-07-2006 16:11:02 33.3 C 20 % 7.3 C
962 21-07-2006 16:21:02 33.9 C 20 % 7.8 C
963 21-07-2006 16:31:03 34.5 C 20 % 8.28 C
964 21-07-2006 16:41:03 34.6 C 20 % 8.37 C
965 21-07-2006 16:51:02 34.7 C 20 % 8.45 C
966 21-07-2006 17:01:02 34.8 C 20 % 8.53 C
967 21-07-2006 17:11:02 34.8 C 20 % 8.53 C
968 21-07-2006 17:21:02 34.2 C 20 % 8.04 C
969 21-07-2006 17:31:01 34.5 C 20 % 8.28 C
970 21-07-2006 17:41:01 34.2 C 20 % 8.04 C
971 21-07-2006 17:51:02 34.6 C 20 % 8.37 C
972 21-07-2006 18:01:02 33.9 C 20 % 7.8 C
973 21-07-2006 18:11:02 33.9 C 20 % 7.8 C
974 21-07-2006 18:21:02 34.5 C 20 % 8.28 C
975 21-07-2006 18:31:02 34.6 C 20 % 8.37 C
Sensor: Nr:Datum:Temp:Feuchte:Taupunkt:
Aussen-T/F 976 21-07-2006 18:41:02 34.8 C 20 % 8.53 C
977 21-07-2006 18:51:02 34.2 C 20 % 8.04 C
978 21-07-2006 19:01:02 33.7 C 20 % 7.63 C
979 21-07-2006 19:11:02 33.7 C 20 % 7.63 C
980 21-07-2006 19:21:02 33.9 C 20 % 7.8 C
981 21-07-2006 19:31:03 33.8 C 20 % 7.71 C
982 21-07-2006 19:41:03 33.3 C 20 % 7.3 C
983 21-07-2006 19:51:03 33.4 C 20 % 7.39 C
984 21-07-2006 20:01:03 33.1 C 20 % 7.14 C
985 21-07-2006 20:11:03 32.6 C 20 % 6.73 C
986 21-07-2006 20:21:02 32.6 C 20 % 6.73 C
987 21-07-2006 20:31:02 32.6 C 20 % 6.73 C
988 21-07-2006 20:41:02 32.1 C 22 % 7.71 C
989 21-07-2006 20:51:02 31.8 C 22 % 7.46 C
990 21-07-2006 21:01:02 31.3 C 23 % 7.7 C
991 21-07-2006 21:11:02 30.7 C 25 % 8.42 C
992 21-07-2006 21:21:02 30.2 C 26 % 8.58 C
993 21-07-2006 21:31:02 29.9 C 27 % 8.88 C
994 21-07-2006 21:41:02 29.9 C 28 % 9.42 C
995 21-07-2006 21:51:02 29.8 C 27 % 8.8 C
996 21-07-2006 22:01:02 29.4 C 29 % 9.52 C
997 21-07-2006 22:11:02 29.1 C 29 % 9.26 C
998 21-07-2006 22:21:02 28.9 C 30 % 9.59 C
999 21-07-2006 22:31:02 28.7 C 31 % 9.91 C
1000 21-07-2006 22:41:02 28.3 C 31 % 9.56 C
Sensor: Nr:Datum:Temp:Feuchte:Taupunkt:
Aussen-T/F 1001 21-07-2006 22:51:02 28.2 C 31 % 9.48 C
1002 21-07-2006 23:01:02 28.1 C 32 % 9.86 C
1003 21-07-2006 23:11:02 27.9 C 33 % 10.15 C
1004 21-07-2006 23:21:01 27.7 C 33 % 9.97 C
1005 21-07-2006 23:31:02 27.5 C 34 % 10.24 C
1006 21-07-2006 23:41:02 27.3 C 34 % 10.07 C
1007 21-07-2006 23:51:02 27.2 C 35 % 10.42 C
1008 22-07-2006 00:01:03 26.9 C 35 % 10.15 C
1009 22-07-2006 00:11:03 26.7 C 36 % 10.4 C
1010 22-07-2006 00:21:02 26.3 C 36 % 10.05 C
1011 22-07-2006 00:31:02 26.1 C 37 % 10.28 C
1012 22-07-2006 00:41:02 25.8 C 39 % 10.8 C
1013 22-07-2006 00:51:02 25.6 C 39 % 10.62 C
1014 22-07-2006 01:01:02 25.4 C 39 % 10.45 C
1015 22-07-2006 01:11:02 25.2 C 40 % 10.65 C
1016 22-07-2006 01:21:02 25 C 40 % 10.47 C
1017 22-07-2006 01:31:02 24.8 C 41 % 10.66 C
1018 22-07-2006 01:41:02 24.7 C 42 % 10.93 C
1019 22-07-2006 01:51:02 24.5 C 43 % 11.11 C
1020 22-07-2006 02:01:02 24.1 C 44 % 11.09 C
1021 22-07-2006 02:11:02 23.9 C 46 % 11.58 C
1022 22-07-2006 02:21:03 23.5 C 47 % 11.54 C
1023 22-07-2006 02:31:02 23.5 C 47 % 11.54 C
1024 22-07-2006 02:41:02 23.5 C 47 % 11.54 C
1025 22-07-2006 02:52:03 23.4 C 48 % 11.77 C
Sensor: Nr:Datum:Temp:Feuchte:Taupunkt:
Aussen-T/F 1026 22-07-2006 03:02:03 23.1 C 49 % 11.81 C
1027 22-07-2006 03:12:04 22.9 C 50 % 11.93 C
1028 22-07-2006 03:22:04 22.9 C 51 % 12.23 C
1029 22-07-2006 03:32:02 22.8 C 51 % 12.14 C
1030 22-07-2006 03:42:02 22.8 C 51 % 12.14 C
1031 22-07-2006 03:52:02 22.8 C 52 % 12.43 C
1032 22-07-2006 04:02:02 22.7 C 52 % 12.34 C
1033 22-07-2006 04:12:02 22.6 C 53 % 12.54 C
1034 22-07-2006 04:22:02 22.5 C 53 % 12.45 C
1035 22-07-2006 04:32:02 22.5 C 53 % 12.45 C
1036 22-07-2006 04:42:02 22.2 C 54 % 12.45 C
1037 22-07-2006 04:52:02 22 C 55 % 12.55 C
1038 22-07-2006 05:02:02 21.6 C 56 % 12.45 C
1039 22-07-2006 05:12:02 21.5 C 57 % 12.63 C
1040 22-07-2006 05:22:02 21.4 C 57 % 12.53 C
1041 22-07-2006 05:32:02 21.3 C 58 % 12.71 C
1042 22-07-2006 05:42:02 21.2 C 59 % 12.87 C
1043 22-07-2006 05:52:02 21.1 C 59 % 12.78 C
1044 22-07-2006 06:02:02 20.9 C 60 % 12.85 C
1045 22-07-2006 06:12:03 20.9 C 60 % 12.85 C
1046 22-07-2006 06:22:02 20.9 C 61 % 13.1 C
1047 22-07-2006 06:32:02 21 C 60 % 12.94 C
1048 22-07-2006 06:42:02 21.1 C 60 % 13.04 C
1049 22-07-2006 06:52:02 21.2 C 61 % 13.38 C
1050 22-07-2006 07:02:02 21.2 C 60 % 13.13 C
Sensor: Nr:Datum:Temp:Feuchte:Taupunkt:
Aussen-T/F 1051 22-07-2006 07:12:02 21.2 C 60 % 13.13 C
1052 22-07-2006 07:22:02 21.4 C 59 % 13.06 C
1053 22-07-2006 07:32:03 21.6 C 60 % 13.51 C
1054 22-07-2006 07:42:03 21.6 C 59 % 13.25 C
1055 22-07-2006 07:52:02 22 C 58 % 13.36 C
1056 22-07-2006 08:02:02 21.9 C 58 % 13.27 C
1057 22-07-2006 08:12:02 22 C 57 % 13.09 C
1058 22-07-2006 08:22:02 22.2 C 57 % 13.28 C
1059 22-07-2006 08:32:02 22.5 C 56 % 13.29 C
1060 22-07-2006 08:42:03 22.9 C 54 % 13.1 C
1061 22-07-2006 08:52:03 23.2 C 53 % 13.09 C
1062 22-07-2006 09:02:03 23.7 C 52 % 13.26 C
1063 22-07-2006 09:12:03 24.2 C 51 % 13.43 C
1064 22-07-2006 09:22:02 25 C 49 % 13.55 C
1065 22-07-2006 09:32:02 25.6 C 48 % 13.78 C
1066 22-07-2006 09:42:02 26.1 C 44 % 12.9 C
1067 22-07-2006 09:52:01 27 C 42 % 13 C
1068 22-07-2006 10:02:02 27.6 C 39 % 12.4 C
1069 22-07-2006 10:12:02 28.5 C 37 % 12.4 C
1070 22-07-2006 10:22:02 28.8 C 37 % 12.66 C
1071 22-07-2006 10:32:02 29.4 C 35 % 12.34 C
1072 22-07-2006 10:42:03 30 C 33 % 11.97 C
1073 22-07-2006 10:52:02 30.1 C 33 % 12.06 C
1074 22-07-2006 11:02:02 30.7 C 31 % 11.63 C
1075 22-07-2006 11:12:02 31 C 31 % 11.89 C
Sensor: Nr:Datum:Temp:Feuchte:Taupunkt:
Aussen-T/F 1076 22-07-2006 11:22:02 31.3 C 30 % 11.65 C
1077 22-07-2006 11:32:02 31.5 C 28 % 10.79 C
1078 22-07-2006 11:42:02 31.7 C 27 % 10.41 C
1079 22-07-2006 11:52:03 31.9 C 26 % 10.02 C
1080 22-07-2006 12:02:03 32.3 C 26 % 10.35 C
1081 22-07-2006 12:12:03 32.6 C 26 % 10.61 C
1082 22-07-2006 12:22:02 33 C 22 % 8.46 C
1083 22-07-2006 12:32:03 33.1 C 22 % 8.54 C
1084 22-07-2006 12:42:04 33.4 C 20 % 7.39 C
1085 22-07-2006 12:52:03 33.4 C 20 % 7.39 C
1086 22-07-2006 13:02:03 33.3 C 20 % 7.3 C
1087 22-07-2006 13:12:03 32.6 C 22 % 8.13 C
1088 22-07-2006 13:22:02 32 C 24 % 8.91 C
1089 22-07-2006 13:32:03 31.3 C 28 % 10.62 C
1090 22-07-2006 13:42:03 30.7 C 32 % 12.11 C
1091 22-07-2006 13:52:03 30.6 C 27 % 9.48 C
1092 22-07-2006 14:02:03 29.6 C 27 % 8.63 C
1093 22-07-2006 14:12:03 29.3 C 28 % 8.91 C
1094 22-07-2006 14:22:03 29.2 C 30 % 9.85 C
1095 22-07-2006 14:32:03 26 C 44 % 12.81 C
1096 22-07-2006 14:42:03 25.6 C 49 % 14.1 C
1097 22-07-2006 14:52:03 24.2 C 59 % 15.68 C
1098 22-07-2006 15:02:03 23.9 C 64 % 16.68 C
1099 22-07-2006 15:12:03 23 C 71 % 17.46 C
1100 22-07-2006 15:22:03 21.8 C 81 % 18.39 C
Sensor: Nr:Datum:Temp:Feuchte:Taupunkt:
Aussen-T/F 1101 22-07-2006 15:32:03 21.6 C 84 % 18.78 C
1102 22-07-2006 15:42:03 21.4 C 84 % 18.58 C
1103 22-07-2006 15:52:03 21.4 C 86 % 18.96 C
1104 22-07-2006 16:02:03 21.1 C 86 % 18.67 C
1105 22-07-2006 16:12:03 21.1 C 87 % 18.85 C
1106 22-07-2006 16:22:03 21.3 C 88 % 19.23 C
1107 22-07-2006 16:32:04 21.2 C 89 % 19.31 C
1108 22-07-2006 16:42:04 21.4 C 89 % 19.51 C
1109 22-07-2006 16:52:04 21.6 C 89 % 19.71 C
1110 22-07-2006 17:02:04 21.7 C 89 % 19.81 C
1111 22-07-2006 17:12:04 22.1 C 89 % 20.2 C
1112 22-07-2006 17:22:04 22.2 C 88 % 20.12 C
1113 22-07-2006 17:32:04 22.8 C 88 % 20.71 C
1114 22-07-2006 17:42:04 22.9 C 84 % 20.05 C
1115 22-07-2006 17:52:04 22.9 C 78 % 18.86 C
1116 22-07-2006 18:02:04 23 C 77 % 18.75 C
1117 22-07-2006 18:12:04 22.8 C 76 % 18.35 C
1118 22-07-2006 18:22:02 23.2 C 78 % 19.15 C
1119 22-07-2006 18:32:03 23.7 C 77 % 19.43 C
1120 22-07-2006 18:42:03 23.7 C 76 % 19.22 C
1121 22-07-2006 18:52:02 23.7 C 77 % 19.43 C
1122 22-07-2006 19:02:03 24 C 76 % 19.51 C
1123 22-07-2006 19:12:04 23.8 C 77 % 19.52 C
1124 22-07-2006 19:22:02 24 C 75 % 19.29 C
1125 22-07-2006 19:32:06 24.9 C 73 % 19.72 C
Sensor: Nr:Datum:Temp:Feuchte:Taupunkt:
Aussen-T/F 1126 22-07-2006 19:42:06 26.4 C 65 % 19.29 C
1127 22-07-2006 19:52:01 27 C 61 % 18.83 C
1128 22-07-2006 20:02:02 27.2 C 58 % 18.22 C
1129 22-07-2006 20:12:02 27 C 58 % 18.03 C
1130 22-07-2006 20:22:02 27 C 58 % 18.03 C
1131 22-07-2006 20:32:02 26.9 C 59 % 18.21 C
1132 22-07-2006 20:42:03 26.3 C 62 % 18.44 C
1133 22-07-2006 20:52:02 25.3 C 66 % 18.49 C
1134 22-07-2006 21:02:02 24.6 C 69 % 18.53 C
1135 22-07-2006 21:12:02 23.9 C 71 % 18.32 C
1136 22-07-2006 21:22:03 23 C 73 % 17.9 C
1137 22-07-2006 21:32:02 22.7 C 76 % 18.25 C
1138 22-07-2006 21:42:02 22.7 C 75 % 18.04 C
1139 22-07-2006 21:52:02 22.3 C 76 % 17.86 C
1140 22-07-2006 22:02:02 22 C 77 % 17.78 C
1141 22-07-2006 22:12:02 21.7 C 78 % 17.7 C
1142 22-07-2006 22:22:03 21.5 C 79 % 17.7 C
1143 22-07-2006 22:32:02 21.2 C 79 % 17.41 C
1144 22-07-2006 22:42:03 20.9 C 80 % 17.32 C
1145 22-07-2006 22:52:02 20.8 C 81 % 17.42 C
1146 22-07-2006 23:02:02 20.6 C 81 % 17.22 C
1147 22-07-2006 23:12:02 20.4 C 81 % 17.03 C
1148 22-07-2006 23:22:02 20.4 C 80 % 16.83 C
1149 22-07-2006 23:32:02 20.3 C 81 % 16.93 C
1150 22-07-2006 23:42:02 20.2 C 82 % 17.03 C
Sensor: Nr:Datum:Temp:Feuchte:Taupunkt:
Aussen-T/F 1151 22-07-2006 23:52:02 20.4 C 82 % 17.22 C
1152 23-07-2006 00:02:02 20.4 C 82 % 17.22 C
1153 23-07-2006 00:12:02 20.4 C 82 % 17.22 C
1154 23-07-2006 00:22:02 20.4 C 83 % 17.42 C
1155 23-07-2006 00:32:02 20.4 C 83 % 17.42 C
1156 23-07-2006 00:42:02 20.1 C 84 % 17.31 C
1157 23-07-2006 00:52:01 20.1 C 84 % 17.31 C
1158 23-07-2006 01:02:01 20.1 C 84 % 17.31 C
1159 23-07-2006 01:12:02 20.1 C 84 % 17.31 C
1160 23-07-2006 01:22:02 20 C 84 % 17.21 C
1161 23-07-2006 01:32:02 19.9 C 85 % 17.3 C
1162 23-07-2006 01:42:02 20 C 84 % 17.21 C
1163 23-07-2006 01:52:02 20 C 84 % 17.21 C
1164 23-07-2006 02:02:01 20 C 84 % 17.21 C
1165 23-07-2006 02:12:01 20 C 84 % 17.21 C
1166 23-07-2006 02:22:02 19.9 C 87 % 17.67 C
1167 23-07-2006 02:32:02 19.9 C 88 % 17.85 C
1168 23-07-2006 02:42:03 19.9 C 88 % 17.85 C
1169 23-07-2006 02:53:04 19.9 C 87 % 17.67 C
1170 23-07-2006 03:03:04 20 C 85 % 17.4 C
1171 23-07-2006 03:13:04 20 C 85 % 17.4 C
1172 23-07-2006 03:23:04 20 C 85 % 17.4 C
1173 23-07-2006 03:33:02 20 C 84 % 17.21 C
1174 23-07-2006 03:43:03 20 C 84 % 17.21 C
1175 23-07-2006 03:53:03 20 C 84 % 17.21 C
Sensor: Nr:Datum:Temp:Feuchte:Taupunkt:
Aussen-T/F 1176 23-07-2006 04:03:02 20 C 83 % 17.02 C
1177 23-07-2006 04:13:03 20 C 83 % 17.02 C
1178 23-07-2006 04:23:03 20 C 83 % 17.02 C
1179 23-07-2006 04:33:03 19.9 C 85 % 17.3 C
1180 23-07-2006 04:43:03 20 C 84 % 17.21 C
1181 23-07-2006 04:53:02 19.9 C 85 % 17.3 C
1182 23-07-2006 05:03:02 19.9 C 86 % 17.49 C
1183 23-07-2006 05:13:02 19.9 C 86 % 17.49 C
1184 23-07-2006 05:23:02 19.8 C 86 % 17.39 C
1185 23-07-2006 05:33:01 19.7 C 87 % 17.47 C
1186 23-07-2006 05:43:01 19.7 C 87 % 17.47 C
1187 23-07-2006 05:53:02 19.6 C 87 % 17.38 C
1188 23-07-2006 06:03:02 19.7 C 87 % 17.47 C
1189 23-07-2006 06:13:02 19.7 C 87 % 17.47 C
1190 23-07-2006 06:23:02 19.7 C 87 % 17.47 C
1191 23-07-2006 06:33:03 19.8 C 87 % 17.57 C
1192 23-07-2006 06:43:03 19.8 C 87 % 17.57 C
1193 23-07-2006 06:53:02 20 C 86 % 17.59 C
1194 23-07-2006 07:03:02 20.2 C 86 % 17.78 C
1195 23-07-2006 07:13:03 20.4 C 86 % 17.98 C
1196 23-07-2006 07:23:02 20.6 C 85 % 17.99 C
1197 23-07-2006 07:33:02 20.8 C 83 % 17.81 C
1198 23-07-2006 07:43:02 20.9 C 83 % 17.9 C
1199 23-07-2006 07:53:02 21.1 C 80 % 17.51 C
1200 23-07-2006 08:03:02 21.4 C 80 % 17.81 C
Sensor: Nr:Datum:Temp:Feuchte:Taupunkt:
Aussen-T/F 1201 23-07-2006 08:13:02 21.7 C 79 % 17.9 C
1202 23-07-2006 08:23:01 21.7 C 76 % 17.28 C
1203 23-07-2006 08:33:02 21.9 C 76 % 17.48 C
1204 23-07-2006 08:43:02 22.4 C 73 % 17.32 C
1205 23-07-2006 08:53:02 22.5 C 72 % 17.2 C
1206 23-07-2006 09:03:02 22.8 C 72 % 17.49 C
1207 23-07-2006 09:13:02 22.8 C 73 % 17.71 C
1208 23-07-2006 09:23:02 23 C 70 % 17.23 C
1209 23-07-2006 09:33:02 23.3 C 68 % 17.06 C
1210 23-07-2006 09:43:02 23.6 C 67 % 17.11 C
1211 23-07-2006 09:53:03 23.9 C 64 % 16.68 C
1212 23-07-2006 10:03:03 24.4 C 61 % 16.39 C
1213 23-07-2006 10:13:03 25.1 C 57 % 15.98 C
1214 23-07-2006 10:23:02 26 C 53 % 15.68 C
1215 23-07-2006 10:33:02 26 C 52 % 15.38 C
1216 23-07-2006 10:43:02 25.9 C 52 % 15.29 C
1217 23-07-2006 10:53:02 26.8 C 47 % 14.55 C
1218 23-07-2006 11:03:02 27.9 C 43 % 14.17 C
1219 23-07-2006 11:13:02 28.8 C 40 % 13.86 C
1220 23-07-2006 11:23:02 28.2 C 44 % 14.79 C
1221 23-07-2006 11:33:02 28.6 C 45 % 15.5 C
1222 23-07-2006 11:43:02 29 C 44 % 15.51 C
1223 23-07-2006 11:53:02 28.5 C 46 % 15.75 C
1224 23-07-2006 12:03:02 28.7 C 45 % 15.59 C
1225 23-07-2006 12:13:02 29.4 C 42 % 15.15 C
Sensor: Nr:Datum:Temp:Feuchte:Taupunkt:
Aussen-T/F 1226 23-07-2006 12:23:02 29.4 C 41 % 14.77 C
1227 23-07-2006 12:33:02 29.7 C 41 % 15.04 C
1228 23-07-2006 12:43:02 29.7 C 39 % 14.27 C
1229 23-07-2006 12:53:03 30.1 C 38 % 14.22 C
1230 23-07-2006 13:03:02 31.1 C 32 % 12.46 C
1231 23-07-2006 13:13:03 30.8 C 34 % 13.13 C
1232 23-07-2006 13:23:02 31.2 C 32 % 12.55 C
1233 23-07-2006 13:33:02 31.2 C 31 % 12.06 C
1234 23-07-2006 13:43:02 31.4 C 29 % 11.23 C
1235 23-07-2006 13:53:02 31.7 C 27 % 10.41 C
1236 23-07-2006 14:03:01 31.8 C 26 % 9.93 C
1237 23-07-2006 14:13:01 31.7 C 27 % 10.41 C
1238 23-07-2006 14:23:01 31.3 C 28 % 10.62 C
1239 23-07-2006 14:33:01 31.6 C 28 % 10.87 C
1240 23-07-2006 14:43:01 31.7 C 27 % 10.41 C
1241 23-07-2006 14:53:02 31.9 C 26 % 10.02 C
1242 23-07-2006 15:03:02 32 C 26 % 10.1 C
1243 23-07-2006 15:13:02 32.1 C 25 % 9.6 C
1244 23-07-2006 15:23:38 32.3 C 24 % 9.16 C
1245 23-07-2006 15:33:38 32.4 C 24 % 9.24 C
1246 23-07-2006 15:43:38 31.8 C 25 % 9.35 C
1247 23-07-2006 15:53:38 31.8 C 26 % 9.93 C
1248 23-07-2006 16:03:38 32.4 C 24 % 9.24 C
1249 23-07-2006 16:13:38 32.5 C 24 % 9.33 C
1250 23-07-2006 16:23:38 32.8 C 22 % 8.29 C
Sensor: Nr:Datum:Temp:Feuchte:Taupunkt:
Aussen-T/F 1251 23-07-2006 16:33:38 32.8 C 23 % 8.95 C
1252 23-07-2006 16:43:38 33.2 C 22 % 8.62 C
1253 23-07-2006 16:53:38 33.1 C 22 % 8.54 C
1254 23-07-2006 17:03:38 32.5 C 24 % 9.33 C
1255 23-07-2006 17:13:38 33 C 25 % 10.35 C
1256 23-07-2006 17:23:39 34 C 21 % 8.59 C
1257 23-07-2006 17:33:39 33.6 C 23 % 9.61 C
1258 23-07-2006 17:43:39 33 C 24 % 9.75 C
1259 23-07-2006 17:53:39 32.8 C 25 % 10.19 C
1260 23-07-2006 18:03:39 32.7 C 25 % 10.1 C
1261 23-07-2006 18:13:39 32.4 C 25 % 9.85 C
1262 23-07-2006 18:23:39 32.8 C 24 % 9.58 C
1263 23-07-2006 18:33:39 32.5 C 25 % 9.94 C
1264 23-07-2006 18:43:39 32.3 C 25 % 9.77 C
1265 23-07-2006 18:53:39 31.8 C 28 % 11.04 C
1266 23-07-2006 19:03:39 31.1 C 32 % 12.46 C
1267 23-07-2006 19:13:39 31.2 C 31 % 12.06 C
1268 23-07-2006 19:23:39 31.3 C 31 % 12.15 C
1269 23-07-2006 19:33:39 31 C 34 % 13.3 C
1270 23-07-2006 19:43:03 30.8 C 33 % 12.67 C
1271 23-07-2006 19:53:02 31.2 C 32 % 12.55 C
1272 23-07-2006 20:03:02 31.2 C 31 % 12.06 C
1273 23-07-2006 20:13:02 31 C 31 % 11.89 C
1274 23-07-2006 20:23:03 30.6 C 30 % 11.05 C
1275 23-07-2006 20:33:02 30.3 C 29 % 10.29 C
Sensor: Nr:Datum:Temp:Feuchte:Taupunkt:
Aussen-T/F 1276 23-07-2006 20:43:02 30.1 C 30 % 10.62 C
1277 23-07-2006 20:53:02 30 C 30 % 10.54 C
1278 23-07-2006 21:03:01 29.8 C 31 % 10.86 C
1279 23-07-2006 21:13:01 29.4 C 32 % 10.99 C
1280 23-07-2006 21:23:01 29.1 C 32 % 10.73 C
1281 23-07-2006 21:33:01 29 C 33 % 11.1 C
1282 23-07-2006 21:43:01 28.5 C 34 % 11.12 C
1283 23-07-2006 21:53:02 28.3 C 35 % 11.38 C
1284 23-07-2006 22:03:03 28.1 C 35 % 11.2 C
1285 23-07-2006 22:13:03 27.8 C 37 % 11.78 C
1286 23-07-2006 22:23:02 27.3 C 38 % 11.74 C
1287 23-07-2006 22:33:02 26.8 C 38 % 11.3 C
1288 23-07-2006 22:43:02 26.7 C 40 % 11.99 C
1289 23-07-2006 22:53:02 26.4 C 40 % 11.72 C
1290 23-07-2006 23:03:02 26.2 C 40 % 11.54 C
1291 23-07-2006 23:13:02 26.1 C 40 % 11.45 C
1292 23-07-2006 23:23:02 25.8 C 42 % 11.92 C
1293 23-07-2006 23:33:02 25.7 C 42 % 11.83 C
1294 23-07-2006 23:43:02 25.5 C 44 % 12.36 C
1295 23-07-2006 23:53:01 25.4 C 43 % 11.92 C
1296 24-07-2006 00:03:01 25.3 C 44 % 12.18 C
1297 24-07-2006 00:13:01 25 C 45 % 12.25 C
1298 24-07-2006 00:23:02 24.8 C 47 % 12.73 C
1299 24-07-2006 00:33:02 24.6 C 47 % 12.54 C
1300 24-07-2006 00:43:02 24.5 C 48 % 12.77 C
Sensor: Nr:Datum:Temp:Feuchte:Taupunkt:
Aussen-T/F 1301 24-07-2006 00:53:03 24.5 C 49 % 13.09 C
1302 24-07-2006 01:03:03 24.1 C 50 % 13.03 C
1303 24-07-2006 01:13:03 24.1 C 50 % 13.03 C
1304 24-07-2006 01:23:03 23.9 C 52 % 13.45 C
1305 24-07-2006 01:33:03 23.9 C 53 % 13.74 C
1306 24-07-2006 01:43:03 23.5 C 53 % 13.37 C
1307 24-07-2006 01:53:02 23.3 C 55 % 13.76 C
1308 24-07-2006 02:03:01 23.1 C 56 % 13.85 C
1309 24-07-2006 02:13:01 23.1 C 57 % 14.12 C
1310 24-07-2006 02:23:02 22.8 C 57 % 13.84 C
1311 24-07-2006 02:33:02 22.6 C 59 % 14.18 C
1312 24-07-2006 02:43:02 22.4 C 60 % 14.26 C
1313 24-07-2006 02:54:04 22.1 C 61 % 14.23 C
1314 24-07-2006 03:04:04 22.1 C 62 % 14.48 C
1315 24-07-2006 03:14:03 22 C 62 % 14.39 C
1316 24-07-2006 03:24:03 22 C 63 % 14.63 C
1317 24-07-2006 03:34:02 21.8 C 64 % 14.69 C
1318 24-07-2006 03:44:02 21.6 C 64 % 14.5 C
1319 24-07-2006 03:54:02 21.3 C 67 % 14.93 C
1320 24-07-2006 04:04:02 21.1 C 67 % 14.74 C
1321 24-07-2006 04:14:02 20.9 C 69 % 15 C
1322 24-07-2006 04:24:02 20.9 C 70 % 15.23 C
1323 24-07-2006 04:34:02 20.8 C 70 % 15.13 C
1324 24-07-2006 04:44:02 20.8 C 70 % 15.13 C
1325 24-07-2006 04:54:02 20.6 C 69 % 14.71 C
Sensor: Nr:Datum:Temp:Feuchte:Taupunkt:
Aussen-T/F 1326 24-07-2006 05:04:01 20.5 C 71 % 15.06 C
1327 24-07-2006 05:14:01 20.5 C 71 % 15.06 C
1328 24-07-2006 05:24:02 20.3 C 72 % 15.09 C
1329 24-07-2006 05:34:02 20.1 C 72 % 14.9 C
1330 24-07-2006 05:44:02 20.1 C 72 % 14.9 C
1331 24-07-2006 05:54:02 20 C 72 % 14.8 C
1332 24-07-2006 06:04:02 19.9 C 73 % 14.92 C
1333 24-07-2006 06:14:02 19.9 C 74 % 15.13 C
1334 24-07-2006 06:24:01 19.8 C 75 % 15.24 C
1335 24-07-2006 06:34:02 19.7 C 75 % 15.15 C
1336 24-07-2006 06:44:02 20 C 74 % 15.23 C
1337 24-07-2006 06:54:02 20.3 C 73 % 15.3 C
1338 24-07-2006 07:04:02 20.2 C 73 % 15.21 C
1339 24-07-2006 07:14:02 20.2 C 73 % 15.21 C
1340 24-07-2006 07:24:01 20.2 C 73 % 15.21 C
1341 24-07-2006 07:34:01 20.3 C 74 % 15.51 C
1342 24-07-2006 07:44:01 20.6 C 73 % 15.59 C
1343 24-07-2006 07:54:02 20.8 C 72 % 15.57 C
1344 24-07-2006 08:04:02 20.9 C 71 % 15.45 C
1345 24-07-2006 08:14:02 21.3 C 70 % 15.61 C
1346 24-07-2006 08:24:02 21.6 C 68 % 15.44 C
1347 24-07-2006 08:34:02 21.6 C 68 % 15.44 C
1348 24-07-2006 08:44:03 21.9 C 68 % 15.73 C
1349 24-07-2006 08:54:03 22.1 C 66 % 15.45 C
1350 24-07-2006 09:04:03 22.6 C 65 % 15.69 C
Sensor: Nr:Datum:Temp:Feuchte:Taupunkt:
Aussen-T/F 1351 24-07-2006 09:14:03 23 C 63 % 15.58 C
1352 24-07-2006 09:24:02 23.5 C 62 % 15.8 C
1353 24-07-2006 09:34:02 23.8 C 61 % 15.83 C
1354 24-07-2006 09:44:02 24.2 C 59 % 15.68 C
1355 24-07-2006 09:54:02 24.8 C 58 % 15.98 C
1356 24-07-2006 10:04:02 25.2 C 55 % 15.52 C
1357 24-07-2006 10:14:02 25.9 C 53 % 15.59 C
1358 24-07-2006 10:24:01 26.4 C 49 % 14.83 C
1359 24-07-2006 10:34:01 26.9 C 47 % 14.64 C
1360 24-07-2006 10:44:01 27.5 C 45 % 14.51 C
1361 24-07-2006 10:54:02 27.5 C 43 % 13.81 C
1362 24-07-2006 11:04:02 27.9 C 43 % 14.17 C
1363 24-07-2006 11:14:02 28.3 C 40 % 13.41 C
1364 24-07-2006 11:24:02 28.7 C 39 % 13.38 C
1365 24-07-2006 11:34:02 29.2 C 37 % 13.02 C
1366 24-07-2006 11:44:02 29.5 C 36 % 12.86 C
1367 24-07-2006 11:54:02 30 C 35 % 12.87 C
1368 24-07-2006 12:04:02 30.1 C 35 % 12.96 C
1369 24-07-2006 12:14:02 30.4 C 33 % 12.32 C
1370 24-07-2006 12:24:02 30.9 C 31 % 11.81 C
1371 24-07-2006 12:34:03 31.2 C 28 % 10.53 C
1372 24-07-2006 12:44:03 31.5 C 27 % 10.24 C
1373 24-07-2006 12:54:02 31.7 C 25 % 9.26 C
1374 24-07-2006 13:04:02 32.1 C 25 % 9.6 C
1375 24-07-2006 13:14:02 32.4 C 23 % 8.61 C
Sensor: Nr:Datum:Temp:Feuchte:Taupunkt:
Aussen-T/F 1376 24-07-2006 13:24:02 32.8 C 21 % 7.61 C
1377 24-07-2006 13:34:02 33.3 C 20 % 7.3 C
1378 24-07-2006 13:44:02 32.2 C 22 % 7.79 C
1379 24-07-2006 13:54:02 32.3 C 22 % 7.88 C
1380 24-07-2006 14:04:01 32.2 C 23 % 8.45 C
1381 24-07-2006 14:14:01 31.8 C 24 % 8.74 C
1382 24-07-2006 14:24:01 32.1 C 24 % 8.99 C
1383 24-07-2006 14:34:01 32.5 C 22 % 8.04 C
1384 24-07-2006 14:44:01 32.7 C 23 % 8.86 C
1385 24-07-2006 14:54:01 33 C 21 % 7.77 C
1386 24-07-2006 15:04:01 33 C 20 % 7.06 C
1387 24-07-2006 15:14:01 32.3 C 21 % 7.2 C
1388 24-07-2006 15:24:01 31.8 C 23 % 8.12 C
1389 24-07-2006 15:34:02 32.3 C 21 % 7.2 C
1390 24-07-2006 15:44:02 32.7 C 21 % 7.53 C
1391 24-07-2006 15:54:01 33.5 C 20 % 7.47 C
1392 24-07-2006 16:04:01 34 C 20 % 7.88 C
1393 24-07-2006 16:14:01 33.8 C 20 % 7.71 C
1394 24-07-2006 16:24:01 33.5 C 20 % 7.47 C
1395 24-07-2006 16:34:02 33.1 C 20 % 7.14 C
1396 24-07-2006 16:44:02 33.5 C 20 % 7.47 C
1397 24-07-2006 16:54:01 33.1 C 20 % 7.14 C
1398 24-07-2006 17:04:01 33.1 C 20 % 7.14 C
1399 24-07-2006 17:14:01 33.2 C 20 % 7.22 C
1400 24-07-2006 17:24:01 33 C 20 % 7.06 C
Sensor: Nr:Datum:Temp:Feuchte:Taupunkt:
Aussen-T/F 1401 24-07-2006 17:34:01 33.3 C 20 % 7.3 C
1402 24-07-2006 17:44:01 33.3 C 20 % 7.3 C
1403 24-07-2006 17:54:02 33.7 C 20 % 7.63 C
1404 24-07-2006 18:04:02 33.5 C 20 % 7.47 C
1405 24-07-2006 18:14:02 33.7 C 20 % 7.63 C
1406 24-07-2006 18:24:02 33.9 C 20 % 7.8 C
1407 24-07-2006 18:34:02 34 C 20 % 7.88 C
1408 24-07-2006 18:44:02 34 C 20 % 7.88 C
1409 24-07-2006 18:54:02 33.8 C 20 % 7.71 C
1410 24-07-2006 19:04:02 33.7 C 20 % 7.63 C
1411 24-07-2006 19:14:02 33.6 C 20 % 7.55 C
1412 24-07-2006 19:24:02 33.3 C 20 % 7.3 C
1413 24-07-2006 19:34:03 33.2 C 20 % 7.22 C
1414 24-07-2006 19:44:03 32.8 C 20 % 6.9 C
1415 24-07-2006 19:54:02 32.9 C 20 % 6.98 C
1416 24-07-2006 20:04:02 32.4 C 20 % 6.57 C
1417 24-07-2006 20:14:02 32.4 C 20 % 6.57 C
1418 24-07-2006 20:24:02 32.4 C 20 % 6.57 C
1419 24-07-2006 20:34:02 31.8 C 21 % 6.79 C
1420 24-07-2006 20:44:02 31.5 C 25 % 9.1 C
1421 24-07-2006 20:54:02 30.9 C 25 % 8.59 C
1422 24-07-2006 21:04:02 30.4 C 27 % 9.31 C
1423 24-07-2006 21:14:02 30.2 C 30 % 10.71 C
1424 24-07-2006 21:24:02 29.3 C 30 % 9.94 C
1425 24-07-2006 21:34:03 28.9 C 31 % 10.08 C
Sensor: Nr:Datum:Temp:Feuchte:Taupunkt:
Aussen-T/F 1426 24-07-2006 21:44:03 28.5 C 33 % 10.67 C
1427 24-07-2006 21:54:02 28.1 C 33 % 10.32 C
1428 24-07-2006 22:04:02 27.8 C 34 % 10.51 C
1429 24-07-2006 22:14:03 27.5 C 35 % 10.68 C
1430 24-07-2006 22:24:02 27.6 C 36 % 11.19 C
1431 24-07-2006 22:34:02 27.4 C 36 % 11.01 C
1432 24-07-2006 22:44:02 27.4 C 36 % 11.01 C
1433 24-07-2006 22:54:02 27.3 C 37 % 11.34 C
1434 24-07-2006 23:04:02 27 C 37 % 11.07 C
1435 24-07-2006 23:14:03 26.8 C 38 % 11.3 C
1436 24-07-2006 23:24:02 26.5 C 39 % 11.42 C
1437 24-07-2006 23:34:01 26.3 C 41 % 12 C
1438 24-07-2006 23:44:01 26.2 C 41 % 11.91 C
1439 24-07-2006 23:54:02 26.1 C 42 % 12.19 C
1440 25-07-2006 00:04:03 25.7 C 44 % 12.54 C
1441 25-07-2006 00:14:03 25.7 C 44 % 12.54 C
1442 25-07-2006 00:24:02 25.5 C 44 % 12.36 C
1443 25-07-2006 00:34:02 25.3 C 45 % 12.52 C
1444 25-07-2006 00:44:02 25.1 C 45 % 12.34 C
1445 25-07-2006 00:54:01 24.8 C 47 % 12.73 C
1446 25-07-2006 01:04:02 24.6 C 48 % 12.87 C
1447 25-07-2006 01:14:03 24.4 C 48 % 12.68 C
1448 25-07-2006 01:24:02 24.2 C 48 % 12.5 C
1449 25-07-2006 01:34:01 24 C 48 % 12.32 C
1450 25-07-2006 01:44:01 23.8 C 49 % 12.45 C
Sensor: Nr:Datum:Temp:Feuchte:Taupunkt:
Aussen-T/F 1451 25-07-2006 01:54:03 23.7 C 49 % 12.36 C
1452 25-07-2006 02:04:03 23.4 C 52 % 12.99 C
1453 25-07-2006 02:14:03 23.2 C 50 % 12.21 C
1454 25-07-2006 02:24:02 23.2 C 50 % 12.21 C
1455 25-07-2006 02:34:02 23 C 51 % 12.32 C
1456 25-07-2006 02:44:03 22.9 C 51 % 12.23 C
1457 25-07-2006 02:55:04 22.9 C 51 % 12.23 C
1458 25-07-2006 03:05:04 22.8 C 52 % 12.43 C
1459 25-07-2006 03:15:04 22.6 C 53 % 12.54 C
1460 25-07-2006 03:25:04 22.5 C 52 % 12.16 C
1461 25-07-2006 03:35:02 22.6 C 52 % 12.25 C
1462 25-07-2006 03:45:02 22.5 C 52 % 12.16 C
1463 25-07-2006 03:55:02 22.3 C 53 % 12.26 C
1464 25-07-2006 04:05:03 22.1 C 54 % 12.36 C
1465 25-07-2006 04:15:02 21.9 C 55 % 12.46 C
1466 25-07-2006 04:25:02 21.8 C 57 % 12.91 C
1467 25-07-2006 04:35:02 21.6 C 57 % 12.72 C
1468 25-07-2006 04:45:01 21.5 C 57 % 12.63 C
1469 25-07-2006 04:55:01 21.3 C 57 % 12.44 C
1470 25-07-2006 05:05:02 21.2 C 58 % 12.61 C
1471 25-07-2006 05:15:02 21.1 C 60 % 13.04 C
1472 25-07-2006 05:25:02 21 C 59 % 12.69 C
1473 25-07-2006 05:35:02 20.8 C 60 % 12.76 C
1474 25-07-2006 05:45:02 20.7 C 60 % 12.66 C
1475 25-07-2006 05:55:02 20.6 C 61 % 12.82 C
Sensor: Nr:Datum:Temp:Feuchte:Taupunkt:
Aussen-T/F 1476 25-07-2006 06:05:02 20.7 C 62 % 13.16 C
1477 25-07-2006 06:15:02 20.5 C 61 % 12.73 C
1478 25-07-2006 06:25:02 20.5 C 62 % 12.97 C
1479 25-07-2006 06:35:02 20.5 C 62 % 12.97 C
1480 25-07-2006 06:45:01 20.6 C 63 % 13.31 C
1481 25-07-2006 06:55:01 20.7 C 63 % 13.41 C
1482 25-07-2006 07:05:01 20.8 C 63 % 13.5 C
1483 25-07-2006 07:15:02 20.9 C 64 % 13.84 C
1484 25-07-2006 07:25:02 20.9 C 65 % 14.08 C
1485 25-07-2006 07:35:01 21.1 C 64 % 14.03 C
1486 25-07-2006 07:45:01 21.2 C 64 % 14.12 C
1487 25-07-2006 07:55:01 21.5 C 62 % 13.92 C
1488 25-07-2006 08:05:02 21.7 C 62 % 14.1 C
1489 25-07-2006 08:15:02 21.8 C 61 % 13.95 C
1490 25-07-2006 08:25:02 22.2 C 60 % 14.07 C
1491 25-07-2006 08:35:02 22.5 C 59 % 14.09 C
1492 25-07-2006 08:45:02 22.9 C 58 % 14.2 C
1493 25-07-2006 08:55:03 23.3 C 54 % 13.47 C
1494 25-07-2006 09:05:02 23.6 C 54 % 13.75 C
1495 25-07-2006 09:15:02 24.1 C 52 % 13.63 C
1496 25-07-2006 09:25:02 24.4 C 52 % 13.91 C
1497 25-07-2006 09:35:02 24.8 C 51 % 13.98 C
1498 25-07-2006 09:45:03 25.5 C 49 % 14 C
1499 25-07-2006 09:55:03 26 C 47 % 13.82 C
1500 25-07-2006 10:05:02 26.6 C 45 % 13.69 C
Sensor: Nr:Datum:Temp:Feuchte:Taupunkt:
Aussen-T/F 1501 25-07-2006 10:15:02 26.9 C 44 % 13.62 C
1502 25-07-2006 10:25:02 27.3 C 43 % 13.63 C
1503 25-07-2006 10:35:02 28 C 41 % 13.52 C
1504 25-07-2006 10:45:02 28.3 C 40 % 13.41 C
1505 25-07-2006 10:55:02 28.7 C 39 % 13.38 C
1506 25-07-2006 11:05:02 29.3 C 38 % 13.51 C
1507 25-07-2006 11:15:02 29.5 C 37 % 13.28 C
1508 25-07-2006 11:25:02 29.9 C 36 % 13.21 C
1509 25-07-2006 11:35:01 30.1 C 37 % 13.81 C
1510 25-07-2006 11:45:02 30.2 C 35 % 13.04 C
1511 25-07-2006 11:55:02 30.7 C 34 % 13.04 C
1512 25-07-2006 12:05:02 31.1 C 33 % 12.93 C
1513 25-07-2006 12:15:02 31.2 C 31 % 12.06 C
1514 25-07-2006 12:25:02 31.7 C 31 % 12.5 C
1515 25-07-2006 12:35:01 32.2 C 28 % 11.38 C
1516 25-07-2006 12:45:02 32.5 C 26 % 10.52 C
1517 25-07-2006 12:55:02 32.8 C 25 % 10.19 C
1518 25-07-2006 13:05:02 32.9 C 23 % 9.03 C
1519 25-07-2006 13:15:02 33.3 C 22 % 8.7 C
1520 25-07-2006 13:25:02 33.7 C 21 % 8.35 C
1521 25-07-2006 13:35:02 33.8 C 20 % 7.71 C
1522 25-07-2006 13:45:01 33.9 C 20 % 7.8 C
1523 25-07-2006 13:55:01 34.3 C 20 % 8.12 C
1524 25-07-2006 14:05:02 34.1 C 20 % 7.96 C
1525 25-07-2006 14:15:01 34.2 C 20 % 8.04 C
Sensor: Nr:Datum:Temp:Feuchte:Taupunkt:
Aussen-T/F 1526 25-07-2006 14:25:01 34.2 C 20 % 8.04 C
1527 25-07-2006 14:35:02 34.5 C 20 % 8.28 C
1528 25-07-2006 14:45:02 34.4 C 20 % 8.2 C
1529 25-07-2006 14:55:02 34.2 C 20 % 8.04 C
1530 25-07-2006 15:05:02 34 C 20 % 7.88 C
1531 25-07-2006 15:15:02 33.8 C 20 % 7.71 C
1532 25-07-2006 15:25:02 33.8 C 20 % 7.71 C
1533 25-07-2006 15:35:01 34 C 20 % 7.88 C
1534 25-07-2006 15:45:02 34.2 C 20 % 8.04 C
1535 25-07-2006 15:55:02 33.8 C 20 % 7.71 C
1536 25-07-2006 16:05:02 33.6 C 21 % 8.27 C
1537 25-07-2006 16:15:03 30 C 49 % 18.12 C
1538 25-07-2006 16:25:03 30.6 C 52 % 19.62 C
1539 25-07-2006 16:35:03 32.5 C 29 % 12.17 C
1540 25-07-2006 16:45:03 33 C 30 % 13.11 C
1541 25-07-2006 16:55:03 33.5 C 26 % 11.36 C
1542 25-07-2006 17:05:03 34 C 21 % 8.59 C
1543 25-07-2006 17:15:02 34.1 C 20 % 7.96 C
1544 25-07-2006 17:25:02 34.3 C 20 % 8.12 C
1545 25-07-2006 17:35:03 34.6 C 20 % 8.37 C
1546 25-07-2006 17:45:01 34.7 C 20 % 8.45 C
1547 25-07-2006 17:55:01 34.7 C 20 % 8.45 C
1548 25-07-2006 18:05:04 34.5 C 20 % 8.28 C
1549 25-07-2006 18:15:02 34.6 C 20 % 8.37 C
1550 25-07-2006 18:25:02 34.7 C 20 % 8.45 C
Sensor: Nr:Datum:Temp:Feuchte:Taupunkt:
Aussen-T/F 1551 25-07-2006 18:35:02 34.7 C 20 % 8.45 C
1552 25-07-2006 18:45:03 34.4 C 20 % 8.2 C
1553 25-07-2006 18:55:03 34.2 C 20 % 8.04 C
1554 25-07-2006 19:05:02 33.6 C 23 % 9.61 C
1555 25-07-2006 19:15:02 33.7 C 21 % 8.35 C
1556 25-07-2006 19:25:03 33.9 C 20 % 7.8 C
1557 25-07-2006 19:35:02 34 C 20 % 7.88 C
1558 25-07-2006 19:45:01 33.9 C 20 % 7.8 C
1559 25-07-2006 19:55:01 33.8 C 20 % 7.71 C
1560 25-07-2006 20:05:01 33.6 C 23 % 9.61 C
1561 25-07-2006 20:15:01 33.3 C 24 % 10 C
1562 25-07-2006 20:25:01 33 C 26 % 10.94 C
1563 25-07-2006 20:35:01 32.5 C 26 % 10.52 C
1564 25-07-2006 20:45:02 32 C 28 % 11.21 C
1565 25-07-2006 20:55:02 31.6 C 30 % 11.91 C
1566 25-07-2006 21:05:01 31.2 C 30 % 11.57 C
1567 25-07-2006 21:15:01 31 C 31 % 11.89 C
1568 25-07-2006 21:25:02 30.8 C 31 % 11.72 C
1569 25-07-2006 21:35:01 30.6 C 31 % 11.55 C
1570 25-07-2006 21:45:02 30.4 C 32 % 11.85 C
1571 25-07-2006 21:55:02 30.4 C 33 % 12.32 C
1572 25-07-2006 22:05:02 30.3 C 34 % 12.69 C
1573 25-07-2006 22:15:02 30.2 C 35 % 13.04 C
1574 25-07-2006 22:25:02 29.7 C 36 % 13.04 C
1575 25-07-2006 22:35:02 29.2 C 37 % 13.02 C
Sensor: Nr:Datum:Temp:Feuchte:Taupunkt:
Aussen-T/F 1576 25-07-2006 22:45:03 29.1 C 38 % 13.34 C
1577 25-07-2006 22:55:03 28.8 C 40 % 13.86 C
1578 25-07-2006 23:05:03 28.6 C 40 % 13.68 C
1579 25-07-2006 23:15:02 28.5 C 40 % 13.59 C
1580 25-07-2006 23:25:02 28.3 C 41 % 13.79 C
1581 25-07-2006 23:35:02 28.2 C 42 % 14.07 C
1582 25-07-2006 23:45:02 27.9 C 43 % 14.17 C
1583 25-07-2006 23:55:02 27.9 C 43 % 14.17 C
1584 26-07-2006 00:05:02 27.5 C 44 % 14.16 C
1585 26-07-2006 00:15:02 27.3 C 45 % 14.33 C
1586 26-07-2006 00:25:02 27.2 C 45 % 14.24 C
1587 26-07-2006 00:35:02 26.9 C 48 % 14.96 C
1588 26-07-2006 00:45:02 26.7 C 47 % 14.45 C
1589 26-07-2006 00:55:02 26.6 C 48 % 14.69 C
1590 26-07-2006 01:05:02 26.4 C 48 % 14.51 C
1591 26-07-2006 01:15:02 26.1 C 49 % 14.55 C
1592 26-07-2006 01:25:02 26 C 49 % 14.46 C
1593 26-07-2006 01:35:01 25.8 C 51 % 14.9 C
1594 26-07-2006 01:45:02 25.6 C 53 % 15.31 C
1595 26-07-2006 01:55:02 25.3 C 53 % 15.03 C
1596 26-07-2006 02:05:02 25.2 C 54 % 15.23 C
1597 26-07-2006 02:15:02 25.1 C 54 % 15.14 C
1598 26-07-2006 02:25:02 25 C 56 % 15.61 C
1599 26-07-2006 02:35:03 24.7 C 57 % 15.61 C
1600 26-07-2006 02:46:05 24.6 C 57 % 15.52 C
Sensor: Nr:Datum:Temp:Feuchte:Taupunkt:
Aussen-T/F 1601 26-07-2006 02:56:05 24.5 C 57 % 15.42 C
1602 26-07-2006 03:06:05 24.3 C 58 % 15.51 C
1603 26-07-2006 03:16:05 24.2 C 59 % 15.68 C
1604 26-07-2006 03:26:05 24.1 C 59 % 15.59 C
1605 26-07-2006 03:36:02 24.1 C 60 % 15.85 C
1606 26-07-2006 03:46:02 24 C 59 % 15.5 C
1607 26-07-2006 03:56:02 23.9 C 62 % 16.18 C
1608 26-07-2006 04:06:02 23.8 C 61 % 15.83 C
1609 26-07-2006 04:16:03 23.7 C 61 % 15.73 C
1610 26-07-2006 04:26:03 23.6 C 62 % 15.89 C
1611 26-07-2006 04:36:02 23.5 C 62 % 15.8 C
1612 26-07-2006 04:46:02 23.3 C 63 % 15.86 C
1613 26-07-2006 04:56:02 23.3 C 63 % 15.86 C
1614 26-07-2006 05:06:02 23 C 63 % 15.58 C
1615 26-07-2006 05:16:02 22.9 C 64 % 15.73 C
1616 26-07-2006 05:26:02 22.8 C 64 % 15.64 C
1617 26-07-2006 05:36:02 22.5 C 66 % 15.83 C
1618 26-07-2006 05:46:02 22.5 C 66 % 15.83 C
1619 26-07-2006 05:56:02 22.5 C 66 % 15.83 C
1620 26-07-2006 06:06:02 22.3 C 66 % 15.64 C
1621 26-07-2006 06:16:02 22.3 C 67 % 15.88 C
1622 26-07-2006 06:26:02 22.2 C 66 % 15.55 C
1623 26-07-2006 06:36:02 22.3 C 65 % 15.4 C
1624 26-07-2006 06:46:01 22.5 C 66 % 15.83 C
1625 26-07-2006 06:56:01 22.4 C 67 % 15.97 C
Sensor: Nr:Datum:Temp:Feuchte:Taupunkt:
Aussen-T/F 1626 26-07-2006 07:06:01 22.4 C 67 % 15.97 C
1627 26-07-2006 07:16:01 22.5 C 67 % 16.07 C
1628 26-07-2006 07:26:01 22.7 C 66 % 16.02 C
1629 26-07-2006 07:36:01 23 C 65 % 16.07 C
1630 26-07-2006 07:46:02 23.6 C 63 % 16.14 C
1631 26-07-2006 07:56:02 23.9 C 61 % 15.92 C
1632 26-07-2006 08:06:01 23.7 C 62 % 15.99 C
1633 26-07-2006 08:16:01 23.7 C 61 % 15.73 C
1634 26-07-2006 08:26:01 23.8 C 62 % 16.08 C
1635 26-07-2006 08:36:01 24.1 C 61 % 16.11 C
1636 26-07-2006 08:46:02 24.5 C 59 % 15.96 C
1637 26-07-2006 08:56:02 25.2 C 56 % 15.8 C
1638 26-07-2006 09:06:01 25.9 C 52 % 15.29 C
1639 26-07-2006 09:16:01 26.4 C 52 % 15.75 C
1640 26-07-2006 09:26:01 26.5 C 52 % 15.84 C
1641 26-07-2006 09:36:01 26.6 C 51 % 15.63 C
1642 26-07-2006 09:46:02 27.1 C 48 % 15.15 C
1643 26-07-2006 09:56:02 27.7 C 47 % 15.36 C
1644 26-07-2006 10:06:01 28.2 C 44 % 14.79 C
1645 26-07-2006 10:16:01 28.8 C 42 % 14.61 C
1646 26-07-2006 10:26:01 29.3 C 40 % 14.3 C
1647 26-07-2006 10:36:01 30 C 38 % 14.13 C
1648 26-07-2006 10:46:02 30.2 C 36 % 13.48 C
1649 26-07-2006 10:56:02 30.4 C 35 % 13.22 C
1650 26-07-2006 11:06:01 30.8 C 34 % 13.13 C
Sensor: Nr:Datum:Temp:Feuchte:Taupunkt:
Aussen-T/F 1651 26-07-2006 11:16:01 31 C 35 % 13.75 C
1652 26-07-2006 11:26:01 31.4 C 32 % 12.72 C
1653 26-07-2006 11:36:01 31.8 C 31 % 12.58 C
1654 26-07-2006 11:46:01 31.9 C 30 % 12.17 C
1655 26-07-2006 11:56:01 32.2 C 29 % 11.91 C
1656 26-07-2006 12:06:01 32.5 C 27 % 11.09 C
1657 26-07-2006 12:16:01 32.7 C 26 % 10.69 C
1658 26-07-2006 12:26:01 32.8 C 25 % 10.19 C
1659 26-07-2006 12:36:01 33.1 C 23 % 9.2 C
1660 26-07-2006 12:46:02 33.5 C 22 % 8.87 C
1661 26-07-2006 12:56:02 33.9 C 20 % 7.8 C
1662 26-07-2006 13:06:02 34 C 20 % 7.88 C
1663 26-07-2006 13:16:02 33.9 C 20 % 7.8 C
1664 26-07-2006 13:26:02 34.6 C 20 % 8.37 C
1665 26-07-2006 13:36:02 34.1 C 20 % 7.96 C
1666 26-07-2006 13:46:03 33.3 C 20 % 7.3 C
1667 26-07-2006 13:56:03 32.9 C 22 % 8.37 C
1668 26-07-2006 14:06:02 32.6 C 23 % 8.78 C
1669 26-07-2006 14:16:02 31.8 C 25 % 9.35 C
1670 26-07-2006 14:26:02 31.8 C 27 % 10.49 C
1671 26-07-2006 14:36:02 31.8 C 27 % 10.49 C
1672 26-07-2006 14:46:02 32 C 27 % 10.66 C
1673 26-07-2006 14:56:02 32.1 C 27 % 10.75 C
1674 26-07-2006 15:06:01 32.7 C 27 % 11.26 C
1675 26-07-2006 15:16:01 33.3 C 21 % 8.02 C
Sensor: Nr:Datum:Temp:Feuchte:Taupunkt:
Aussen-T/F 1676 26-07-2006 15:26:01 33.5 C 22 % 8.87 C
1677 26-07-2006 15:36:02 33.6 C 21 % 8.27 C
1678 26-07-2006 15:46:02 33.8 C 21 % 8.43 C
1679 26-07-2006 15:56:02 33.3 C 21 % 8.02 C
1680 26-07-2006 16:06:01 31.9 C 26 % 10.02 C
1681 26-07-2006 16:16:01 31.5 C 27 % 10.24 C
1682 26-07-2006 16:26:01 31.2 C 28 % 10.53 C
1683 26-07-2006 16:36:02 31.1 C 30 % 11.48 C
1684 26-07-2006 16:46:02 30.9 C 30 % 11.31 C
1685 26-07-2006 16:56:02 30.7 C 31 % 11.63 C
1686 26-07-2006 17:06:01 30.7 C 31 % 11.63 C
1687 26-07-2006 17:16:01 31 C 32 % 12.37 C
1688 26-07-2006 17:26:01 31.2 C 33 % 13.02 C
1689 26-07-2006 17:36:02 31 C 30 % 11.4 C
1690 26-07-2006 17:46:02 31.1 C 32 % 12.46 C
1691 26-07-2006 17:56:02 31 C 32 % 12.37 C
1692 26-07-2006 18:06:03 30.9 C 34 % 13.21 C
1693 26-07-2006 18:16:02 30.8 C 33 % 12.67 C
1694 26-07-2006 18:26:02 30.8 C 35 % 13.57 C
1695 26-07-2006 18:36:02 30.9 C 35 % 13.66 C
1696 26-07-2006 18:46:01 31.6 C 32 % 12.89 C
1697 26-07-2006 18:56:01 32.6 C 27 % 11.17 C
1698 26-07-2006 19:06:02 33 C 25 % 10.35 C
1699 26-07-2006 19:16:02 33.1 C 25 % 10.44 C
1700 26-07-2006 19:26:02 33.1 C 24 % 9.83 C
Sensor: Nr:Datum:Temp:Feuchte:Taupunkt:
Aussen-T/F 1701 26-07-2006 19:36:02 33 C 24 % 9.75 C
1702 26-07-2006 19:46:02 32.9 C 24 % 9.66 C
1703 26-07-2006 19:56:02 32.8 C 26 % 10.77 C
1704 26-07-2006 20:06:01 32.5 C 27 % 11.09 C
1705 26-07-2006 20:16:01 31.7 C 31 % 12.5 C
1706 26-07-2006 20:26:01 31 C 33 % 12.84 C
1707 26-07-2006 20:36:01 30.6 C 34 % 12.95 C
1708 26-07-2006 20:46:02 30.4 C 36 % 13.65 C
1709 26-07-2006 20:56:02 30.2 C 37 % 13.9 C
1710 26-07-2006 21:06:02 29.8 C 38 % 13.95 C
1711 26-07-2006 21:16:02 29.4 C 39 % 14 C
1712 26-07-2006 21:26:03 29.1 C 40 % 14.12 C
1713 26-07-2006 21:36:02 28.9 C 41 % 14.33 C
1714 26-07-2006 21:46:02 28.8 C 41 % 14.24 C
1715 26-07-2006 21:56:02 28.3 C 43 % 14.53 C
1716 26-07-2006 22:06:02 28.1 C 44 % 14.7 C
1717 26-07-2006 22:16:02 28.1 C 44 % 14.7 C
1718 26-07-2006 22:26:02 27.8 C 45 % 14.78 C
1719 26-07-2006 22:36:02 27.5 C 45 % 14.51 C
1720 26-07-2006 22:46:02 27.2 C 47 % 14.91 C
1721 26-07-2006 22:56:02 27 C 47 % 14.73 C
1722 26-07-2006 23:06:02 26.8 C 50 % 15.51 C
1723 26-07-2006 23:16:02 26.5 C 53 % 16.14 C
1724 26-07-2006 23:26:02 26.4 C 53 % 16.05 C
1725 26-07-2006 23:36:02 26.2 C 53 % 15.87 C
Sensor: Nr:Datum:Temp:Feuchte:Taupunkt:
Aussen-T/F 1726 26-07-2006 23:46:02 26.1 C 54 % 16.07 C
1727 26-07-2006 23:56:02 25.7 C 54 % 15.7 C
1728 27-07-2006 00:06:01 25.8 C 55 % 16.07 C
1729 27-07-2006 00:16:02 25.5 C 55 % 15.8 C
1730 27-07-2006 00:26:02 25.3 C 56 % 15.89 C
1731 27-07-2006 00:36:02 25.2 C 57 % 16.08 C
1732 27-07-2006 00:46:02 25.1 C 57 % 15.98 C
1733 27-07-2006 00:56:03 24.9 C 59 % 16.34 C
1734 27-07-2006 01:06:02 24.9 C 61 % 16.86 C
1735 27-07-2006 01:16:02 24.7 C 61 % 16.67 C
1736 27-07-2006 01:26:02 24.6 C 62 % 16.84 C
1737 27-07-2006 01:36:03 24.5 C 61 % 16.49 C
1738 27-07-2006 01:46:03 24.3 C 62 % 16.55 C
1739 27-07-2006 01:56:03 24.1 C 63 % 16.62 C
1740 27-07-2006 02:06:02 23.9 C 63 % 16.43 C
1741 27-07-2006 02:16:02 23.9 C 62 % 16.18 C
1742 27-07-2006 02:26:02 23.8 C 63 % 16.33 C
1743 27-07-2006 02:36:03 23.6 C 63 % 16.14 C
1744 27-07-2006 02:47:05 23.5 C 64 % 16.3 C
1745 27-07-2006 02:57:05 23.3 C 66 % 16.59 C
1746 27-07-2006 03:07:05 23.2 C 65 % 16.26 C
1747 27-07-2006 03:17:05 23.2 C 65 % 16.26 C
1748 27-07-2006 03:27:05 23.3 C 66 % 16.59 C
1749 27-07-2006 03:37:02 23 C 66 % 16.31 C
1750 27-07-2006 03:47:02 23 C 66 % 16.31 C
Sensor: Nr:Datum:Temp:Feuchte:Taupunkt:
Aussen-T/F 1751 27-07-2006 03:57:02 22.9 C 66 % 16.21 C
1752 27-07-2006 04:07:03 22.5 C 71 % 16.98 C
1753 27-07-2006 04:17:02 22.4 C 69 % 16.43 C
1754 27-07-2006 04:27:02 22.3 C 68 % 16.11 C
1755 27-07-2006 04:37:02 22.3 C 70 % 16.56 C
1756 27-07-2006 04:47:03 22.2 C 70 % 16.47 C
1757 27-07-2006 04:57:03 22.1 C 69 % 16.15 C
1758 27-07-2006 05:07:02 22 C 70 % 16.28 C
1759 27-07-2006 05:17:03 21.8 C 72 % 16.53 C
1760 27-07-2006 05:27:03 21.7 C 73 % 16.65 C
1761 27-07-2006 05:37:03 21.6 C 74 % 16.77 C
1762 27-07-2006 05:47:03 21.5 C 74 % 16.67 C
1763 27-07-2006 05:57:03 21.2 C 80 % 17.61 C
1764 27-07-2006 06:07:03 21.3 C 78 % 17.31 C
1765 27-07-2006 06:17:03 21.4 C 77 % 17.2 C
1766 27-07-2006 06:27:03 21.4 C 78 % 17.4 C
1767 27-07-2006 06:37:04 21.3 C 78 % 17.31 C
1768 27-07-2006 06:47:01 21.3 C 78 % 17.31 C
1769 27-07-2006 06:57:01 21.4 C 78 % 17.4 C
1770 27-07-2006 07:07:01 21.7 C 77 % 17.49 C
1771 27-07-2006 07:17:01 21.9 C 76 % 17.48 C
1772 27-07-2006 07:27:01 22.1 C 75 % 17.46 C
1773 27-07-2006 07:37:02 22.3 C 74 % 17.44 C
1774 27-07-2006 07:47:02 22.5 C 73 % 17.42 C
1775 27-07-2006 07:57:02 22.5 C 73 % 17.42 C
Sensor: Nr:Datum:Temp:Feuchte:Taupunkt:
Aussen-T/F 1776 27-07-2006 08:07:02 22.6 C 73 % 17.51 C
1777 27-07-2006 08:17:02 22.7 C 72 % 17.39 C
1778 27-07-2006 08:27:02 23.1 C 70 % 17.33 C
1779 27-07-2006 08:37:02 23.3 C 69 % 17.29 C
1780 27-07-2006 08:47:02 23.7 C 68 % 17.44 C
1781 27-07-2006 08:57:02 24.2 C 64 % 16.96 C
1782 27-07-2006 09:07:02 24.4 C 62 % 16.65 C
1783 27-07-2006 09:17:01 24.9 C 58 % 16.07 C
1784 27-07-2006 09:27:01 25.1 C 56 % 15.71 C
1785 27-07-2006 09:37:02 25.3 C 53 % 15.03 C
1786 27-07-2006 09:47:03 25.8 C 51 % 14.9 C
1787 27-07-2006 09:57:03 26.3 C 49 % 14.74 C
1788 27-07-2006 10:07:03 26.6 C 48 % 14.69 C
1789 27-07-2006 10:17:03 26.9 C 48 % 14.96 C
1790 27-07-2006 10:27:03 27.6 C 46 % 14.94 C
1791 27-07-2006 10:37:02 28.1 C 44 % 14.7 C
1792 27-07-2006 10:47:02 28.5 C 43 % 14.71 C
1793 27-07-2006 10:57:03 29 C 41 % 14.42 C
1794 27-07-2006 11:07:02 29.4 C 40 % 14.39 C
1795 27-07-2006 11:17:01 28.7 C 40 % 13.77 C
1796 27-07-2006 11:27:01 28.5 C 41 % 13.97 C
1797 27-07-2006 11:37:02 28.8 C 41 % 14.24 C
1798 27-07-2006 11:47:02 29.4 C 39 % 14 C
1799 27-07-2006 11:57:02 30 C 37 % 13.72 C
1800 27-07-2006 12:07:02 30.6 C 35 % 13.39 C
Sensor: Nr:Datum:Temp:Feuchte:Taupunkt:
Aussen-T/F 1801 27-07-2006 12:17:02 31.2 C 34 % 13.47 C
1802 27-07-2006 12:27:02 31.5 C 32 % 12.81 C
1803 27-07-2006 12:37:01 31.9 C 30 % 12.17 C
1804 27-07-2006 12:47:02 32.2 C 30 % 12.43 C
1805 27-07-2006 12:57:02 32.5 C 28 % 11.64 C
1806 27-07-2006 13:07:02 32.8 C 26 % 10.77 C
1807 27-07-2006 13:17:02 32.5 C 27 % 11.09 C
1808 27-07-2006 13:27:02 32.4 C 27 % 11 C
1809 27-07-2006 13:37:01 32.6 C 26 % 10.61 C
1810 27-07-2006 13:47:02 32.8 C 25 % 10.19 C
1811 27-07-2006 13:57:02 32.6 C 26 % 10.61 C
1812 27-07-2006 14:07:02 32.8 C 25 % 10.19 C
1813 27-07-2006 14:17:02 32.8 C 25 % 10.19 C
1814 27-07-2006 14:27:02 32.7 C 25 % 10.1 C
1815 27-07-2006 14:37:02 32.5 C 26 % 10.52 C
1816 27-07-2006 14:47:02 32.1 C 27 % 10.75 C
1817 27-07-2006 14:57:02 31.5 C 30 % 11.83 C
1818 27-07-2006 15:07:02 31.4 C 30 % 11.74 C
1819 27-07-2006 15:17:02 30.3 C 35 % 13.13 C
1820 27-07-2006 15:27:02 29.8 C 37 % 13.54 C
1821 27-07-2006 15:37:02 28.7 C 39 % 13.38 C
1822 27-07-2006 15:47:02 24.4 C 48 % 12.68 C
1823 27-07-2006 15:57:02 22.8 C 78 % 18.76 C
1824 27-07-2006 16:07:02 22.5 C 84 % 19.66 C
1825 27-07-2006 16:17:02 22.9 C 87 % 20.62 C
Sensor: Nr:Datum:Temp:Feuchte:Taupunkt:
Aussen-T/F 1826 27-07-2006 16:27:02 23.3 C 88 % 21.2 C
1827 27-07-2006 16:37:02 22.9 C 86 % 20.43 C
1828 27-07-2006 16:47:02 23.8 C 83 % 20.74 C
1829 27-07-2006 16:57:02 24.9 C 82 % 21.61 C
1830 27-07-2006 17:07:02 25.8 C 73 % 20.59 C
1831 27-07-2006 17:17:02 26.5 C 68 % 20.11 C
1832 27-07-2006 17:27:02 26 C 69 % 19.87 C
1833 27-07-2006 17:37:02 25.9 C 71 % 20.24 C
1834 27-07-2006 17:47:02 26.4 C 71 % 20.71 C
1835 27-07-2006 17:57:03 27 C 64 % 19.61 C
1836 27-07-2006 18:07:02 27.9 C 63 % 20.2 C
1837 27-07-2006 18:17:02 28 C 63 % 20.29 C
1838 27-07-2006 18:27:02 27.9 C 64 % 20.46 C
1839 27-07-2006 18:37:03 27.8 C 63 % 20.11 C
1840 27-07-2006 18:47:02 29 C 58 % 19.9 C
1841 27-07-2006 18:57:02 29.5 C 55 % 19.5 C
1842 27-07-2006 19:07:02 29.2 C 55 % 19.23 C
1843 27-07-2006 19:17:02 28.9 C 56 % 19.24 C
1844 27-07-2006 19:27:02 28.5 C 56 % 18.87 C
1845 27-07-2006 19:37:02 28.6 C 55 % 18.67 C
1846 27-07-2006 19:47:02 29 C 52 % 18.15 C
1847 27-07-2006 19:57:02 29 C 53 % 18.45 C
1848 27-07-2006 20:07:02 27.8 C 57 % 18.5 C
1849 27-07-2006 20:17:02 27.1 C 57 % 17.85 C
1850 27-07-2006 20:27:02 26.3 C 59 % 17.65 C
Sensor: Nr:Datum:Temp:Feuchte:Taupunkt:
Aussen-T/F 1851 27-07-2006 20:37:01 25.8 C 59 % 17.18 C
1852 27-07-2006 20:47:02 25.5 C 61 % 17.43 C
1853 27-07-2006 20:57:02 25 C 61 % 16.96 C
1854 27-07-2006 21:07:02 25 C 63 % 17.47 C
1855 27-07-2006 21:17:02 24.9 C 64 % 17.62 C
1856 27-07-2006 21:27:02 24.8 C 62 % 17.02 C
1857 27-07-2006 21:37:02 24.7 C 62 % 16.93 C
1858 27-07-2006 21:47:02 24.8 C 64 % 17.53 C
1859 27-07-2006 21:57:02 24.7 C 65 % 17.68 C
1860 27-07-2006 22:07:02 24.7 C 65 % 17.68 C
1861 27-07-2006 22:17:02 24.6 C 63 % 17.09 C
1862 27-07-2006 22:27:02 24.6 C 63 % 17.09 C
1863 27-07-2006 22:37:03 24.6 C 63 % 17.09 C
1864 27-07-2006 22:47:02 24.3 C 63 % 16.81 C
1865 27-07-2006 22:57:02 24 C 64 % 16.77 C
1866 27-07-2006 23:07:02 23.8 C 65 % 16.83 C
1867 27-07-2006 23:17:02 23.7 C 67 % 17.21 C
1868 27-07-2006 23:27:02 23.6 C 67 % 17.11 C
1869 27-07-2006 23:37:02 23.5 C 68 % 17.25 C
1870 27-07-2006 23:47:02 23.3 C 67 % 16.83 C
1871 27-07-2006 23:57:02 23.3 C 68 % 17.06 C
1872 28-07-2006 00:07:02 23.1 C 71 % 17.55 C
1873 28-07-2006 00:17:02 22.7 C 73 % 17.61 C
1874 28-07-2006 00:27:02 22.7 C 72 % 17.39 C
1875 28-07-2006 00:37:03 22.7 C 72 % 17.39 C
Sensor: Nr:Datum:Temp:Feuchte:Taupunkt:
Aussen-T/F 1876 28-07-2006 00:47:02 22.4 C 73 % 17.32 C
1877 28-07-2006 00:57:02 22.4 C 72 % 17.1 C
1878 28-07-2006 01:07:02 22.4 C 74 % 17.54 C
1879 28-07-2006 01:17:02 22.4 C 74 % 17.54 C
1880 28-07-2006 01:27:02 22.3 C 74 % 17.44 C
1881 28-07-2006 01:37:01 22.5 C 74 % 17.63 C
1882 28-07-2006 01:47:03 22.4 C 76 % 17.96 C
1883 28-07-2006 01:57:03 22.1 C 77 % 17.88 C
1884 28-07-2006 02:07:03 22 C 78 % 17.99 C
1885 28-07-2006 02:17:02 22 C 77 % 17.78 C
1886 28-07-2006 02:27:02 22 C 77 % 17.78 C
1887 28-07-2006 02:37:03 22 C 77 % 17.78 C
1888 28-07-2006 02:48:04 21.9 C 78 % 17.89 C
1889 28-07-2006 02:58:04 21.7 C 78 % 17.7 C
1890 28-07-2006 03:08:04 21.6 C 79 % 17.8 C
1891 28-07-2006 03:18:04 21.5 C 78 % 17.5 C
1892 28-07-2006 03:28:04 21.5 C 79 % 17.7 C
1893 28-07-2006 03:38:02 21.3 C 79 % 17.51 C
1894 28-07-2006 03:48:02 21.2 C 79 % 17.41 C
1895 28-07-2006 03:58:02 21.2 C 79 % 17.41 C
1896 28-07-2006 04:08:02 21.2 C 79 % 17.41 C
1897 28-07-2006 04:18:02 21.1 C 80 % 17.51 C
1898 28-07-2006 04:28:02 21 C 81 % 17.61 C
1899 28-07-2006 04:38:02 20.9 C 81 % 17.52 C
1900 28-07-2006 04:48:02 20.9 C 82 % 17.71 C
Sensor: Nr:Datum:Temp:Feuchte:Taupunkt:
Aussen-T/F 1901 28-07-2006 04:58:02 20.9 C 81 % 17.52 C
1902 28-07-2006 05:08:02 20.8 C 80 % 17.22 C
1903 28-07-2006 05:18:02 20.7 C 80 % 17.13 C
1904 28-07-2006 05:28:02 20.6 C 80 % 17.03 C
1905 28-07-2006 05:38:02 20.6 C 80 % 17.03 C
1906 28-07-2006 05:48:02 20.4 C 80 % 16.83 C
1907 28-07-2006 05:58:02 20.3 C 79 % 16.54 C
1908 28-07-2006 06:08:03 20.4 C 81 % 17.03 C
1909 28-07-2006 06:18:03 20.2 C 82 % 17.03 C
1910 28-07-2006 06:28:03 20.3 C 82 % 17.13 C
1911 28-07-2006 06:38:03 20.4 C 81 % 17.03 C
1912 28-07-2006 06:48:03 20.5 C 81 % 17.13 C
1913 28-07-2006 06:58:03 20.8 C 80 % 17.22 C
1914 28-07-2006 07:08:02 20.9 C 80 % 17.32 C
1915 28-07-2006 07:18:02 21 C 80 % 17.42 C
1916 28-07-2006 07:28:02 21.1 C 80 % 17.51 C
1917 28-07-2006 07:38:02 21.1 C 80 % 17.51 C
1918 28-07-2006 07:48:01 21.1 C 79 % 17.32 C
1919 28-07-2006 07:58:01 21.2 C 78 % 17.21 C
1920 28-07-2006 08:08:02 21.3 C 78 % 17.31 C
1921 28-07-2006 08:18:02 21.4 C 77 % 17.2 C
1922 28-07-2006 08:28:02 21.4 C 77 % 17.2 C
1923 28-07-2006 08:38:02 21.5 C 77 % 17.3 C
1924 28-07-2006 08:48:03 21.8 C 77 % 17.59 C
1925 28-07-2006 08:58:03 22.2 C 74 % 17.34 C
Sensor: Nr:Datum:Temp:Feuchte:Taupunkt:
Aussen-T/F 1926 28-07-2006 09:08:02 22.8 C 71 % 17.27 C
1927 28-07-2006 09:18:02 22.7 C 71 % 17.17 C
1928 28-07-2006 09:28:02 22.9 C 70 % 17.14 C
1929 28-07-2006 09:38:02 23.1 C 68 % 16.87 C
1930 28-07-2006 09:48:02 23.5 C 66 % 16.78 C
1931 28-07-2006 09:58:02 24.3 C 63 % 16.81 C
1932 28-07-2006 10:08:02 24.9 C 61 % 16.86 C
1933 28-07-2006 10:18:01 25.6 C 58 % 16.72 C
1934 28-07-2006 10:28:01 26.2 C 55 % 16.45 C
1935 28-07-2006 10:38:01 26.5 C 53 % 16.14 C
1936 28-07-2006 10:48:02 26.7 C 52 % 16.03 C
1937 28-07-2006 10:58:02 27.1 C 51 % 16.09 C
1938 28-07-2006 11:08:02 27.3 C 48 % 15.33 C
1939 28-07-2006 11:18:02 27 C 49 % 15.38 C
1940 28-07-2006 11:28:02 26.6 C 52 % 15.94 C
1941 28-07-2006 11:38:01 26.2 C 52 % 15.57 C
1942 28-07-2006 11:48:02 26.4 C 52 % 15.75 C
1943 28-07-2006 11:58:02 26.7 C 51 % 15.72 C
1944 28-07-2006 12:08:02 26.9 C 50 % 15.6 C
1945 28-07-2006 12:18:02 27.2 C 49 % 15.56 C
1946 28-07-2006 12:28:02 27.2 C 50 % 15.87 C
1947 28-07-2006 12:38:01 27.1 C 50 % 15.78 C
1948 28-07-2006 12:48:02 27.4 C 49 % 15.74 C
1949 28-07-2006 12:58:02 27.3 C 49 % 15.65 C
1950 28-07-2006 13:08:02 27.9 C 48 % 15.87 C
Sensor: Nr:Datum:Temp:Feuchte:Taupunkt:
Aussen-T/F 1951 28-07-2006 13:18:02 28.8 C 45 % 15.68 C
1952 28-07-2006 13:28:02 28.8 C 44 % 15.33 C
1953 28-07-2006 13:38:02 27.9 C 47 % 15.55 C
1954 28-07-2006 13:48:02 27.2 C 48 % 15.24 C
1955 28-07-2006 13:58:02 27 C 48 % 15.05 C
1956 28-07-2006 14:08:02 27.3 C 48 % 15.33 C
1957 28-07-2006 14:18:02 27.2 C 48 % 15.24 C
1958 28-07-2006 14:28:03 26.6 C 52 % 15.94 C
1959 28-07-2006 14:38:02 25.7 C 55 % 15.98 C
1960 28-07-2006 14:48:02 24.5 C 60 % 16.23 C
1961 28-07-2006 14:58:02 23.7 C 61 % 15.73 C
1962 28-07-2006 15:08:03 23 C 62 % 15.33 C
1963 28-07-2006 15:18:02 22 C 61 % 14.14 C
1964 28-07-2006 15:28:02 21.4 C 69 % 15.48 C
1965 28-07-2006 15:38:02 20.1 C 78 % 16.14 C
1966 28-07-2006 15:48:02 19.7 C 83 % 16.73 C
1967 28-07-2006 15:58:02 19.4 C 85 % 16.81 C
1968 28-07-2006 16:08:02 19.2 C 86 % 16.8 C
1969 28-07-2006 16:18:02 19.3 C 87 % 17.08 C
1970 28-07-2006 16:28:02 19.5 C 88 % 17.46 C
1971 28-07-2006 16:38:02 19.6 C 88 % 17.56 C
1972 28-07-2006 16:48:02 19.6 C 87 % 17.38 C
1973 28-07-2006 16:58:02 19.8 C 86 % 17.39 C
1974 28-07-2006 17:08:02 20.2 C 83 % 17.22 C
1975 28-07-2006 17:18:02 20.9 C 83 % 17.9 C
Sensor: Nr:Datum:Temp:Feuchte:Taupunkt:
Aussen-T/F 1976 28-07-2006 17:28:02 21.2 C 82 % 18 C
1977 28-07-2006 17:38:02 21.2 C 81 % 17.81 C
1978 28-07-2006 17:48:02 21.3 C 79 % 17.51 C
1979 28-07-2006 17:58:02 21.5 C 80 % 17.9 C
1980 28-07-2006 18:08:02 21.7 C 79 % 17.9 C
1981 28-07-2006 18:18:03 22 C 77 % 17.78 C
1982 28-07-2006 18:28:03 22.4 C 78 % 18.37 C
1983 28-07-2006 18:38:03 22.7 C 76 % 18.25 C
1984 28-07-2006 18:48:03 23.4 C 73 % 18.28 C
1985 28-07-2006 18:58:03 25 C 65 % 17.96 C
1986 28-07-2006 19:08:02 25.4 C 59 % 16.81 C
1987 28-07-2006 19:18:03 25.7 C 60 % 17.35 C
1988 28-07-2006 19:28:03 24.2 C 64 % 16.96 C
1989 28-07-2006 19:38:02 24 C 66 % 17.26 C
1990 28-07-2006 19:48:02 23.9 C 67 % 17.4 C
1991 28-07-2006 19:58:02 24.1 C 66 % 17.35 C
1992 28-07-2006 20:08:03 24.3 C 66 % 17.54 C
1993 28-07-2006 20:18:02 24.1 C 64 % 16.86 C
1994 28-07-2006 20:28:02 24.1 C 65 % 17.11 C
1995 28-07-2006 20:38:02 24 C 65 % 17.01 C
1996 28-07-2006 20:48:02 23.7 C 67 % 17.21 C
1997 28-07-2006 20:58:02 23.3 C 70 % 17.52 C
1998 28-07-2006 21:08:02 22.4 C 73 % 17.32 C
1999 28-07-2006 21:18:02 22 C 74 % 17.15 C
2000 28-07-2006 21:28:02 21.6 C 76 % 17.19 C
Sensor: Nr:Datum:Temp:Feuchte:Taupunkt:
Aussen-T/F 2001 28-07-2006 21:38:01 21.2 C 76 % 16.8 C
2002 28-07-2006 21:48:02 21.1 C 76 % 16.7 C
2003 28-07-2006 21:58:02 20.7 C 76 % 16.32 C
2004 28-07-2006 22:08:02 20.4 C 77 % 16.23 C
2005 28-07-2006 22:18:02 20.4 C 78 % 16.44 C
2006 28-07-2006 22:28:02 20.3 C 78 % 16.34 C
2007 28-07-2006 22:38:02 20.4 C 78 % 16.44 C
2008 28-07-2006 22:48:02 20.3 C 79 % 16.54 C
2009 28-07-2006 22:58:02 20.1 C 79 % 16.34 C
2010 28-07-2006 23:08:02 20 C 80 % 16.44 C
2011 28-07-2006 23:18:02 20 C 80 % 16.44 C
2012 28-07-2006 23:28:02 19.8 C 80 % 16.25 C
2013 28-07-2006 23:38:02 19.6 C 81 % 16.25 C
2014 28-07-2006 23:48:02 19.5 C 81 % 16.15 C
2015 28-07-2006 23:58:03 19.4 C 82 % 16.25 C
2016 29-07-2006 00:08:02 19.3 C 82 % 16.15 C
2017 29-07-2006 00:18:02 19.2 C 83 % 16.24 C
2018 29-07-2006 00:28:02 19.2 C 83 % 16.24 C
2019 29-07-2006 00:38:02 19.1 C 84 % 16.33 C
2020 29-07-2006 00:48:03 19.1 C 84 % 16.33 C
2021 29-07-2006 00:58:03 19.1 C 87 % 16.89 C
2022 29-07-2006 01:08:03 19 C 87 % 16.79 C
2023 29-07-2006 01:18:03 18.9 C 88 % 16.87 C
2024 29-07-2006 01:28:03 19.3 C 88 % 17.26 C
2025 29-07-2006 01:38:03 19.4 C 88 % 17.36 C
Sensor: Nr:Datum:Temp:Feuchte:Taupunkt:
Aussen-T/F 2026 29-07-2006 01:48:02 19.5 C 87 % 17.28 C
2027 29-07-2006 01:58:02 19.4 C 87 % 17.18 C
2028 29-07-2006 02:08:02 19.3 C 87 % 17.08 C
2029 29-07-2006 02:18:03 19.2 C 87 % 16.98 C
2030 29-07-2006 02:28:03 19.2 C 87 % 16.98 C
2031 29-07-2006 02:38:03 19.3 C 87 % 17.08 C
2032 29-07-2006 02:49:03 19.2 C 86 % 16.8 C
2033 29-07-2006 02:59:03 19.1 C 85 % 16.52 C
2034 29-07-2006 03:09:03 18.9 C 87 % 16.69 C
2035 29-07-2006 03:19:04 19 C 87 % 16.79 C
2036 29-07-2006 03:29:04 19 C 87 % 16.79 C
2037 29-07-2006 03:39:03 19 C 87 % 16.79 C
2038 29-07-2006 03:49:03 18.7 C 88 % 16.67 C
2039 29-07-2006 03:59:03 18.8 C 88 % 16.77 C
2040 29-07-2006 04:09:02 18.8 C 88 % 16.77 C
2041 29-07-2006 04:19:02 18.8 C 88 % 16.77 C
2042 29-07-2006 04:29:03 18.9 C 89 % 17.05 C
2043 29-07-2006 04:39:02 18.9 C 88 % 16.87 C
2044 29-07-2006 04:49:02 18.9 C 88 % 16.87 C
2045 29-07-2006 04:59:02 18.9 C 88 % 16.87 C
2046 29-07-2006 05:09:02 18.9 C 88 % 16.87 C
2047 29-07-2006 05:19:02 18.9 C 88 % 16.87 C
2048 29-07-2006 05:29:02 18.9 C 88 % 16.87 C
2049 29-07-2006 05:39:02 18.7 C 87 % 16.49 C
2050 29-07-2006 05:49:02 18.6 C 87 % 16.39 C
Sensor: Nr:Datum:Temp:Feuchte:Taupunkt:
Aussen-T/F 2051 29-07-2006 05:59:02 18.4 C 88 % 16.38 C
2052 29-07-2006 06:09:02 18.4 C 88 % 16.38 C
2053 29-07-2006 06:19:02 18.5 C 88 % 16.48 C
2054 29-07-2006 06:29:02 18.4 C 88 % 16.38 C
2055 29-07-2006 06:39:01 18.5 C 88 % 16.48 C
2056 29-07-2006 06:49:02 18.5 C 88 % 16.48 C
2057 29-07-2006 06:59:02 18.5 C 88 % 16.48 C
2058 29-07-2006 07:09:02 18.5 C 88 % 16.48 C
2059 29-07-2006 07:19:02 18.7 C 88 % 16.67 C
2060 29-07-2006 07:29:02 18.7 C 87 % 16.49 C
2061 29-07-2006 07:39:01 18.8 C 87 % 16.59 C
2062 29-07-2006 07:49:02 18.9 C 87 % 16.69 C
2063 29-07-2006 07:59:03 19.2 C 86 % 16.8 C
2064 29-07-2006 08:09:02 19.3 C 85 % 16.72 C
2065 29-07-2006 08:19:02 19.3 C 84 % 16.53 C
2066 29-07-2006 08:29:02 19.6 C 84 % 16.82 C
2067 29-07-2006 08:39:01 19.7 C 83 % 16.73 C
2068 29-07-2006 08:49:02 20 C 81 % 16.64 C
2069 29-07-2006 08:59:02 20.5 C 80 % 16.93 C
2070 29-07-2006 09:09:02 20.7 C 78 % 16.73 C
2071 29-07-2006 09:19:01 20.8 C 77 % 16.62 C
2072 29-07-2006 09:29:01 21.6 C 73 % 16.55 C
2073 29-07-2006 09:39:03 22 C 71 % 16.5 C
2074 29-07-2006 09:49:02 22.5 C 68 % 16.3 C
2075 29-07-2006 09:59:02 22.8 C 67 % 16.35 C
Sensor: Nr:Datum:Temp:Feuchte:Taupunkt:
Aussen-T/F 2076 29-07-2006 10:09:02 23.2 C 65 % 16.26 C
2077 29-07-2006 10:19:03 23.4 C 64 % 16.2 C
2078 29-07-2006 10:29:03 23.8 C 62 % 16.08 C
2079 29-07-2006 10:39:04 23.7 C 62 % 15.99 C
2080 29-07-2006 10:49:02 24.4 C 59 % 15.87 C
2081 29-07-2006 10:59:02 24.8 C 57 % 15.7 C
2082 29-07-2006 11:09:02 25.1 C 56 % 15.71 C
2083 29-07-2006 11:19:01 25.9 C 53 % 15.59 C
2084 29-07-2006 11:29:01 26.3 C 50 % 15.05 C
2085 29-07-2006 11:39:01 26.7 C 48 % 14.78 C
2086 29-07-2006 11:49:02 27.1 C 46 % 14.49 C
2087 29-07-2006 11:59:02 26.8 C 48 % 14.87 C
2088 29-07-2006 12:09:02 26.2 C 48 % 14.32 C
2089 29-07-2006 12:19:02 26.5 C 50 % 15.23 C
2090 29-07-2006 12:29:02 27.5 C 47 % 15.18 C
2091 29-07-2006 12:39:02 28.3 C 43 % 14.53 C
2092 29-07-2006 12:49:02 29.1 C 41 % 14.51 C
2093 29-07-2006 12:59:02 29.8 C 40 % 14.75 C
2094 29-07-2006 13:09:02 30.1 C 37 % 13.81 C
2095 29-07-2006 13:19:02 29.8 C 37 % 13.54 C
2096 29-07-2006 13:29:02 30.3 C 35 % 13.13 C
2097 29-07-2006 13:39:01 30.6 C 35 % 13.39 C
2098 29-07-2006 13:49:02 30.7 C 33 % 12.58 C
2099 29-07-2006 13:59:02 31.1 C 33 % 12.93 C
2100 29-07-2006 14:09:02 31.5 C 31 % 12.32 C
Sensor: Nr:Datum:Temp:Feuchte:Taupunkt:
Aussen-T/F 2101 29-07-2006 14:19:02 31.6 C 30 % 11.91 C
2102 29-07-2006 14:29:02 31.4 C 30 % 11.74 C
2103 29-07-2006 14:39:02 31.2 C 31 % 12.06 C
2104 29-07-2006 14:49:02 31.6 C 30 % 11.91 C
2105 29-07-2006 14:59:02 31.5 C 29 % 11.31 C
2106 29-07-2006 15:09:01 32 C 27 % 10.66 C
2107 29-07-2006 15:19:01 31.8 C 26 % 9.93 C
2108 29-07-2006 15:29:01 31.2 C 30 % 11.57 C
2109 29-07-2006 15:39:01 31.4 C 30 % 11.74 C
2110 29-07-2006 15:49:02 31.2 C 31 % 12.06 C
2111 29-07-2006 15:59:02 30.9 C 31 % 11.81 C
2112 29-07-2006 16:09:02 30.1 C 33 % 12.06 C
2113 29-07-2006 16:19:02 27.9 C 41 % 13.43 C
2114 29-07-2006 16:29:03 25.4 C 46 % 12.94 C
2115 29-07-2006 16:39:02 24.3 C 72 % 18.93 C
2116 29-07-2006 16:49:03 25.1 C 74 % 20.14 C
2117 29-07-2006 16:59:03 28.6 C 64 % 21.12 C
2118 29-07-2006 17:09:02 29.6 C 36 % 12.95 C
2119 29-07-2006 17:19:02 30.3 C 34 % 12.69 C
2120 29-07-2006 17:29:02 31 C 34 % 13.3 C
2121 29-07-2006 17:39:02 31.2 C 29 % 11.06 C
2122 29-07-2006 17:49:02 31.7 C 29 % 11.48 C
2123 29-07-2006 17:59:02 31.8 C 29 % 11.57 C
2124 29-07-2006 18:09:02 31.7 C 27 % 10.41 C
2125 29-07-2006 18:19:02 31.2 C 30 % 11.57 C
Sensor: Nr:Datum:Temp:Feuchte:Taupunkt:
Aussen-T/F 2126 29-07-2006 18:29:02 31 C 31 % 11.89 C
2127 29-07-2006 18:39:02 30.3 C 33 % 12.23 C
2128 29-07-2006 18:49:02 29.3 C 36 % 12.68 C
2129 29-07-2006 18:59:02 28.4 C 39 % 13.11 C
2130 29-07-2006 19:09:02 28.3 C 40 % 13.41 C
2131 29-07-2006 19:19:02 28.1 C 43 % 14.35 C
2132 29-07-2006 19:29:02 28 C 44 % 14.61 C
2133 29-07-2006 19:39:02 27.5 C 46 % 14.85 C
2134 29-07-2006 19:49:02 27.3 C 46 % 14.67 C
2135 29-07-2006 19:59:03 27.3 C 46 % 14.67 C
2136 29-07-2006 20:09:02 27.3 C 48 % 15.33 C
2137 29-07-2006 20:19:02 27 C 48 % 15.05 C
2138 29-07-2006 20:29:02 26.8 C 50 % 15.51 C
2139 29-07-2006 20:39:02 26.8 C 50 % 15.51 C
2140 29-07-2006 20:49:02 26.6 C 51 % 15.63 C
2141 29-07-2006 20:59:02 26.1 C 51 % 15.17 C
2142 29-07-2006 21:09:02 25.3 C 52 % 14.74 C
2143 29-07-2006 21:19:01 25.4 C 54 % 15.42 C
2144 29-07-2006 21:29:01 25.3 C 53 % 15.03 C
2145 29-07-2006 21:39:01 24.9 C 55 % 15.24 C
2146 29-07-2006 21:49:02 24.4 C 55 % 14.78 C
2147 29-07-2006 21:59:02 24.4 C 56 % 15.06 C
2148 29-07-2006 22:09:02 24.1 C 55 % 14.5 C
2149 29-07-2006 22:19:02 23.8 C 57 % 14.77 C
2150 29-07-2006 22:29:02 23.6 C 57 % 14.59 C
Sensor: Nr:Datum:Temp:Feuchte:Taupunkt:
Aussen-T/F 2151 29-07-2006 22:39:02 23.3 C 57 % 14.31 C
2152 29-07-2006 22:49:02 23.1 C 57 % 14.12 C
2153 29-07-2006 22:59:02 23 C 58 % 14.29 C
2154 29-07-2006 23:09:02 22.8 C 59 % 14.37 C
2155 29-07-2006 23:19:02 22.7 C 58 % 14.01 C
2156 29-07-2006 23:29:02 22.4 C 57 % 13.47 C
2157 29-07-2006 23:39:02 22.3 C 58 % 13.64 C
2158 29-07-2006 23:49:02 22.2 C 59 % 13.81 C
2159 29-07-2006 23:59:02 22 C 59 % 13.62 C
2160 30-07-2006 00:09:02 21.8 C 61 % 13.95 C
2161 30-07-2006 00:19:03 21.7 C 64 % 14.6 C
2162 30-07-2006 00:29:03 21.6 C 62 % 14.01 C
2163 30-07-2006 00:39:02 21.5 C 65 % 14.65 C
2164 30-07-2006 00:49:03 21.3 C 68 % 15.16 C
2165 30-07-2006 00:59:03 21.2 C 69 % 15.29 C
2166 30-07-2006 01:09:03 21 C 70 % 15.32 C
2167 30-07-2006 01:19:02 20.8 C 69 % 14.91 C
2168 30-07-2006 01:29:02 20.7 C 69 % 14.81 C
2169 30-07-2006 01:39:03 20.6 C 69 % 14.71 C
2170 30-07-2006 01:49:02 20.5 C 68 % 14.39 C
2171 30-07-2006 01:59:02 20.4 C 69 % 14.52 C
2172 30-07-2006 02:09:02 20.3 C 72 % 15.09 C
2173 30-07-2006 02:19:02 20.2 C 72 % 14.99 C
2174 30-07-2006 02:29:02 20 C 73 % 15.01 C
2175 30-07-2006 02:39:02 20 C 75 % 15.43 C
Sensor: Nr:Datum:Temp:Feuchte:Taupunkt:
Aussen-T/F 2176 30-07-2006 02:50:04 19.9 C 77 % 15.75 C
2177 30-07-2006 03:00:04 19.9 C 76 % 15.54 C
2178 30-07-2006 03:10:04 19.7 C 76 % 15.35 C
2179 30-07-2006 03:20:04 19.5 C 77 % 15.36 C
2180 30-07-2006 03:30:04 19.5 C 77 % 15.36 C
2181 30-07-2006 03:40:02 19.3 C 78 % 15.37 C
2182 30-07-2006 03:50:02 19.3 C 78 % 15.37 C
2183 30-07-2006 04:00:02 19.3 C 79 % 15.57 C
2184 30-07-2006 04:10:01 19.1 C 81 % 15.76 C
2185 30-07-2006 04:20:02 19 C 82 % 15.86 C
2186 30-07-2006 04:30:02 18.9 C 82 % 15.76 C
2187 30-07-2006 04:40:02 18.8 C 81 % 15.47 C
2188 30-07-2006 04:50:02 18.7 C 83 % 15.75 C
2189 30-07-2006 05:00:02 18.7 C 85 % 16.13 C
2190 30-07-2006 05:10:03 18.5 C 85 % 15.93 C
2191 30-07-2006 05:20:02 18.5 C 84 % 15.75 C
2192 30-07-2006 05:30:02 18.3 C 84 % 15.55 C
2193 30-07-2006 05:40:02 18.3 C 84 % 15.55 C
2194 30-07-2006 05:50:02 18.2 C 84 % 15.45 C
2195 30-07-2006 06:00:02 18.1 C 84 % 15.35 C
2196 30-07-2006 06:10:03 18.2 C 85 % 15.64 C
2197 30-07-2006 06:20:02 18.2 C 86 % 15.82 C
2198 30-07-2006 06:30:02 18.4 C 87 % 16.2 C
2199 30-07-2006 06:40:02 18.4 C 86 % 16.02 C
2200 30-07-2006 06:50:02 18.4 C 86 % 16.02 C
Sensor: Nr:Datum:Temp:Feuchte:Taupunkt:
Aussen-T/F 2201 30-07-2006 07:00:03 18.5 C 86 % 16.11 C
2202 30-07-2006 07:10:02 18.5 C 86 % 16.11 C
2203 30-07-2006 07:20:01 18.5 C 86 % 16.11 C
2204 30-07-2006 07:30:01 18.6 C 85 % 16.03 C
2205 30-07-2006 07:40:01 18.8 C 84 % 16.04 C
2206 30-07-2006 07:50:02 19 C 83 % 16.05 C
2207 30-07-2006 08:00:03 19.1 C 82 % 15.96 C
2208 30-07-2006 08:10:02 19.1 C 82 % 15.96 C
2209 30-07-2006 08:20:02 19.2 C 82 % 16.05 C
2210 30-07-2006 08:30:02 19.4 C 81 % 16.06 C
2211 30-07-2006 08:40:01 19.6 C 81 % 16.25 C
2212 30-07-2006 08:50:02 19.8 C 80 % 16.25 C
2213 30-07-2006 09:00:02 20 C 78 % 16.05 C
2214 30-07-2006 09:10:02 20.5 C 76 % 16.12 C
2215 30-07-2006 09:20:02 21.2 C 73 % 16.17 C
2216 30-07-2006 09:30:02 22 C 68 % 15.82 C
2217 30-07-2006 09:40:02 22.5 C 66 % 15.83 C
2218 30-07-2006 09:50:02 22.8 C 66 % 16.12 C
2219 30-07-2006 10:00:02 22.6 C 67 % 16.16 C
2220 30-07-2006 10:10:02 23.6 C 63 % 16.14 C
2221 30-07-2006 10:20:02 24.3 C 60 % 16.04 C
2222 30-07-2006 10:30:02 25 C 57 % 15.89 C
2223 30-07-2006 10:40:02 25.1 C 55 % 15.43 C
2224 30-07-2006 10:50:02 25.2 C 55 % 15.52 C
2225 30-07-2006 11:00:02 25.2 C 54 % 15.23 C
Sensor: Nr:Datum:Temp:Feuchte:Taupunkt:
Aussen-T/F 2226 30-07-2006 11:10:02 25.5 C 53 % 15.22 C
2227 30-07-2006 11:20:02 26.2 C 47 % 14 C
2228 30-07-2006 11:30:02 26.7 C 44 % 13.44 C
2229 30-07-2006 11:40:02 27.3 C 36 % 10.93 C
2230 30-07-2006 11:50:01 27.8 C 34 % 10.51 C
2231 30-07-2006 12:00:01 28 C 33 % 10.23 C
2232 30-07-2006 12:10:01 28.1 C 35 % 11.2 C
2233 30-07-2006 12:20:02 28.6 C 34 % 11.21 C
2234 30-07-2006 12:30:03 29.2 C 31 % 10.34 C
2235 30-07-2006 12:40:02 29.2 C 30 % 9.85 C
2236 30-07-2006 12:50:03 29.7 C 29 % 9.77 C
2237 30-07-2006 13:00:03 30.1 C 27 % 9.05 C
2238 30-07-2006 13:10:02 30.4 C 28 % 9.85 C
2239 30-07-2006 13:20:02 30.6 C 26 % 8.92 C
2240 30-07-2006 13:30:03 30.8 C 26 % 9.09 C
2241 30-07-2006 13:40:02 30.7 C 27 % 9.56 C
2242 30-07-2006 13:50:02 31 C 26 % 9.26 C
2243 30-07-2006 14:00:02 30.5 C 27 % 9.39 C
2244 30-07-2006 14:10:03 30.9 C 26 % 9.17 C
2245 30-07-2006 14:20:03 31.2 C 25 % 8.84 C
2246 30-07-2006 14:30:03 30.8 C 25 % 8.51 C
2247 30-07-2006 14:40:03 31.1 C 25 % 8.76 C
2248 30-07-2006 14:50:03 31.1 C 25 % 8.76 C
2249 30-07-2006 15:00:03 31.4 C 23 % 7.78 C
2250 30-07-2006 15:10:03 31.3 C 22 % 7.05 C
Sensor: Nr:Datum:Temp:Feuchte:Taupunkt:
Aussen-T/F 2251 30-07-2006 15:20:03 31.5 C 23 % 7.87 C
2252 30-07-2006 15:30:03 31.4 C 23 % 7.78 C
2253 30-07-2006 15:40:03 31.5 C 23 % 7.87 C
2254 30-07-2006 15:50:03 31.9 C 22 % 7.55 C
2255 30-07-2006 16:00:03 31.8 C 22 % 7.46 C
2256 30-07-2006 16:10:03 31.7 C 23 % 8.03 C
2257 30-07-2006 16:20:04 31.6 C 24 % 8.58 C
2258 30-07-2006 16:30:04 31.3 C 25 % 8.93 C
2259 30-07-2006 16:40:04 31 C 28 % 10.36 C
2260 30-07-2006 16:50:04 30.9 C 26 % 9.17 C
2261 30-07-2006 17:00:04 30.8 C 27 % 9.65 C
2262 30-07-2006 17:10:04 30.6 C 28 % 10.02 C
2263 30-07-2006 17:20:04 29.9 C 32 % 11.42 C
2264 30-07-2006 17:30:04 29.4 C 32 % 10.99 C
2265 30-07-2006 17:40:04 29.5 C 33 % 11.54 C
2266 30-07-2006 17:50:04 29.6 C 32 % 11.16 C
2267 30-07-2006 18:00:04 29.5 C 33 % 11.54 C
2268 30-07-2006 18:10:02 29.4 C 32 % 10.99 C
2269 30-07-2006 18:20:02 29.5 C 32 % 11.07 C
2270 30-07-2006 18:30:02 29.5 C 32 % 11.07 C
2271 30-07-2006 18:40:03 29.7 C 35 % 12.61 C
2272 30-07-2006 18:50:02 29.8 C 32 % 11.33 C
2273 30-07-2006 19:00:02 29.7 C 33 % 11.71 C
2274 30-07-2006 19:10:02 28.9 C 37 % 12.75 C
2275 30-07-2006 19:20:01 28.9 C 38 % 13.16 C
Sensor: Nr:Datum:Temp:Feuchte:Taupunkt:
Aussen-T/F 2276 30-07-2006 19:30:01 28.6 C 36 % 12.07 C
2277 30-07-2006 19:40:02 28.4 C 35 % 11.47 C
2278 30-07-2006 19:50:02 28.1 C 35 % 11.2 C
2279 30-07-2006 20:00:02 27.8 C 35 % 10.94 C
2280 30-07-2006 20:10:02 27.7 C 35 % 10.85 C
2281 30-07-2006 20:20:01 26.9 C 37 % 10.99 C
2282 30-07-2006 20:30:01 26.6 C 37 % 10.72 C
2283 30-07-2006 20:40:02 26.5 C 37 % 10.63 C
2284 30-07-2006 20:50:03 26.1 C 38 % 10.68 C
2285 30-07-2006 21:00:03 25.8 C 41 % 11.56 C
2286 30-07-2006 21:10:02 25.5 C 43 % 12.01 C
2287 30-07-2006 21:20:02 25.4 C 44 % 12.27 C
2288 30-07-2006 21:30:02 25.2 C 46 % 12.76 C
2289 30-07-2006 21:40:02 24.1 C 52 % 13.63 C
2290 30-07-2006 21:50:02 24 C 53 % 13.83 C
2291 30-07-2006 22:00:02 23.6 C 55 % 14.03 C
2292 30-07-2006 22:10:02 23.6 C 55 % 14.03 C
2293 30-07-2006 22:20:02 23.7 C 56 % 14.4 C
2294 30-07-2006 22:30:02 23.5 C 55 % 13.94 C
2295 30-07-2006 22:40:02 23.2 C 56 % 13.94 C
2296 30-07-2006 22:50:02 23 C 56 % 13.75 C
2297 30-07-2006 23:00:03 22.8 C 58 % 14.11 C
2298 30-07-2006 23:10:02 22.9 C 58 % 14.2 C
2299 30-07-2006 23:20:02 22.6 C 59 % 14.18 C
2300 30-07-2006 23:30:02 22 C 59 % 13.62 C
Sensor: Nr:Datum:Temp:Feuchte:Taupunkt:
Aussen-T/F 2301 30-07-2006 23:40:03 21.8 C 61 % 13.95 C
2302 30-07-2006 23:50:02 21.5 C 62 % 13.92 C
2303 31-07-2006 00:00:02 21.3 C 62 % 13.73 C
2304 31-07-2006 00:10:02 21.2 C 62 % 13.63 C
2305 31-07-2006 00:20:03 21 C 62 % 13.44 C
2306 31-07-2006 00:30:03 20.8 C 64 % 13.74 C
2307 31-07-2006 00:40:02 20.5 C 65 % 13.7 C
2308 31-07-2006 00:50:03 20.5 C 65 % 13.7 C
2309 31-07-2006 01:00:03 20.6 C 65 % 13.79 C
2310 31-07-2006 01:10:03 20.6 C 66 % 14.03 C
2311 31-07-2006 01:20:02 20.6 C 64 % 13.55 C
2312 31-07-2006 01:30:02 20.4 C 66 % 13.84 C
2313 31-07-2006 01:40:03 20.5 C 66 % 13.93 C
2314 31-07-2006 01:50:02 20.4 C 66 % 13.84 C
2315 31-07-2006 02:00:02 20.7 C 65 % 13.89 C
2316 31-07-2006 02:10:01 20.4 C 66 % 13.84 C
2317 31-07-2006 02:20:02 20.1 C 67 % 13.78 C
2318 31-07-2006 02:30:02 20 C 66 % 13.46 C
2319 31-07-2006 02:40:02 19.8 C 67 % 13.5 C
2320 31-07-2006 02:51:04 19.6 C 67 % 13.31 C
2321 31-07-2006 03:01:04 19.6 C 67 % 13.31 C
2322 31-07-2006 03:11:04 19.8 C 66 % 13.27 C
2323 31-07-2006 03:21:04 19.8 C 66 % 13.27 C
2324 31-07-2006 03:31:02 19.9 C 66 % 13.36 C
2325 31-07-2006 03:41:02 20 C 65 % 13.22 C
Sensor: Nr:Datum:Temp:Feuchte:Taupunkt:
Aussen-T/F 2326 31-07-2006 03:51:02 19.4 C 71 % 14.01 C
2327 31-07-2006 04:01:02 19.4 C 71 % 14.01 C
2328 31-07-2006 04:11:02 19.5 C 70 % 13.89 C
2329 31-07-2006 04:21:02 19.2 C 72 % 14.03 C
2330 31-07-2006 04:31:01 18.9 C 77 % 14.78 C
2331 31-07-2006 04:41:01 18.7 C 77 % 14.59 C
2332 31-07-2006 04:51:02 18.7 C 78 % 14.79 C
2333 31-07-2006 05:01:02 18.3 C 78 % 14.4 C
2334 31-07-2006 05:11:02 18.3 C 81 % 14.98 C
2335 31-07-2006 05:21:02 18.3 C 80 % 14.79 C
2336 31-07-2006 05:31:03 18.4 C 81 % 15.08 C
2337 31-07-2006 05:41:03 18.6 C 80 % 15.08 C
2338 31-07-2006 05:51:02 18.5 C 80 % 14.99 C
2339 31-07-2006 06:01:02 18.3 C 79 % 14.6 C
2340 31-07-2006 06:11:02 18 C 79 % 14.31 C
2341 31-07-2006 06:21:02 17.9 C 80 % 14.4 C
2342 31-07-2006 06:31:02 18 C 79 % 14.31 C
2343 31-07-2006 06:41:02 18.3 C 78 % 14.4 C
2344 31-07-2006 06:51:02 18.6 C 76 % 14.29 C
2345 31-07-2006 07:01:03 18.8 C 76 % 14.48 C
2346 31-07-2006 07:11:03 19 C 74 % 14.26 C
2347 31-07-2006 07:21:02 19 C 73 % 14.05 C
2348 31-07-2006 07:31:02 19.1 C 74 % 14.36 C
2349 31-07-2006 07:41:02 19.1 C 73 % 14.15 C
2350 31-07-2006 07:51:02 19.2 C 73 % 14.25 C
Sensor: Nr:Datum:Temp:Feuchte:Taupunkt:
Aussen-T/F 2351 31-07-2006 08:01:03 19.3 C 73 % 14.34 C
2352 31-07-2006 08:11:03 19.9 C 71 % 14.49 C
2353 31-07-2006 08:21:03 20.3 C 69 % 14.43 C
2354 31-07-2006 08:31:03 20.1 C 68 % 14.01 C
2355 31-07-2006 08:41:03 20.3 C 66 % 13.74 C
2356 31-07-2006 08:51:02 20.6 C 65 % 13.79 C
2357 31-07-2006 09:01:03 21.3 C 62 % 13.73 C
2358 31-07-2006 09:11:03 21.8 C 56 % 12.64 C
2359 31-07-2006 09:21:01 22.2 C 48 % 10.67 C
2360 31-07-2006 09:31:02 22.9 C 46 % 10.67 C
2361 31-07-2006 09:41:02 22.5 C 44 % 9.65 C
2362 31-07-2006 09:51:03 22.3 C 47 % 10.45 C
2363 31-07-2006 10:01:03 22.6 C 48 % 11.04 C
2364 31-07-2006 10:11:03 22.7 C 49 % 11.44 C
2365 31-07-2006 10:21:03 22.6 C 50 % 11.66 C
2366 31-07-2006 10:31:02 22.9 C 50 % 11.93 C
2367 31-07-2006 10:41:02 23 C 50 % 12.02 C
2368 31-07-2006 10:51:02 24.3 C 46 % 11.94 C
2369 31-07-2006 11:01:02 24 C 48 % 12.32 C
2370 31-07-2006 11:11:02 24.5 C 47 % 12.45 C
2371 31-07-2006 11:21:02 24.3 C 48 % 12.59 C
2372 31-07-2006 11:31:02 24 C 48 % 12.32 C
2373 31-07-2006 11:41:02 24 C 46 % 11.67 C
2374 31-07-2006 11:51:02 23.7 C 47 % 11.73 C
2375 31-07-2006 12:01:02 24.1 C 44 % 11.09 C
Sensor: Nr:Datum:Temp:Feuchte:Taupunkt:
Aussen-T/F 2376 31-07-2006 12:11:02 25.1 C 41 % 10.93 C
2377 31-07-2006 12:21:02 25.6 C 40 % 11 C
2378 31-07-2006 12:31:02 26.5 C 37 % 10.63 C
2379 31-07-2006 12:41:02 27.2 C 36 % 10.84 C
2380 31-07-2006 12:51:02 26.4 C 37 % 10.54 C
2381 31-07-2006 13:01:02 26.6 C 36 % 10.31 C
2382 31-07-2006 13:11:02 27.4 C 34 % 10.16 C
2383 31-07-2006 13:21:02 27.7 C 33 % 9.97 C
2384 31-07-2006 13:31:02 27.2 C 32 % 9.08 C
2385 31-07-2006 13:41:02 26.7 C 32 % 8.65 C
2386 31-07-2006 13:51:02 26.8 C 30 % 7.78 C
2387 31-07-2006 14:01:02 26.7 C 30 % 7.7 C
2388 31-07-2006 14:11:02 26 C 31 % 7.57 C
2389 31-07-2006 14:21:02 26.5 C 30 % 7.53 C
2390 31-07-2006 14:31:01 26.5 C 30 % 7.53 C
2391 31-07-2006 14:41:01 26.1 C 30 % 7.18 C
2392 31-07-2006 14:51:02 25.8 C 31 % 7.4 C
2393 31-07-2006 15:01:02 26.8 C 31 % 8.27 C
2394 31-07-2006 15:11:02 27.4 C 30 % 8.3 C
2395 31-07-2006 15:21:02 27.4 C 29 % 7.8 C
2396 31-07-2006 15:31:02 26.6 C 30 % 7.61 C
2397 31-07-2006 15:41:02 26 C 31 % 7.57 C
2398 31-07-2006 15:51:03 25.7 C 32 % 7.78 C
2399 31-07-2006 16:01:03 25.7 C 32 % 7.78 C
2400 31-07-2006 16:11:03 26.1 C 30 % 7.18 C
Sensor: Nr:Datum:Temp:Feuchte:Taupunkt:
Aussen-T/F 2401 31-07-2006 16:21:02 27 C 28 % 6.95 C
2402 31-07-2006 16:31:02 27.3 C 27 % 6.67 C
2403 31-07-2006 16:41:02 28.7 C 27 % 7.86 C
2404 31-07-2006 16:51:02 28.6 C 25 % 6.66 C
2405 31-07-2006 17:01:02 29.1 C 25 % 7.08 C
2406 31-07-2006 17:11:02 29.2 C 25 % 7.16 C
2407 31-07-2006 17:21:02 28.4 C 25 % 6.49 C
2408 31-07-2006 17:31:02 27.3 C 27 % 6.67 C
2409 31-07-2006 17:41:02 29.3 C 24 % 6.65 C
2410 31-07-2006 17:51:01 30.2 C 22 % 6.14 C
2411 31-07-2006 18:01:02 30 C 22 % 5.97 C
2412 31-07-2006 18:11:02 30.4 C 22 % 6.31 C
2413 31-07-2006 18:21:02 30.7 C 20 % 5.18 C
2414 31-07-2006 18:31:02 30.4 C 22 % 6.31 C
2415 31-07-2006 18:41:02 30.4 C 21 % 5.63 C
2416 31-07-2006 18:51:03 30.9 C 20 % 5.34 C
2417 31-07-2006 19:01:03 30 C 21 % 5.3 C
2418 31-07-2006 19:11:03 28.6 C 25 % 6.66 C
2419 31-07-2006 19:21:01 27.7 C 27 % 7.01 C
2420 31-07-2006 19:31:01 27.1 C 30 % 8.04 C
2421 31-07-2006 19:41:01 26.5 C 31 % 8.01 C
2422 31-07-2006 19:51:01 26.4 C 31 % 7.92 C
2423 31-07-2006 20:01:02 25.8 C 32 % 7.87 C
2424 31-07-2006 20:11:02 25.7 C 33 % 8.23 C
2425 31-07-2006 20:21:02 25.7 C 33 % 8.23 C
Sensor: Nr:Datum:Temp:Feuchte:Taupunkt:
Aussen-T/F 2426 31-07-2006 20:31:02 26 C 32 % 8.04 C
2427 31-07-2006 20:41:02 25.4 C 34 % 8.41 C
2428 31-07-2006 20:51:02 24.7 C 36 % 8.64 C
2429 31-07-2006 21:01:01 24.1 C 36 % 8.11 C
2430 31-07-2006 21:11:01 23.5 C 37 % 7.98 C
2431 31-07-2006 21:21:01 23.3 C 38 % 8.19 C
2432 31-07-2006 21:31:02 23.5 C 38 % 8.37 C
2433 31-07-2006 21:41:02 23.4 C 38 % 8.28 C
2434 31-07-2006 21:51:02 23.3 C 39 % 8.58 C
2435 31-07-2006 22:01:01 22.9 C 41 % 8.96 C
2436 31-07-2006 22:11:01 22.8 C 41 % 8.87 C
2437 31-07-2006 22:21:01 22.8 C 41 % 8.87 C
2438 31-07-2006 22:31:02 22.5 C 41 % 8.6 C
2439 31-07-2006 22:41:02 22 C 42 % 8.51 C
2440 31-07-2006 22:51:02 21.6 C 44 % 8.83 C
2441 31-07-2006 23:01:02 21.4 C 46 % 9.31 C
2442 31-07-2006 23:11:02 21.1 C 47 % 9.36 C
2443 31-07-2006 23:21:02 20.9 C 47 % 9.17 C
2444 31-07-2006 23:31:01 20.6 C 49 % 9.52 C
2445 31-07-2006 23:41:01 20.4 C 50 % 9.64 C
2446 31-07-2006 23:51:02 20.3 C 50 % 9.54 C
2447 01-08-2006 00:01:02 19.9 C 53 % 10.04 C
2448 01-08-2006 00:11:02 19.7 C 55 % 10.41 C
2449 01-08-2006 00:21:02 19.5 C 56 % 10.5 C
2450 01-08-2006 00:31:02 19.4 C 56 % 10.4 C
Sensor: Nr:Datum:Temp:Feuchte:Taupunkt:
Aussen-T/F 2451 01-08-2006 00:41:02 19.3 C 56 % 10.31 C
2452 01-08-2006 00:51:02 19.2 C 57 % 10.48 C
2453 01-08-2006 01:01:02 19.1 C 57 % 10.39 C
2454 01-08-2006 01:11:02 19 C 59 % 10.81 C
2455 01-08-2006 01:21:02 18.7 C 61 % 11.03 C
2456 01-08-2006 01:31:02 18.6 C 61 % 10.94 C
2457 01-08-2006 01:41:02 18.6 C 61 % 10.94 C
2458 01-08-2006 01:51:03 18.5 C 61 % 10.84 C
2459 01-08-2006 02:01:03 18.3 C 63 % 11.14 C
2460 01-08-2006 02:11:03 18.3 C 64 % 11.38 C
2461 01-08-2006 02:21:02 18.3 C 63 % 11.14 C
2462 01-08-2006 02:31:02 18.1 C 63 % 10.95 C
2463 01-08-2006 02:41:02 18 C 64 % 11.09 C
2464 01-08-2006 02:52:03 18.1 C 65 % 11.42 C
2465 01-08-2006 03:02:03 18.1 C 65 % 11.42 C
2466 01-08-2006 03:12:03 18 C 65 % 11.33 C
2467 01-08-2006 03:22:03 18 C 65 % 11.33 C
2468 01-08-2006 03:32:02 18 C 65 % 11.33 C
2469 01-08-2006 03:42:02 18 C 65 % 11.33 C
2470 01-08-2006 03:52:02 18 C 65 % 11.33 C
2471 01-08-2006 04:02:02 18 C 65 % 11.33 C
2472 01-08-2006 04:12:02 18 C 67 % 11.79 C
2473 01-08-2006 04:22:02 18.1 C 67 % 11.88 C
2474 01-08-2006 04:32:02 17.7 C 68 % 11.72 C
2475 01-08-2006 04:42:02 17.7 C 69 % 11.95 C
Sensor: Nr:Datum:Temp:Feuchte:Taupunkt:
Aussen-T/F 2476 01-08-2006 04:52:02 17.7 C 69 % 11.95 C
2477 01-08-2006 05:02:01 17.8 C 68 % 11.82 C
2478 01-08-2006 05:12:01 17.8 C 68 % 11.82 C
2479 01-08-2006 05:22:02 17.5 C 75 % 13.02 C
2480 01-08-2006 05:32:02 17 C 77 % 12.94 C
2481 01-08-2006 05:42:02 16.9 C 80 % 13.43 C
2482 01-08-2006 05:52:03 16.8 C 80 % 13.33 C
2483 01-08-2006 06:02:02 16.9 C 79 % 13.24 C
2484 01-08-2006 06:12:02 17.1 C 78 % 13.24 C
2485 01-08-2006 06:22:02 17.1 C 77 % 13.04 C
2486 01-08-2006 06:32:02 17.1 C 77 % 13.04 C
2487 01-08-2006 06:42:02 17.2 C 75 % 12.73 C
2488 01-08-2006 06:52:03 17.3 C 74 % 12.62 C
2489 01-08-2006 07:02:03 17.4 C 73 % 12.51 C
2490 01-08-2006 07:12:03 17.5 C 73 % 12.61 C
2491 01-08-2006 07:22:03 17.6 C 73 % 12.71 C
2492 01-08-2006 07:32:02 17.7 C 72 % 12.59 C
2493 01-08-2006 07:42:02 18.1 C 71 % 12.76 C
2494 01-08-2006 07:52:03 18.3 C 71 % 12.95 C
2495 01-08-2006 08:02:02 18.4 C 70 % 12.83 C
2496 01-08-2006 08:12:02 18.9 C 69 % 13.09 C
2497 01-08-2006 08:22:02 19.2 C 65 % 12.47 C
2498 01-08-2006 08:32:02 19.4 C 64 % 12.42 C
2499 01-08-2006 08:42:02 19.7 C 64 % 12.7 C
2500 01-08-2006 08:52:02 20.3 C 61 % 12.54 C
Sensor: Nr:Datum:Temp:Feuchte:Taupunkt:
Aussen-T/F 2501 01-08-2006 09:02:02 20.4 C 58 % 11.86 C
2502 01-08-2006 09:12:02 21 C 57 % 12.16 C
2503 01-08-2006 09:22:02 21.2 C 53 % 11.25 C
2504 01-08-2006 09:32:02 21.4 C 53 % 11.43 C
2505 01-08-2006 09:42:02 21.9 C 48 % 10.4 C
2506 01-08-2006 09:52:02 21.8 C 47 % 9.99 C
2507 01-08-2006 10:02:02 21.9 C 48 % 10.4 C
2508 01-08-2006 10:12:02 21.9 C 48 % 10.4 C
2509 01-08-2006 10:22:02 21.9 C 48 % 10.4 C
2510 01-08-2006 10:32:02 22.3 C 46 % 10.13 C
2511 01-08-2006 10:42:02 22.4 C 44 % 9.56 C
2512 01-08-2006 10:52:02 22.4 C 45 % 9.89 C
2513 01-08-2006 11:02:02 22.1 C 44 % 9.29 C
2514 01-08-2006 11:12:03 22.4 C 45 % 9.89 C
2515 01-08-2006 11:22:02 22.9 C 44 % 10.01 C
2516 01-08-2006 11:32:02 23 C 44 % 10.1 C
2517 01-08-2006 11:42:02 22.7 C 44 % 9.83 C
2518 01-08-2006 11:52:03 22.8 C 45 % 10.25 C
2519 01-08-2006 12:02:03 22.2 C 45 % 9.71 C
2520 01-08-2006 12:12:03 22.6 C 46 % 10.4 C
2521 01-08-2006 12:22:02 22.4 C 47 % 10.54 C
2522 01-08-2006 12:32:02 22.4 C 47 % 10.54 C
2523 01-08-2006 12:42:02 21.6 C 51 % 11.04 C
2524 01-08-2006 12:52:02 21.9 C 50 % 11.01 C
2525 01-08-2006 13:02:02 22 C 51 % 11.4 C
Sensor: Nr:Datum:Temp:Feuchte:Taupunkt:
Aussen-T/F 2526 01-08-2006 13:12:02 22.3 C 51 % 11.68 C
2527 01-08-2006 13:22:02 22 C 51 % 11.4 C
2528 01-08-2006 13:32:02 21.6 C 54 % 11.9 C
2529 01-08-2006 13:42:02 22.2 C 52 % 11.88 C
2530 01-08-2006 13:52:02 22 C 52 % 11.7 C
2531 01-08-2006 14:02:02 22.1 C 52 % 11.79 C
2532 01-08-2006 14:12:02 22 C 53 % 11.99 C
2533 01-08-2006 14:22:02 22.8 C 51 % 12.14 C
2534 01-08-2006 14:32:02 21.9 C 54 % 12.18 C
2535 01-08-2006 14:42:02 22 C 54 % 12.27 C
2536 01-08-2006 14:52:04 22.1 C 54 % 12.36 C
2537 01-08-2006 15:02:03 21.5 C 58 % 12.89 C
2538 01-08-2006 15:12:03 22 C 56 % 12.82 C
2539 01-08-2006 15:22:02 22.9 C 52 % 12.53 C
2540 01-08-2006 15:32:02 21.5 C 62 % 13.92 C
2541 01-08-2006 15:42:03 20.3 C 72 % 15.09 C
2542 01-08-2006 15:52:02 21 C 75 % 16.4 C
2543 01-08-2006 16:02:02 21.5 C 68 % 15.35 C
2544 01-08-2006 16:12:02 21.7 C 64 % 14.6 C
2545 01-08-2006 16:22:02 23 C 57 % 14.03 C
2546 01-08-2006 16:32:02 23.4 C 53 % 13.28 C
2547 01-08-2006 16:42:02 23.1 C 53 % 13 C
2548 01-08-2006 16:52:01 22.8 C 52 % 12.43 C
2549 01-08-2006 17:02:02 23.3 C 50 % 12.3 C
2550 01-08-2006 17:12:02 24.7 C 44 % 11.63 C
Sensor: Nr:Datum:Temp:Feuchte:Taupunkt:
Aussen-T/F 2551 01-08-2006 17:22:02 24.6 C 43 % 11.2 C
2552 01-08-2006 17:32:02 24.9 C 37 % 9.22 C
2553 01-08-2006 17:42:02 25.1 C 35 % 8.57 C
2554 01-08-2006 17:52:02 25 C 32 % 7.17 C
2555 01-08-2006 18:02:02 24.5 C 31 % 6.28 C
2556 01-08-2006 18:12:02 24.7 C 32 % 6.91 C
2557 01-08-2006 18:22:02 24.3 C 32 % 6.56 C
2558 01-08-2006 18:32:02 24 C 33 % 6.75 C
2559 01-08-2006 18:42:02 23.6 C 35 % 7.25 C
2560 01-08-2006 18:52:03 22.1 C 42 % 8.6 C
2561 01-08-2006 19:02:02 21.6 C 46 % 9.49 C
2562 01-08-2006 19:12:02 21.4 C 46 % 9.31 C
2563 01-08-2006 19:22:02 21 C 50 % 10.19 C
2564 01-08-2006 19:32:03 18.2 C 68 % 12.2 C
2565 01-08-2006 19:42:03 17.5 C 75 % 13.02 C
2566 01-08-2006 19:52:02 17.6 C 79 % 13.92 C
2567 01-08-2006 20:02:03 18 C 77 % 13.91 C
2568 01-08-2006 20:12:03 18.5 C 76 % 14.19 C
2569 01-08-2006 20:22:03 18.9 C 74 % 14.17 C
2570 01-08-2006 20:32:03 19.6 C 72 % 14.42 C
2571 01-08-2006 20:42:03 19.7 C 70 % 14.08 C
2572 01-08-2006 20:52:02 19.2 C 63 % 11.99 C
2573 01-08-2006 21:02:02 19.1 C 63 % 11.9 C
2574 01-08-2006 21:12:02 19 C 59 % 10.81 C
2575 01-08-2006 21:22:02 19.1 C 60 % 11.16 C
Sensor: Nr:Datum:Temp:Feuchte:Taupunkt:
Aussen-T/F 2576 01-08-2006 21:32:02 18.9 C 62 % 11.47 C
2577 01-08-2006 21:42:02 18.7 C 60 % 10.78 C
2578 01-08-2006 21:52:01 18.5 C 62 % 11.09 C
2579 01-08-2006 22:02:02 18.2 C 65 % 11.52 C
2580 01-08-2006 22:12:02 18 C 67 % 11.79 C
2581 01-08-2006 22:22:02 17.9 C 68 % 11.91 C
2582 01-08-2006 22:32:02 17.7 C 69 % 11.95 C
2583 01-08-2006 22:42:02 17.6 C 69 % 11.85 C
2584 01-08-2006 22:52:03 17.5 C 70 % 11.97 C
2585 01-08-2006 23:02:02 17.4 C 70 % 11.88 C
2586 01-08-2006 23:12:02 17.3 C 70 % 11.78 C
2587 01-08-2006 23:22:02 17.3 C 69 % 11.56 C
2588 01-08-2006 23:32:02 17.3 C 67 % 11.12 C
2589 01-08-2006 23:42:02 17.3 C 67 % 11.12 C
2590 01-08-2006 23:52:02 17.2 C 67 % 11.02 C
2591 02-08-2006 00:02:02 17.3 C 66 % 10.89 C
2592 02-08-2006 00:12:02 17.1 C 68 % 11.15 C
2593 02-08-2006 00:22:02 16.9 C 70 % 11.4 C
2594 02-08-2006 00:32:02 16.9 C 70 % 11.4 C
2595 02-08-2006 00:42:02 16.7 C 72 % 11.63 C
2596 02-08-2006 00:52:02 16.8 C 71 % 11.52 C
2597 02-08-2006 01:02:02 16.8 C 70 % 11.3 C
2598 02-08-2006 01:12:02 16.9 C 70 % 11.4 C
2599 02-08-2006 01:22:02 17 C 67 % 10.83 C
2600 02-08-2006 01:32:03 16.8 C 70 % 11.3 C
Sensor: Nr:Datum:Temp:Feuchte:Taupunkt:
Aussen-T/F 2601 02-08-2006 01:42:03 16.8 C 70 % 11.3 C
2602 02-08-2006 01:52:03 16.8 C 70 % 11.3 C
2603 02-08-2006 02:02:03 16.9 C 69 % 11.18 C
2604 02-08-2006 02:12:03 16.7 C 69 % 10.99 C
2605 02-08-2006 02:22:03 16.6 C 69 % 10.89 C
2606 02-08-2006 02:32:03 16.5 C 69 % 10.8 C
2607 02-08-2006 02:42:03 16.5 C 69 % 10.8 C
2608 02-08-2006 02:53:04 16.5 C 68 % 10.58 C
2609 02-08-2006 03:03:04 16.5 C 69 % 10.8 C
2610 02-08-2006 03:13:04 16.3 C 72 % 11.25 C
2611 02-08-2006 03:23:04 16.1 C 72 % 11.06 C
2612 02-08-2006 03:33:01 16.1 C 69 % 10.42 C
2613 02-08-2006 03:43:01 15.9 C 69 % 10.23 C
2614 02-08-2006 03:53:01 15.7 C 69 % 10.03 C
2615 02-08-2006 04:03:02 15.5 C 68 % 9.63 C
2616 02-08-2006 04:13:02 15.7 C 68 % 9.82 C
2617 02-08-2006 04:23:02 15.8 C 67 % 9.69 C
2618 02-08-2006 04:33:02 15.7 C 67 % 9.6 C
2619 02-08-2006 04:43:02 15.7 C 66 % 9.37 C
2620 02-08-2006 04:53:02 15.5 C 68 % 9.63 C
2621 02-08-2006 05:03:02 15.5 C 68 % 9.63 C
2622 02-08-2006 05:13:02 15.6 C 68 % 9.72 C
2623 02-08-2006 05:23:02 15.3 C 69 % 9.65 C
2624 02-08-2006 05:33:02 15.2 C 70 % 9.77 C
2625 02-08-2006 05:43:02 15.2 C 71 % 9.98 C
Sensor: Nr:Datum:Temp:Feuchte:Taupunkt:
Aussen-T/F 2626 02-08-2006 05:53:03 15.2 C 71 % 9.98 C
2627 02-08-2006 06:03:02 15.4 C 70 % 9.96 C
2628 02-08-2006 06:13:03 15.4 C 70 % 9.96 C
2629 02-08-2006 06:23:02 15.4 C 70 % 9.96 C
2630 02-08-2006 06:33:02 15.7 C 69 % 10.03 C
2631 02-08-2006 06:43:02 15.7 C 69 % 10.03 C
2632 02-08-2006 06:53:02 15.8 C 68 % 9.91 C
2633 02-08-2006 07:03:01 16 C 67 % 9.88 C
2634 02-08-2006 07:13:01 16.1 C 66 % 9.75 C
2635 02-08-2006 07:23:01 15.9 C 68 % 10.01 C
2636 02-08-2006 07:33:02 16.2 C 66 % 9.85 C
2637 02-08-2006 07:43:02 16.3 C 66 % 9.94 C
2638 02-08-2006 07:53:02 16.4 C 66 % 10.04 C
2639 02-08-2006 08:03:02 16.5 C 66 % 10.13 C
2640 02-08-2006 08:13:02 16.6 C 65 % 10 C
2641 02-08-2006 08:23:02 16.7 C 65 % 10.09 C
2642 02-08-2006 08:33:02 16.8 C 64 % 9.96 C
2643 02-08-2006 08:43:03 16.9 C 64 % 10.05 C
2644 02-08-2006 08:53:02 16.9 C 64 % 10.05 C
2645 02-08-2006 09:03:01 16.9 C 64 % 10.05 C
2646 02-08-2006 09:13:01 17.1 C 63 % 10.01 C
2647 02-08-2006 09:23:01 17.1 C 63 % 10.01 C
2648 02-08-2006 09:33:01 17.4 C 61 % 9.81 C
2649 02-08-2006 09:43:01 17.4 C 61 % 9.81 C
2650 02-08-2006 09:53:02 17.4 C 61 % 9.81 C
Sensor: Nr:Datum:Temp:Feuchte:Taupunkt:
Aussen-T/F 2651 02-08-2006 10:03:02 17.8 C 60 % 9.94 C
2652 02-08-2006 10:13:02 18.5 C 57 % 9.83 C
2653 02-08-2006 10:23:02 18.7 C 55 % 9.48 C
2654 02-08-2006 10:33:02 19.5 C 53 % 9.67 C
2655 02-08-2006 10:43:02 19.3 C 52 % 9.21 C
2656 02-08-2006 10:53:02 19 C 53 % 9.21 C
2657 02-08-2006 11:03:02 19.6 C 52 % 9.48 C
2658 02-08-2006 11:13:02 19.6 C 51 % 9.2 C
2659 02-08-2006 11:23:03 20 C 49 % 8.97 C
2660 02-08-2006 11:33:02 20.1 C 48 % 8.76 C
2661 02-08-2006 11:43:02 20.4 C 48 % 9.03 C
2662 02-08-2006 11:53:02 19.8 C 50 % 9.09 C
2663 02-08-2006 12:03:02 18.9 C 56 % 9.94 C
2664 02-08-2006 12:13:02 18.9 C 55 % 9.67 C
2665 02-08-2006 12:23:03 19.1 C 54 % 9.58 C
2666 02-08-2006 12:33:03 19.6 C 52 % 9.48 C
2667 02-08-2006 12:43:04 20.2 C 49 % 9.15 C
2668 02-08-2006 12:53:02 22 C 43 % 8.85 C
2669 02-08-2006 13:03:01 22 C 40 % 7.79 C
2670 02-08-2006 13:13:01 21.3 C 41 % 7.53 C
2671 02-08-2006 13:23:02 20.8 C 43 % 7.77 C
2672 02-08-2006 13:33:02 19.9 C 46 % 7.95 C
2673 02-08-2006 13:43:02 20.4 C 45 % 8.08 C
2674 02-08-2006 13:53:02 20.5 C 46 % 8.49 C
2675 02-08-2006 14:03:02 19 C 54 % 9.49 C
Sensor: Nr:Datum:Temp:Feuchte:Taupunkt:
Aussen-T/F 2676 02-08-2006 14:13:02 16.9 C 72 % 11.82 C
2677 02-08-2006 14:23:02 16.7 C 77 % 12.65 C
2678 02-08-2006 14:33:02 17.2 C 77 % 13.14 C
2679 02-08-2006 14:43:02 18.9 C 66 % 12.41 C
2680 02-08-2006 14:53:03 19.7 C 62 % 12.22 C
2681 02-08-2006 15:03:03 20.4 C 55 % 11.06 C
2682 02-08-2006 15:13:03 21.4 C 51 % 10.85 C
2683 02-08-2006 15:23:02 21.5 C 48 % 10.04 C
2684 02-08-2006 15:33:02 21.6 C 47 % 9.81 C
2685 02-08-2006 15:43:02 20.9 C 48 % 9.49 C
2686 02-08-2006 15:53:02 17.4 C 76 % 13.13 C
2687 02-08-2006 16:03:02 17.4 C 82 % 14.3 C
2688 02-08-2006 16:13:02 17.9 C 84 % 15.16 C
2689 02-08-2006 16:23:02 18.7 C 80 % 15.18 C
2690 02-08-2006 16:33:02 18.8 C 82 % 15.66 C
2691 02-08-2006 16:43:02 18.2 C 83 % 15.27 C
2692 02-08-2006 16:53:02 15.4 C 82 % 12.35 C
2693 02-08-2006 17:03:01 16.2 C 86 % 13.86 C
2694 02-08-2006 17:13:01 17 C 86 % 14.64 C
2695 02-08-2006 17:23:02 17.2 C 86 % 14.84 C
2696 02-08-2006 17:33:02 16.2 C 85 % 13.68 C
2697 02-08-2006 17:43:02 15.3 C 85 % 12.79 C
2698 02-08-2006 17:53:02 14.5 C 85 % 12.01 C
2699 02-08-2006 18:03:02 14.7 C 86 % 12.38 C
2700 02-08-2006 18:13:02 15.2 C 85 % 12.7 C
Sensor: Nr:Datum:Temp:Feuchte:Taupunkt:
Aussen-T/F 2701 02-08-2006 18:23:02 15.5 C 84 % 12.81 C
2702 02-08-2006 18:33:02 15.6 C 84 % 12.91 C
2703 02-08-2006 18:43:02 15.6 C 83 % 12.72 C
2704 02-08-2006 18:53:02 15.6 C 83 % 12.72 C
2705 02-08-2006 19:03:02 15.5 C 83 % 12.63 C
2706 02-08-2006 19:13:02 15.5 C 83 % 12.63 C
2707 02-08-2006 19:23:02 14.4 C 85 % 11.91 C
2708 02-08-2006 19:33:02 13.8 C 86 % 11.5 C
2709 02-08-2006 19:43:02 13.1 C 86 % 10.81 C
2710 02-08-2006 19:53:01 13 C 88 % 11.06 C
2711 02-08-2006 20:03:02 12.9 C 89 % 11.13 C
2712 02-08-2006 20:13:02 12.8 C 89 % 11.03 C
2713 02-08-2006 20:23:02 13 C 89 % 11.23 C
2714 02-08-2006 20:33:02 13.1 C 89 % 11.33 C
2715 02-08-2006 20:43:02 13.3 C 89 % 11.53 C
2716 02-08-2006 20:53:02 13.3 C 88 % 11.36 C
2717 02-08-2006 21:03:02 13.3 C 89 % 11.53 C
2718 02-08-2006 21:13:02 13.3 C 90 % 11.7 C
2719 02-08-2006 21:23:02 13.4 C 90 % 11.79 C
2720 02-08-2006 21:33:03 13.4 C 89 % 11.63 C
2721 02-08-2006 21:43:03 13.3 C 89 % 11.53 C
2722 02-08-2006 21:53:02 13.3 C 89 % 11.53 C
2723 02-08-2006 22:03:02 13.2 C 89 % 11.43 C
2724 02-08-2006 22:13:02 13.2 C 89 % 11.43 C
2725 02-08-2006 22:23:02 13.3 C 89 % 11.53 C
Sensor: Nr:Datum:Temp:Feuchte:Taupunkt:
Aussen-T/F 2726 02-08-2006 22:33:03 13 C 89 % 11.23 C
2727 02-08-2006 22:43:03 12.9 C 90 % 11.3 C
2728 02-08-2006 22:53:02 12.8 C 91 % 11.37 C
2729 02-08-2006 23:03:02 12.6 C 91 % 11.17 C
2730 02-08-2006 23:13:02 12.5 C 91 % 11.07 C
2731 02-08-2006 23:23:02 12.5 C 91 % 11.07 C
2732 02-08-2006 23:33:03 12.5 C 91 % 11.07 C
2733 02-08-2006 23:43:03 12.4 C 91 % 10.97 C
2734 02-08-2006 23:53:02 12.3 C 91 % 10.87 C
2735 03-08-2006 00:03:03 12.2 C 91 % 10.78 C
2736 03-08-2006 00:13:03 12.2 C 92 % 10.94 C
2737 03-08-2006 00:23:03 12 C 92 % 10.74 C
2738 03-08-2006 00:33:03 11.8 C 93 % 10.71 C
2739 03-08-2006 00:43:03 11.7 C 93 % 10.61 C
2740 03-08-2006 00:53:02 11.6 C 93 % 10.51 C
2741 03-08-2006 01:03:02 11.5 C 93 % 10.41 C
2742 03-08-2006 01:13:02 11.4 C 93 % 10.31 C
2743 03-08-2006 01:23:02 11.4 C 94 % 10.47 C
2744 03-08-2006 01:33:02 11.3 C 94 % 10.37 C
2745 03-08-2006 01:43:02 11.2 C 94 % 10.27 C
2746 03-08-2006 01:53:03 11 C 94 % 10.07 C
2747 03-08-2006 02:03:03 10.9 C 94 % 9.97 C
2748 03-08-2006 02:13:03 10.8 C 94 % 9.87 C
2749 03-08-2006 02:23:03 10.8 C 94 % 9.87 C
2750 03-08-2006 02:33:03 10.7 C 94 % 9.77 C
Sensor: Nr:Datum:Temp:Feuchte:Taupunkt:
Aussen-T/F 2751 03-08-2006 02:43:03 10.6 C 94 % 9.68 C
2752 03-08-2006 02:54:03 10.7 C 94 % 9.77 C
2753 03-08-2006 03:04:03 10.5 C 94 % 9.58 C
2754 03-08-2006 03:14:04 10.5 C 94 % 9.58 C
2755 03-08-2006 03:24:04 10.4 C 94 % 9.48 C
2756 03-08-2006 03:34:02 10.4 C 94 % 9.48 C
2757 03-08-2006 03:44:02 10.4 C 94 % 9.48 C
2758 03-08-2006 03:54:02 10.4 C 94 % 9.48 C
2759 03-08-2006 04:04:03 10.5 C 94 % 9.58 C
2760 03-08-2006 04:14:03 10.6 C 94 % 9.68 C
2761 03-08-2006 04:24:02 10.6 C 95 % 9.83 C
2762 03-08-2006 04:34:03 10.5 C 95 % 9.73 C
2763 03-08-2006 04:44:03 10.5 C 95 % 9.73 C
2764 03-08-2006 04:54:02 10.6 C 95 % 9.83 C
2765 03-08-2006 05:04:02 10.6 C 95 % 9.83 C
2766 03-08-2006 05:14:02 10.6 C 95 % 9.83 C
2767 03-08-2006 05:24:02 10.6 C 95 % 9.83 C
2768 03-08-2006 05:34:02 10.6 C 95 % 9.83 C
2769 03-08-2006 05:44:02 10.8 C 95 % 10.03 C
2770 03-08-2006 05:54:01 11.1 C 95 % 10.33 C
2771 03-08-2006 06:04:02 11.3 C 95 % 10.53 C
2772 03-08-2006 06:14:02 11.3 C 95 % 10.53 C
2773 03-08-2006 06:24:02 11.3 C 95 % 10.53 C
2774 03-08-2006 06:34:01 11.1 C 95 % 10.33 C
2775 03-08-2006 06:44:01 11 C 95 % 10.23 C
Sensor: Nr:Datum:Temp:Feuchte:Taupunkt:
Aussen-T/F 2776 03-08-2006 06:54:02 11.4 C 95 % 10.63 C
2777 03-08-2006 07:04:02 11.8 C 95 % 11.03 C
2778 03-08-2006 07:14:02 12 C 95 % 11.22 C
2779 03-08-2006 07:24:02 12.2 C 95 % 11.42 C
2780 03-08-2006 07:34:02 12.2 C 95 % 11.42 C
2781 03-08-2006 07:44:02 12.2 C 94 % 11.26 C
2782 03-08-2006 07:54:03 12.4 C 94 % 11.46 C
2783 03-08-2006 08:04:03 13 C 93 % 11.9 C
2784 03-08-2006 08:14:03 13.1 C 93 % 11.99 C
2785 03-08-2006 08:24:03 13.2 C 91 % 11.76 C
2786 03-08-2006 08:34:02 13.4 C 89 % 11.63 C
2787 03-08-2006 08:44:02 13.7 C 88 % 11.75 C
2788 03-08-2006 08:54:02 13.5 C 86 % 11.21 C
2789 03-08-2006 09:04:02 13.9 C 87 % 11.77 C
2790 03-08-2006 09:14:02 14.2 C 84 % 11.54 C
2791 03-08-2006 09:24:02 14.2 C 84 % 11.54 C
2792 03-08-2006 09:34:02 14.9 C 83 % 12.04 C
2793 03-08-2006 09:44:02 15.3 C 77 % 11.3 C
2794 03-08-2006 09:54:02 15.6 C 73 % 10.78 C
2795 03-08-2006 10:04:02 15.8 C 74 % 11.18 C
2796 03-08-2006 10:14:02 16.3 C 73 % 11.46 C
2797 03-08-2006 10:24:01 16.7 C 69 % 10.99 C
2798 03-08-2006 10:34:02 16.9 C 67 % 10.74 C
2799 03-08-2006 10:44:02 16.7 C 66 % 10.32 C
2800 03-08-2006 10:54:02 16.8 C 67 % 10.64 C
Sensor: Nr:Datum:Temp:Feuchte:Taupunkt:
Aussen-T/F 2801 03-08-2006 11:04:02 17 C 65 % 10.38 C
2802 03-08-2006 11:14:02 16.9 C 65 % 10.28 C
2803 03-08-2006 11:24:02 17.4 C 62 % 10.05 C
2804 03-08-2006 11:34:02 17.9 C 57 % 9.27 C
2805 03-08-2006 11:44:02 18.4 C 56 % 9.47 C
2806 03-08-2006 11:54:03 19.5 C 51 % 9.1 C
2807 03-08-2006 12:04:03 19.6 C 51 % 9.2 C
2808 03-08-2006 12:14:03 19.4 C 51 % 9.01 C
2809 03-08-2006 12:24:02 18 C 64 % 11.09 C
2810 03-08-2006 12:34:02 17.7 C 63 % 10.57 C
2811 03-08-2006 12:44:02 18.1 C 56 % 9.19 C
2812 03-08-2006 12:54:02 17.5 C 62 % 10.15 C
2813 03-08-2006 13:04:02 18.9 C 54 % 9.4 C
2814 03-08-2006 13:14:02 21.3 C 43 % 8.22 C
2815 03-08-2006 13:24:01 20.6 C 44 % 7.93 C
2816 03-08-2006 13:34:02 20.9 C 42 % 7.52 C
2817 03-08-2006 13:44:02 20.4 C 45 % 8.08 C
2818 03-08-2006 13:54:02 19.8 C 46 % 7.86 C
2819 03-08-2006 14:04:02 17.6 C 66 % 11.18 C
2820 03-08-2006 14:14:02 17.1 C 77 % 13.04 C
2821 03-08-2006 14:24:01 17.2 C 81 % 13.91 C
2822 03-08-2006 14:34:02 18.2 C 82 % 15.08 C
2823 03-08-2006 14:44:02 19.5 C 73 % 14.53 C
2824 03-08-2006 14:54:02 19.6 C 62 % 12.13 C
2825 03-08-2006 15:04:02 16.8 C 68 % 10.87 C
Sensor: Nr:Datum:Temp:Feuchte:Taupunkt:
Aussen-T/F 2826 03-08-2006 15:14:02 16.2 C 74 % 11.56 C
2827 03-08-2006 15:24:01 16 C 76 % 11.77 C
2828 03-08-2006 15:34:02 16.5 C 81 % 13.23 C
2829 03-08-2006 15:44:02 18.1 C 70 % 12.55 C
2830 03-08-2006 15:54:02 19 C 63 % 11.8 C
2831 03-08-2006 16:04:01 19.7 C 59 % 11.47 C
2832 03-08-2006 16:14:01 20.2 C 56 % 11.15 C
2833 03-08-2006 16:24:02 20.1 C 57 % 11.32 C
2834 03-08-2006 16:34:02 20.8 C 53 % 10.88 C
2835 03-08-2006 16:44:02 21.8 C 48 % 10.31 C
2836 03-08-2006 16:54:02 21.1 C 50 % 10.28 C
2837 03-08-2006 17:04:01 20.5 C 53 % 10.6 C
2838 03-08-2006 17:14:01 20.5 C 54 % 10.88 C
2839 03-08-2006 17:24:01 20.2 C 53 % 10.32 C
2840 03-08-2006 17:34:01 20.1 C 54 % 10.51 C
2841 03-08-2006 17:44:01 21.4 C 48 % 9.94 C
2842 03-08-2006 17:54:02 22 C 45 % 9.53 C
2843 03-08-2006 18:04:03 21.1 C 46 % 9.04 C
2844 03-08-2006 18:14:03 20.5 C 49 % 9.43 C
2845 03-08-2006 18:24:02 20.2 C 49 % 9.15 C
2846 03-08-2006 18:34:02 20.1 C 49 % 9.06 C
2847 03-08-2006 18:44:02 20 C 50 % 9.27 C
2848 03-08-2006 18:54:03 20.3 C 49 % 9.24 C
2849 03-08-2006 19:04:03 20.4 C 50 % 9.64 C
2850 03-08-2006 19:14:03 21.2 C 48 % 9.76 C
Sensor: Nr:Datum:Temp:Feuchte:Taupunkt:
Aussen-T/F 2851 03-08-2006 19:24:02 21.5 C 45 % 9.08 C
2852 03-08-2006 19:34:02 21.1 C 45 % 8.71 C
2853 03-08-2006 19:44:02 20.3 C 46 % 8.31 C
2854 03-08-2006 19:54:02 19.7 C 48 % 8.39 C
2855 03-08-2006 20:04:02 19.4 C 55 % 10.13 C
2856 03-08-2006 20:14:02 19.3 C 54 % 9.77 C
2857 03-08-2006 20:24:01 18.9 C 57 % 10.2 C
2858 03-08-2006 20:34:02 18.2 C 59 % 10.06 C
2859 03-08-2006 20:44:02 17.8 C 60 % 9.94 C
2860 03-08-2006 20:54:02 17.4 C 61 % 9.81 C
2861 03-08-2006 21:04:01 16.9 C 64 % 10.05 C
2862 03-08-2006 21:14:01 16.6 C 65 % 10 C
2863 03-08-2006 21:24:01 16.4 C 67 % 10.26 C
2864 03-08-2006 21:34:02 16.3 C 67 % 10.17 C
2865 03-08-2006 21:44:02 16 C 66 % 9.66 C
2866 03-08-2006 21:54:02 15.7 C 69 % 10.03 C
2867 03-08-2006 22:04:02 15.5 C 69 % 9.84 C
2868 03-08-2006 22:14:02 15.3 C 72 % 10.29 C
2869 03-08-2006 22:24:02 15.4 C 72 % 10.38 C
2870 03-08-2006 22:34:03 15.3 C 73 % 10.49 C
2871 03-08-2006 22:44:03 15.5 C 75 % 11.09 C
2872 03-08-2006 22:54:02 15.5 C 76 % 11.29 C
2873 03-08-2006 23:04:02 15.5 C 76 % 11.29 C
2874 03-08-2006 23:14:02 15.4 C 77 % 11.39 C
2875 03-08-2006 23:24:02 15.4 C 77 % 11.39 C
Sensor: Nr:Datum:Temp:Feuchte:Taupunkt:
Aussen-T/F 2876 03-08-2006 23:34:03 15.5 C 78 % 11.68 C
2877 03-08-2006 23:44:03 15.2 C 78 % 11.39 C
2878 03-08-2006 23:54:02 15.1 C 79 % 11.49 C
2879 04-08-2006 00:04:02 15 C 80 % 11.58 C
2880 04-08-2006 00:14:02 14.9 C 81 % 11.67 C
2881 04-08-2006 00:24:02 14.8 C 82 % 11.76 C
2882 04-08-2006 00:34:03 14.9 C 82 % 11.86 C
2883 04-08-2006 00:44:03 14.7 C 82 % 11.66 C
2884 04-08-2006 00:54:02 14.5 C 83 % 11.65 C
2885 04-08-2006 01:04:02 14.4 C 84 % 11.73 C
2886 04-08-2006 01:14:02 14.3 C 84 % 11.64 C
2887 04-08-2006 01:24:02 14.1 C 85 % 11.62 C
2888 04-08-2006 01:34:02 14.1 C 86 % 11.8 C
2889 04-08-2006 01:44:02 14 C 87 % 11.87 C
2890 04-08-2006 01:54:02 14 C 87 % 11.87 C
2891 04-08-2006 02:04:02 13.9 C 88 % 11.95 C
2892 04-08-2006 02:14:02 13.9 C 88 % 11.95 C
2893 04-08-2006 02:24:01 13.7 C 89 % 11.92 C
2894 04-08-2006 02:34:01 13.7 C 89 % 11.92 C
2895 04-08-2006 02:44:01 13.5 C 89 % 11.72 C
2896 04-08-2006 02:55:04 13.6 C 89 % 11.82 C
2897 04-08-2006 03:05:04 13.6 C 90 % 11.99 C
2898 04-08-2006 03:15:03 13.8 C 91 % 12.36 C
2899 04-08-2006 03:25:03 13.8 C 91 % 12.36 C
2900 04-08-2006 03:35:02 14 C 90 % 12.39 C
Sensor: Nr:Datum:Temp:Feuchte:Taupunkt:
Aussen-T/F 2901 04-08-2006 03:45:03 14 C 89 % 12.22 C
2902 04-08-2006 03:55:03 14 C 89 % 12.22 C
2903 04-08-2006 04:05:02 14.1 C 88 % 12.14 C
2904 04-08-2006 04:15:02 14.1 C 88 % 12.14 C
2905 04-08-2006 04:25:02 14.2 C 87 % 12.07 C
2906 04-08-2006 04:35:02 14.1 C 87 % 11.97 C
2907 04-08-2006 04:45:02 14.1 C 86 % 11.8 C
2908 04-08-2006 04:55:02 14.1 C 87 % 11.97 C
2909 04-08-2006 05:05:01 14 C 87 % 11.87 C
2910 04-08-2006 05:15:02 14 C 87 % 11.87 C
2911 04-08-2006 05:25:02 13.9 C 87 % 11.77 C
2912 04-08-2006 05:35:02 13.8 C 88 % 11.85 C
2913 04-08-2006 05:45:03 13.7 C 88 % 11.75 C
2914 04-08-2006 05:55:03 13.7 C 89 % 11.92 C
2915 04-08-2006 06:05:02 13.7 C 89 % 11.92 C
2916 04-08-2006 06:15:02 13.6 C 89 % 11.82 C
2917 04-08-2006 06:25:02 13.6 C 89 % 11.82 C
2918 04-08-2006 06:35:02 13.7 C 89 % 11.92 C
2919 04-08-2006 06:45:02 13.9 C 89 % 12.12 C
2920 04-08-2006 06:55:02 14 C 88 % 12.05 C
2921 04-08-2006 07:05:01 14 C 87 % 11.87 C
2922 04-08-2006 07:15:02 14.1 C 87 % 11.97 C
2923 04-08-2006 07:25:02 14.1 C 86 % 11.8 C
2924 04-08-2006 07:35:01 14.2 C 86 % 11.89 C
2925 04-08-2006 07:45:01 14.2 C 86 % 11.89 C
Sensor: Nr:Datum:Temp:Feuchte:Taupunkt:
Aussen-T/F 2926 04-08-2006 07:55:01 14.3 C 86 % 11.99 C
2927 04-08-2006 08:05:02 14.5 C 85 % 12.01 C
2928 04-08-2006 08:15:02 14.7 C 84 % 12.03 C
2929 04-08-2006 08:25:02 15 C 83 % 12.14 C
2930 04-08-2006 08:35:02 15 C 82 % 11.95 C
2931 04-08-2006 08:45:03 15 C 81 % 11.77 C
2932 04-08-2006 08:55:03 15.2 C 81 % 11.96 C
2933 04-08-2006 09:05:02 15.4 C 80 % 11.97 C
2934 04-08-2006 09:15:02 15.8 C 78 % 11.97 C
2935 04-08-2006 09:25:02 16 C 75 % 11.57 C
2936 04-08-2006 09:35:02 16.4 C 72 % 11.34 C
2937 04-08-2006 09:45:01 17 C 69 % 11.28 C
2938 04-08-2006 09:55:02 17.3 C 67 % 11.12 C
2939 04-08-2006 10:05:01 17.8 C 65 % 11.14 C
2940 04-08-2006 10:15:01 17.9 C 65 % 11.23 C
2941 04-08-2006 10:25:01 17.9 C 64 % 11 C
2942 04-08-2006 10:35:02 17.9 C 64 % 11 C
2943 04-08-2006 10:45:03 18.1 C 63 % 10.95 C
2944 04-08-2006 10:55:03 18.4 C 62 % 10.99 C
2945 04-08-2006 11:05:03 18.1 C 63 % 10.95 C
2946 04-08-2006 11:15:02 19 C 61 % 11.31 C
2947 04-08-2006 11:25:02 19.9 C 58 % 11.4 C
2948 04-08-2006 11:35:02 20.6 C 57 % 11.79 C
2949 04-08-2006 11:45:02 21.2 C 53 % 11.25 C
2950 04-08-2006 11:55:02 21 C 52 % 10.78 C
Sensor: Nr:Datum:Temp:Feuchte:Taupunkt:
Aussen-T/F 2951 04-08-2006 12:05:02 20.8 C 54 % 11.16 C
2952 04-08-2006 12:15:01 20.5 C 55 % 11.16 C
2953 04-08-2006 12:25:01 21.1 C 51 % 10.58 C
2954 04-08-2006 12:35:01 22.4 C 47 % 10.54 C
2955 04-08-2006 12:45:02 22.7 C 46 % 10.49 C
2956 04-08-2006 12:55:02 23 C 43 % 9.76 C
2957 04-08-2006 13:05:02 22.2 C 47 % 10.36 C
2958 04-08-2006 13:15:01 23.3 C 46 % 11.04 C
2959 04-08-2006 13:25:01 23.8 C 43 % 10.48 C
2960 04-08-2006 13:35:01 23.9 C 42 % 10.21 C
2961 04-08-2006 13:45:02 25.3 C 35 % 8.75 C
2962 04-08-2006 13:55:02 26.6 C 32 % 8.56 C
2963 04-08-2006 14:05:01 26.9 C 30 % 7.87 C
2964 04-08-2006 14:15:01 26.6 C 31 % 8.09 C
2965 04-08-2006 14:25:01 26.1 C 30 % 7.18 C
2966 04-08-2006 14:35:02 26.9 C 30 % 7.87 C
2967 04-08-2006 14:45:02 27.8 C 26 % 6.55 C
2968 04-08-2006 14:55:02 27.2 C 26 % 6.04 C
2969 04-08-2006 15:05:02 27.6 C 26 % 6.38 C
2970 04-08-2006 15:15:02 27.6 C 26 % 6.38 C
2971 04-08-2006 15:25:02 27.7 C 28 % 7.55 C
2972 04-08-2006 15:35:02 27.5 C 28 % 7.37 C
2973 04-08-2006 15:45:02 27.5 C 27 % 6.84 C
2974 04-08-2006 15:55:02 28.2 C 25 % 6.32 C
2975 04-08-2006 16:05:03 29 C 25 % 6.99 C
Sensor: Nr:Datum:Temp:Feuchte:Taupunkt:
Aussen-T/F 2976 04-08-2006 16:15:02 29 C 23 % 5.78 C
2977 04-08-2006 16:25:02 28.9 C 21 % 4.4 C
2978 04-08-2006 16:35:02 27.4 C 26 % 6.21 C
2979 04-08-2006 16:45:01 27.5 C 27 % 6.84 C
2980 04-08-2006 16:55:01 26.1 C 30 % 7.18 C
2981 04-08-2006 17:05:02 25.4 C 33 % 7.97 C
2982 04-08-2006 17:15:02 25.3 C 33 % 7.88 C
2983 04-08-2006 17:25:02 25.3 C 32 % 7.43 C
2984 04-08-2006 17:35:02 25.3 C 31 % 6.97 C
2985 04-08-2006 17:45:02 25.5 C 30 % 6.66 C
2986 04-08-2006 17:55:03 24.8 C 30 % 6.06 C
2987 04-08-2006 18:05:02 24.6 C 32 % 6.82 C
2988 04-08-2006 18:15:02 24.5 C 33 % 7.18 C
2989 04-08-2006 18:25:02 24.5 C 33 % 7.18 C
2990 04-08-2006 18:35:02 24.2 C 34 % 7.36 C
2991 04-08-2006 18:45:02 24 C 36 % 8.02 C
2992 04-08-2006 18:55:02 23.5 C 39 % 8.76 C
2993 04-08-2006 19:05:02 22.6 C 41 % 8.69 C
2994 04-08-2006 19:15:04 22.7 C 43 % 9.49 C
2995 04-08-2006 19:25:04 22.4 C 45 % 9.89 C
2996 04-08-2006 19:35:04 22 C 46 % 9.86 C
2997 04-08-2006 19:45:02 22 C 48 % 10.49 C
2998 04-08-2006 19:55:02 21.8 C 50 % 10.92 C
2999 04-08-2006 20:05:02 21.3 C 51 % 10.76 C
3000 04-08-2006 20:15:02 21.2 C 52 % 10.96 C
Sensor: Nr:Datum:Temp:Feuchte:Taupunkt:
Aussen-T/F 3001 04-08-2006 20:25:02 21.1 C 52 % 10.87 C
3002 04-08-2006 20:35:02 20.9 C 54 % 11.25 C
3003 04-08-2006 20:45:02 20.6 C 55 % 11.25 C
3004 04-08-2006 20:55:02 20.6 C 55 % 11.25 C
3005 04-08-2006 21:05:03 20.3 C 60 % 12.29 C
3006 04-08-2006 21:15:02 19.9 C 63 % 12.65 C
3007 04-08-2006 21:25:02 19.8 C 63 % 12.56 C
3008 04-08-2006 21:35:02 19.7 C 62 % 12.22 C
3009 04-08-2006 21:45:03 19.3 C 66 % 12.79 C
3010 04-08-2006 21:55:03 19.2 C 66 % 12.7 C
3011 04-08-2006 22:05:03 18.9 C 67 % 12.64 C
3012 04-08-2006 22:15:02 18.3 C 75 % 13.79 C
3013 04-08-2006 22:25:02 17.5 C 83 % 14.58 C
3014 04-08-2006 22:35:02 17.1 C 85 % 14.56 C
3015 04-08-2006 22:45:02 17.1 C 85 % 14.56 C
3016 04-08-2006 22:55:02 17.3 C 84 % 14.57 C
3017 04-08-2006 23:05:02 17.2 C 84 % 14.47 C
3018 04-08-2006 23:15:02 16.8 C 83 % 13.9 C
3019 04-08-2006 23:25:02 16.4 C 83 % 13.51 C
3020 04-08-2006 23:35:01 16.2 C 82 % 13.13 C
3021 04-08-2006 23:45:02 16.4 C 84 % 13.69 C
3022 04-08-2006 23:55:02 16.3 C 85 % 13.77 C
3023 05-08-2006 00:05:02 16.2 C 84 % 13.5 C
3024 05-08-2006 00:15:03 16.1 C 85 % 13.58 C
3025 05-08-2006 00:25:03 16 C 85 % 13.48 C
Sensor: Nr:Datum:Temp:Feuchte:Taupunkt:
Aussen-T/F 3026 05-08-2006 00:35:03 16 C 86 % 13.66 C
3027 05-08-2006 00:45:03 16.1 C 86 % 13.76 C
3028 05-08-2006 00:55:03 16.1 C 86 % 13.76 C
3029 05-08-2006 01:05:03 16 C 86 % 13.66 C
3030 05-08-2006 01:15:03 16 C 86 % 13.66 C
3031 05-08-2006 01:25:04 16 C 85 % 13.48 C
3032 05-08-2006 01:35:03 16 C 84 % 13.3 C
3033 05-08-2006 01:45:03 16 C 84 % 13.3 C
3034 05-08-2006 01:55:03 16 C 84 % 13.3 C
3035 05-08-2006 02:05:02 16.1 C 84 % 13.4 C
3036 05-08-2006 02:15:03 16.2 C 84 % 13.5 C
3037 05-08-2006 02:25:03 16.2 C 84 % 13.5 C
3038 05-08-2006 02:35:03 16 C 84 % 13.3 C
3039 05-08-2006 02:46:03 16 C 84 % 13.3 C
3040 05-08-2006 02:56:04 16 C 84 % 13.3 C
3041 05-08-2006 03:06:04 15.9 C 84 % 13.2 C
3042 05-08-2006 03:16:03 15.8 C 84 % 13.1 C
3043 05-08-2006 03:26:03 15.6 C 84 % 12.91 C
3044 05-08-2006 03:36:02 15.4 C 84 % 12.71 C
3045 05-08-2006 03:46:02 15.4 C 84 % 12.71 C
3046 05-08-2006 03:56:02 15.5 C 84 % 12.81 C
3047 05-08-2006 04:06:03 15.2 C 84 % 12.52 C
3048 05-08-2006 04:16:02 15 C 84 % 12.32 C
3049 05-08-2006 04:26:02 14.9 C 85 % 12.4 C
3050 05-08-2006 04:36:02 14.9 C 86 % 12.58 C
Sensor: Nr:Datum:Temp:Feuchte:Taupunkt:
Aussen-T/F 3051 05-08-2006 04:46:01 15 C 85 % 12.5 C
3052 05-08-2006 04:56:01 15.1 C 85 % 12.6 C
3053 05-08-2006 05:06:02 15.2 C 85 % 12.7 C
3054 05-08-2006 05:16:02 15.2 C 85 % 12.7 C
3055 05-08-2006 05:26:02 15.2 C 85 % 12.7 C
3056 05-08-2006 05:36:02 15.1 C 85 % 12.6 C
3057 05-08-2006 05:46:02 15.2 C 85 % 12.7 C
3058 05-08-2006 05:56:02 15.2 C 85 % 12.7 C
3059 05-08-2006 06:06:02 15.4 C 85 % 12.89 C
3060 05-08-2006 06:16:02 15.4 C 85 % 12.89 C
3061 05-08-2006 06:26:02 15.5 C 85 % 12.99 C
3062 05-08-2006 06:36:02 15.6 C 85 % 13.09 C
3063 05-08-2006 06:46:02 15.6 C 85 % 13.09 C
3064 05-08-2006 06:56:02 15.7 C 84 % 13.01 C
3065 05-08-2006 07:06:02 15.8 C 84 % 13.1 C
3066 05-08-2006 07:16:01 15.8 C 84 % 13.1 C
3067 05-08-2006 07:26:02 15.8 C 85 % 13.28 C
3068 05-08-2006 07:36:01 15.6 C 85 % 13.09 C
3069 05-08-2006 07:46:02 15.7 C 85 % 13.19 C
3070 05-08-2006 07:56:02 15.7 C 86 % 13.37 C
3071 05-08-2006 08:06:02 16.2 C 85 % 13.68 C
3072 05-08-2006 08:16:02 16.6 C 85 % 14.07 C
3073 05-08-2006 08:26:02 16.9 C 84 % 14.18 C
3074 05-08-2006 08:36:01 17.3 C 81 % 14.01 C
3075 05-08-2006 08:46:02 17.6 C 80 % 14.11 C
Sensor: Nr:Datum:Temp:Feuchte:Taupunkt:
Aussen-T/F 3076 05-08-2006 08:56:02 17.9 C 77 % 13.81 C
3077 05-08-2006 09:06:02 17.8 C 76 % 13.52 C
3078 05-08-2006 09:16:02 17.7 C 76 % 13.42 C
3079 05-08-2006 09:26:02 18.1 C 76 % 13.81 C
3080 05-08-2006 09:36:02 18.7 C 72 % 13.55 C
3081 05-08-2006 09:46:02 18.7 C 71 % 13.34 C
3082 05-08-2006 09:56:02 18.8 C 69 % 13 C
3083 05-08-2006 10:06:02 19.6 C 68 % 13.54 C
3084 05-08-2006 10:16:02 20 C 62 % 12.5 C
3085 05-08-2006 10:26:02 19.4 C 65 % 12.66 C
3086 05-08-2006 10:36:02 19.9 C 65 % 13.13 C
3087 05-08-2006 10:46:02 19.8 C 65 % 13.03 C
3088 05-08-2006 10:56:02 19.7 C 64 % 12.7 C
3089 05-08-2006 11:06:02 19.9 C 62 % 12.41 C
3090 05-08-2006 11:16:02 20.2 C 61 % 12.44 C
3091 05-08-2006 11:26:02 21.1 C 57 % 12.25 C
3092 05-08-2006 11:36:02 20.9 C 59 % 12.59 C
3093 05-08-2006 11:46:02 21 C 58 % 12.43 C
3094 05-08-2006 11:56:02 20.6 C 59 % 12.31 C
3095 05-08-2006 12:06:03 20.8 C 61 % 13.01 C
3096 05-08-2006 12:16:02 21.2 C 59 % 12.87 C
3097 05-08-2006 12:26:02 21.3 C 58 % 12.71 C
3098 05-08-2006 12:36:02 22 C 54 % 12.27 C
3099 05-08-2006 12:46:02 22.6 C 52 % 12.25 C
3100 05-08-2006 12:56:02 23.2 C 49 % 11.9 C
Sensor: Nr:Datum:Temp:Feuchte:Taupunkt:
Aussen-T/F 3101 05-08-2006 13:06:03 22.9 C 48 % 11.31 C
3102 05-08-2006 13:16:02 22.6 C 50 % 11.66 C
3103 05-08-2006 13:26:02 23.8 C 46 % 11.49 C
3104 05-08-2006 13:36:02 23.5 C 45 % 10.89 C
3105 05-08-2006 13:46:03 23.9 C 43 % 10.57 C
3106 05-08-2006 13:56:03 24.2 C 43 % 10.84 C
3107 05-08-2006 14:06:03 24.1 C 42 % 10.39 C
3108 05-08-2006 14:16:03 24.8 C 41 % 10.66 C
3109 05-08-2006 14:26:04 24.3 C 40 % 9.84 C
3110 05-08-2006 14:36:02 25.1 C 37 % 9.39 C
3111 05-08-2006 14:46:01 24.8 C 39 % 9.91 C
3112 05-08-2006 14:56:01 25.9 C 35 % 9.27 C
3113 05-08-2006 15:06:02 26.2 C 35 % 9.54 C
3114 05-08-2006 15:16:02 25.3 C 34 % 8.32 C
3115 05-08-2006 15:26:02 25.4 C 35 % 8.84 C
3116 05-08-2006 15:36:02 26 C 34 % 8.93 C
3117 05-08-2006 15:46:02 26.2 C 32 % 8.21 C
3118 05-08-2006 15:56:02 27.5 C 30 % 8.39 C
3119 05-08-2006 16:06:02 27.9 C 29 % 8.23 C
3120 05-08-2006 16:16:02 27.6 C 28 % 7.46 C
3121 05-08-2006 16:26:02 27.2 C 29 % 7.63 C
3122 05-08-2006 16:36:03 26.7 C 27 % 6.16 C
3123 05-08-2006 16:46:02 27.4 C 26 % 6.21 C
3124 05-08-2006 16:56:02 27.3 C 25 % 5.56 C
3125 05-08-2006 17:06:02 27.8 C 25 % 5.98 C
Sensor: Nr:Datum:Temp:Feuchte:Taupunkt:
Aussen-T/F 3126 05-08-2006 17:16:02 27.9 C 26 % 6.64 C
3127 05-08-2006 17:26:02 28.5 C 24 % 5.98 C
3128 05-08-2006 17:36:04 28.2 C 24 % 5.73 C
3129 05-08-2006 17:46:02 28.5 C 25 % 6.57 C
3130 05-08-2006 17:56:02 27.9 C 24 % 5.48 C
3131 05-08-2006 18:06:02 27.2 C 25 % 5.48 C
3132 05-08-2006 18:16:03 27.1 C 25 % 5.39 C
3133 05-08-2006 18:26:03 26.9 C 25 % 5.22 C
3134 05-08-2006 18:36:03 25.9 C 26 % 4.94 C
3135 05-08-2006 18:46:03 26 C 27 % 5.57 C
3136 05-08-2006 18:56:03 25.9 C 31 % 7.49 C
3137 05-08-2006 19:06:02 25.9 C 33 % 8.4 C
3138 05-08-2006 19:16:02 25.6 C 33 % 8.14 C
3139 05-08-2006 19:26:02 25.7 C 32 % 7.78 C
3140 05-08-2006 19:36:02 25.8 C 30 % 6.92 C
3141 05-08-2006 19:46:02 26.4 C 29 % 6.94 C
3142 05-08-2006 19:56:02 26.1 C 30 % 7.18 C
3143 05-08-2006 20:06:01 25.4 C 33 % 7.97 C
3144 05-08-2006 20:16:01 25 C 34 % 8.06 C
3145 05-08-2006 20:26:01 24.8 C 35 % 8.31 C
3146 05-08-2006 20:36:02 24.5 C 36 % 8.46 C
3147 05-08-2006 20:46:03 24.3 C 37 % 8.69 C
3148 05-08-2006 20:56:03 23.6 C 41 % 9.59 C
3149 05-08-2006 21:06:02 23.3 C 44 % 10.37 C
3150 05-08-2006 21:16:02 23.2 C 44 % 10.28 C
Sensor: Nr:Datum:Temp:Feuchte:Taupunkt:
Aussen-T/F 3151 05-08-2006 21:26:03 22.9 C 48 % 11.31 C
3152 05-08-2006 21:36:01 22.9 C 49 % 11.63 C
3153 05-08-2006 21:46:02 21.7 C 51 % 11.13 C
3154 05-08-2006 21:56:02 21.6 C 52 % 11.33 C
3155 05-08-2006 22:06:02 21.3 C 52 % 11.05 C
3156 05-08-2006 22:16:02 21.2 C 53 % 11.25 C
3157 05-08-2006 22:26:03 21.2 C 52 % 10.96 C
3158 05-08-2006 22:36:02 21.2 C 52 % 10.96 C
3159 05-08-2006 22:46:02 21 C 54 % 11.34 C
3160 05-08-2006 22:56:03 20.9 C 56 % 11.8 C
3161 05-08-2006 23:06:02 21 C 57 % 12.16 C
3162 05-08-2006 23:16:02 20.9 C 58 % 12.33 C
3163 05-08-2006 23:26:02 20.8 C 59 % 12.5 C
3164 05-08-2006 23:36:03 20.7 C 60 % 12.66 C
3165 05-08-2006 23:46:02 20.7 C 61 % 12.91 C
3166 05-08-2006 23:56:02 20.8 C 61 % 13.01 C
3167 06-08-2006 00:06:02 20.6 C 64 % 13.55 C
3168 06-08-2006 00:16:03 19.8 C 72 % 14.61 C
3169 06-08-2006 00:26:03 19.5 C 73 % 14.53 C
3170 06-08-2006 00:36:02 19.3 C 73 % 14.34 C
3171 06-08-2006 00:46:02 19.5 C 72 % 14.32 C
3172 06-08-2006 00:56:02 19.6 C 72 % 14.42 C
3173 06-08-2006 01:06:02 19.6 C 71 % 14.2 C
3174 06-08-2006 01:16:02 19.6 C 71 % 14.2 C
3175 06-08-2006 01:26:02 19.7 C 71 % 14.3 C
Sensor: Nr:Datum:Temp:Feuchte:Taupunkt:
Aussen-T/F 3176 06-08-2006 01:36:02 19.7 C 71 % 14.3 C
3177 06-08-2006 01:46:02 19.7 C 71 % 14.3 C
3178 06-08-2006 01:56:02 19.7 C 72 % 14.51 C
3179 06-08-2006 02:06:02 19.8 C 71 % 14.39 C
3180 06-08-2006 02:16:02 19.7 C 72 % 14.51 C
3181 06-08-2006 02:26:02 19.7 C 71 % 14.3 C
3182 06-08-2006 02:36:02 19.8 C 71 % 14.39 C
3183 06-08-2006 02:47:04 19.8 C 71 % 14.39 C
3184 06-08-2006 02:57:04 19.7 C 72 % 14.51 C
3185 06-08-2006 03:07:04 19.6 C 72 % 14.42 C
3186 06-08-2006 03:17:04 19.6 C 73 % 14.63 C
3187 06-08-2006 03:27:04 19.4 C 73 % 14.44 C
3188 06-08-2006 03:37:03 19.3 C 74 % 14.55 C
3189 06-08-2006 03:47:03 19 C 74 % 14.26 C
3190 06-08-2006 03:57:03 18.8 C 77 % 14.68 C
3191 06-08-2006 04:07:02 18.7 C 77 % 14.59 C
3192 06-08-2006 04:17:02 18.7 C 77 % 14.59 C
3193 06-08-2006 04:27:02 18.8 C 77 % 14.68 C
3194 06-08-2006 04:37:02 19 C 76 % 14.68 C
3195 06-08-2006 04:47:02 19.1 C 75 % 14.57 C
3196 06-08-2006 04:57:02 18.9 C 77 % 14.78 C
3197 06-08-2006 05:07:02 18.9 C 77 % 14.78 C
3198 06-08-2006 05:17:02 18.8 C 78 % 14.88 C
3199 06-08-2006 05:27:02 18.8 C 78 % 14.88 C
3200 06-08-2006 05:37:02 18.9 C 78 % 14.98 C
Sensor: Nr:Datum:Temp:Feuchte:Taupunkt:
Aussen-T/F 3201 06-08-2006 05:47:02 18.8 C 78 % 14.88 C
3202 06-08-2006 05:57:02 18.9 C 78 % 14.98 C
3203 06-08-2006 06:07:01 18.8 C 78 % 14.88 C
3204 06-08-2006 06:17:01 18.7 C 78 % 14.79 C
3205 06-08-2006 06:27:01 18.6 C 79 % 14.89 C
3206 06-08-2006 06:37:01 18.5 C 79 % 14.79 C
3207 06-08-2006 06:47:02 18.6 C 79 % 14.89 C
3208 06-08-2006 06:57:02 18.7 C 78 % 14.79 C
3209 06-08-2006 07:07:01 18.8 C 78 % 14.88 C
3210 06-08-2006 07:17:01 18.7 C 78 % 14.79 C
3211 06-08-2006 07:27:01 18.7 C 77 % 14.59 C
3212 06-08-2006 07:37:01 19 C 76 % 14.68 C
3213 06-08-2006 07:47:02 19.3 C 74 % 14.55 C
3214 06-08-2006 07:57:02 19.5 C 73 % 14.53 C
3215 06-08-2006 08:07:01 19.5 C 73 % 14.53 C
3216 06-08-2006 08:17:01 19.7 C 72 % 14.51 C
3217 06-08-2006 08:27:01 19.5 C 72 % 14.32 C
3218 06-08-2006 08:37:01 19.4 C 72 % 14.22 C
3219 06-08-2006 08:47:02 19.2 C 73 % 14.25 C
3220 06-08-2006 08:57:02 19.2 C 73 % 14.25 C
3221 06-08-2006 09:07:02 19.3 C 72 % 14.13 C
3222 06-08-2006 09:17:02 19.5 C 71 % 14.1 C
3223 06-08-2006 09:27:02 19.5 C 71 % 14.1 C
3224 06-08-2006 09:37:02 19.4 C 71 % 14.01 C
3225 06-08-2006 09:47:02 19.5 C 71 % 14.1 C
Sensor: Nr:Datum:Temp:Feuchte:Taupunkt:
Aussen-T/F 3226 06-08-2006 09:57:02 19.6 C 70 % 13.98 C
3227 06-08-2006 10:07:02 19.9 C 69 % 14.05 C
3228 06-08-2006 10:17:02 20.4 C 66 % 13.84 C
3229 06-08-2006 10:27:02 20.5 C 64 % 13.46 C
3230 06-08-2006 10:37:01 20.7 C 63 % 13.41 C
3231 06-08-2006 10:47:02 20.7 C 62 % 13.16 C
3232 06-08-2006 10:57:02 21.3 C 58 % 12.71 C
3233 06-08-2006 11:07:02 21.5 C 57 % 12.63 C
3234 06-08-2006 11:17:02 21.2 C 54 % 11.53 C
3235 06-08-2006 11:27:02 21.6 C 53 % 11.62 C
3236 06-08-2006 11:37:03 21.2 C 54 % 11.53 C
3237 06-08-2006 11:47:02 21.7 C 54 % 11.99 C
3238 06-08-2006 11:57:02 22.2 C 51 % 11.59 C
3239 06-08-2006 12:07:02 22.5 C 51 % 11.86 C
3240 06-08-2006 12:17:02 22.7 C 51 % 12.05 C
3241 06-08-2006 12:27:02 22.8 C 49 % 11.53 C
3242 06-08-2006 12:37:02 23.9 C 45 % 11.25 C
3243 06-08-2006 12:47:02 23.6 C 46 % 11.31 C
3244 06-08-2006 12:57:02 23.5 C 45 % 10.89 C
3245 06-08-2006 13:07:02 23.5 C 45 % 10.89 C
3246 06-08-2006 13:17:02 23.7 C 45 % 11.07 C
3247 06-08-2006 13:27:02 24.2 C 43 % 10.84 C
3248 06-08-2006 13:37:02 23.6 C 45 % 10.98 C
3249 06-08-2006 13:47:02 23.7 C 46 % 11.4 C
3250 06-08-2006 13:57:02 23.5 C 44 % 10.55 C
Sensor: Nr:Datum:Temp:Feuchte:Taupunkt:
Aussen-T/F 3251 06-08-2006 14:07:02 23.1 C 44 % 10.19 C
3252 06-08-2006 14:17:02 22.8 C 45 % 10.25 C
3253 06-08-2006 14:27:02 23.1 C 45 % 10.53 C
3254 06-08-2006 14:37:02 23.1 C 45 % 10.53 C
3255 06-08-2006 14:47:02 23.1 C 46 % 10.86 C
3256 06-08-2006 14:57:02 23.3 C 45 % 10.71 C
3257 06-08-2006 15:07:02 23.4 C 45 % 10.8 C
3258 06-08-2006 15:17:02 24 C 43 % 10.66 C
3259 06-08-2006 15:27:02 24.7 C 42 % 10.93 C
3260 06-08-2006 15:37:03 25.4 C 39 % 10.45 C
3261 06-08-2006 15:47:02 24.8 C 40 % 10.29 C
3262 06-08-2006 15:57:02 25.2 C 40 % 10.65 C
3263 06-08-2006 16:07:02 25.7 C 35 % 9.1 C
3264 06-08-2006 16:17:03 24.9 C 39 % 10 C
3265 06-08-2006 16:27:03 24.3 C 38 % 9.08 C
3266 06-08-2006 16:37:03 24.2 C 40 % 9.75 C
3267 06-08-2006 16:47:03 24.5 C 39 % 9.65 C
3268 06-08-2006 16:57:03 24.6 C 38 % 9.35 C
3269 06-08-2006 17:07:02 23.9 C 40 % 9.49 C
3270 06-08-2006 17:17:02 24 C 39 % 9.2 C
3271 06-08-2006 17:27:03 24.1 C 40 % 9.67 C
3272 06-08-2006 17:37:02 23.6 C 40 % 9.22 C
3273 06-08-2006 17:47:02 23.8 C 41 % 9.76 C
3274 06-08-2006 17:57:02 23.8 C 40 % 9.4 C
3275 06-08-2006 18:07:01 23.7 C 40 % 9.31 C
Sensor: Nr:Datum:Temp:Feuchte:Taupunkt:
Aussen-T/F 3276 06-08-2006 18:17:02 23.8 C 41 % 9.76 C
3277 06-08-2006 18:27:02 23.7 C 40 % 9.31 C
3278 06-08-2006 18:37:02 24.6 C 39 % 9.73 C
3279 06-08-2006 18:47:02 25.2 C 36 % 9.08 C
3280 06-08-2006 18:57:02 25.9 C 35 % 9.27 C
3281 06-08-2006 19:07:02 25.3 C 35 % 8.75 C
3282 06-08-2006 19:17:02 25.4 C 35 % 8.84 C
3283 06-08-2006 19:27:02 25.9 C 34 % 8.85 C
3284 06-08-2006 19:37:02 24.8 C 36 % 8.72 C
3285 06-08-2006 19:47:02 24.5 C 37 % 8.86 C
3286 06-08-2006 19:57:02 24.1 C 37 % 8.51 C
3287 06-08-2006 20:07:02 23.7 C 38 % 8.55 C
3288 06-08-2006 20:17:01 23.9 C 38 % 8.73 C
3289 06-08-2006 20:27:01 23.9 C 38 % 8.73 C
3290 06-08-2006 20:37:01 23.6 C 39 % 8.84 C
3291 06-08-2006 20:47:02 23.2 C 40 % 8.86 C
3292 06-08-2006 20:57:02 22.9 C 42 % 9.32 C
3293 06-08-2006 21:07:02 22.7 C 43 % 9.49 C
3294 06-08-2006 21:17:02 22.2 C 45 % 9.71 C
3295 06-08-2006 21:27:03 22 C 45 % 9.53 C
3296 06-08-2006 21:37:02 21.7 C 48 % 10.22 C
3297 06-08-2006 21:47:02 21.6 C 50 % 10.74 C
3298 06-08-2006 21:57:02 21.5 C 51 % 10.94 C
3299 06-08-2006 22:07:02 21.2 C 53 % 11.25 C
3300 06-08-2006 22:17:03 21.2 C 53 % 11.25 C
Sensor: Nr:Datum:Temp:Feuchte:Taupunkt:
Aussen-T/F 3301 06-08-2006 22:27:03 20.9 C 55 % 11.53 C
3302 06-08-2006 22:37:03 20.7 C 56 % 11.61 C
3303 06-08-2006 22:47:02 20.6 C 57 % 11.79 C
3304 06-08-2006 22:57:02 20.4 C 58 % 11.86 C
3305 06-08-2006 23:07:02 20.3 C 58 % 11.77 C
3306 06-08-2006 23:17:03 20.2 C 59 % 11.94 C
3307 06-08-2006 23:27:03 20 C 60 % 12 C
3308 06-08-2006 23:37:02 20 C 60 % 12 C
3309 06-08-2006 23:47:02 19.9 C 61 % 12.16 C
3310 06-08-2006 23:57:02 19.9 C 61 % 12.16 C
3311 07-08-2006 00:07:02 19.9 C 62 % 12.41 C
3312 07-08-2006 00:17:03 19.9 C 61 % 12.16 C
3313 07-08-2006 00:27:03 19.8 C 61 % 12.07 C
3314 07-08-2006 00:37:02 19.7 C 60 % 11.72 C
3315 07-08-2006 00:47:02 19.6 C 61 % 11.88 C
3316 07-08-2006 00:57:03 19.5 C 61 % 11.78 C
3317 07-08-2006 01:07:02 19.3 C 62 % 11.84 C
3318 07-08-2006 01:17:02 19.1 C 62 % 11.65 C
3319 07-08-2006 01:27:02 18.8 C 64 % 11.85 C
3320 07-08-2006 01:37:02 18.7 C 64 % 11.76 C
3321 07-08-2006 01:47:02 18.6 C 65 % 11.9 C
3322 07-08-2006 01:57:02 18.4 C 65 % 11.71 C
3323 07-08-2006 02:07:02 18.3 C 66 % 11.84 C
3324 07-08-2006 02:17:02 18.3 C 66 % 11.84 C
3325 07-08-2006 02:27:02 18.2 C 66 % 11.75 C
Sensor: Nr:Datum:Temp:Feuchte:Taupunkt:
Aussen-T/F 3326 07-08-2006 02:37:02 18.1 C 67 % 11.88 C
3327 07-08-2006 02:48:03 17.8 C 69 % 12.04 C
3328 07-08-2006 02:58:03 17.8 C 69 % 12.04 C
3329 07-08-2006 03:08:03 17.6 C 69 % 11.85 C
3330 07-08-2006 03:18:03 17.5 C 70 % 11.97 C
3331 07-08-2006 03:28:03 17.5 C 70 % 11.97 C
3332 07-08-2006 03:38:02 17.3 C 71 % 12 C
3333 07-08-2006 03:48:02 17.2 C 72 % 12.11 C
3334 07-08-2006 03:58:02 17 C 72 % 11.92 C
3335 07-08-2006 04:08:02 17 C 73 % 12.13 C
3336 07-08-2006 04:18:02 16.8 C 75 % 12.35 C
3337 07-08-2006 04:28:02 16.8 C 75 % 12.35 C
3338 07-08-2006 04:38:02 16.7 C 75 % 12.25 C
3339 07-08-2006 04:48:02 16.6 C 76 % 12.36 C
3340 07-08-2006 04:58:02 16.5 C 76 % 12.26 C
3341 07-08-2006 05:08:01 16.4 C 77 % 12.36 C
3342 07-08-2006 05:18:02 16.2 C 77 % 12.17 C
3343 07-08-2006 05:28:02 16.1 C 78 % 12.27 C
3344 07-08-2006 05:38:02 15.9 C 79 % 12.27 C
3345 07-08-2006 05:48:02 15.8 C 79 % 12.17 C
3346 07-08-2006 05:58:02 15.8 C 80 % 12.36 C
3347 07-08-2006 06:08:02 15.6 C 80 % 12.16 C
3348 07-08-2006 06:18:02 15.7 C 81 % 12.45 C
3349 07-08-2006 06:28:02 15.5 C 81 % 12.26 C
3350 07-08-2006 06:38:02 15.4 C 81 % 12.16 C
Sensor: Nr:Datum:Temp:Feuchte:Taupunkt:
Aussen-T/F 3351 07-08-2006 06:48:03 15.3 C 82 % 12.25 C
3352 07-08-2006 06:58:03 15.4 C 82 % 12.35 C
3353 07-08-2006 07:08:03 15.5 C 82 % 12.44 C
3354 07-08-2006 07:18:02 15.6 C 83 % 12.72 C
3355 07-08-2006 07:28:02 15.6 C 83 % 12.72 C
3356 07-08-2006 07:38:02 15.7 C 83 % 12.82 C
3357 07-08-2006 07:48:01 16.3 C 82 % 13.22 C
3358 07-08-2006 07:58:01 16.6 C 81 % 13.33 C
3359 07-08-2006 08:08:02 16.9 C 80 % 13.43 C
3360 07-08-2006 08:18:02 17.2 C 77 % 13.14 C
3361 07-08-2006 08:28:02 17.7 C 75 % 13.22 C
3362 07-08-2006 08:38:01 18.1 C 70 % 12.55 C
3363 07-08-2006 08:48:02 17.9 C 71 % 12.57 C
3364 07-08-2006 08:58:02 18.2 C 69 % 12.42 C
3365 07-08-2006 09:08:02 18.2 C 68 % 12.2 C
3366 07-08-2006 09:18:02 18.7 C 65 % 11.99 C
3367 07-08-2006 09:28:02 19.4 C 62 % 11.94 C
3368 07-08-2006 09:38:01 19.7 C 60 % 11.72 C
3369 07-08-2006 09:48:02 19.4 C 60 % 11.44 C
3370 07-08-2006 09:58:02 19.9 C 59 % 11.66 C
3371 07-08-2006 10:08:02 20.3 C 57 % 11.51 C
3372 07-08-2006 10:18:03 19.8 C 58 % 11.3 C
3373 07-08-2006 10:28:03 20.5 C 55 % 11.16 C
3374 07-08-2006 10:38:03 20.1 C 55 % 10.78 C
3375 07-08-2006 10:48:02 20.1 C 53 % 10.23 C
Sensor: Nr:Datum:Temp:Feuchte:Taupunkt:
Aussen-T/F 3376 07-08-2006 10:58:02 20 C 55 % 10.69 C
3377 07-08-2006 11:08:02 20.7 C 54 % 11.07 C
3378 07-08-2006 11:18:03 20.7 C 54 % 11.07 C
3379 07-08-2006 11:28:03 20.9 C 52 % 10.68 C
3380 07-08-2006 11:38:02 21.6 C 49 % 10.44 C
3381 07-08-2006 11:48:02 22.2 C 46 % 10.04 C
3382 07-08-2006 11:58:02 22.1 C 46 % 9.95 C
3383 07-08-2006 12:08:03 22.4 C 44 % 9.56 C
3384 07-08-2006 12:18:02 22.8 C 44 % 9.92 C
3385 07-08-2006 12:28:02 22.7 C 42 % 9.14 C
3386 07-08-2006 12:38:02 23.5 C 40 % 9.13 C
3387 07-08-2006 12:48:01 23.8 C 38 % 8.64 C
3388 07-08-2006 12:58:01 24.3 C 35 % 7.87 C
3389 07-08-2006 13:08:03 24.1 C 35 % 7.69 C
3390 07-08-2006 13:18:02 24.1 C 33 % 6.84 C
3391 07-08-2006 13:28:02 25.2 C 30 % 6.41 C
3392 07-08-2006 13:38:02 25.8 C 28 % 5.92 C
3393 07-08-2006 13:48:02 25.6 C 27 % 5.23 C
3394 07-08-2006 13:58:03 25.6 C 26 % 4.69 C
3395 07-08-2006 14:08:02 25.8 C 27 % 5.4 C
3396 07-08-2006 14:18:02 25.3 C 26 % 4.43 C
3397 07-08-2006 14:28:02 26 C 27 % 5.57 C
3398 07-08-2006 14:38:02 26.4 C 25 % 4.8 C
3399 07-08-2006 14:48:02 27.1 C 21 % 2.91 C
3400 07-08-2006 14:58:02 26.7 C 22 % 3.24 C
Sensor: Nr:Datum:Temp:Feuchte:Taupunkt:
Aussen-T/F 3401 07-08-2006 15:08:02 27.7 C 22 % 4.07 C
3402 07-08-2006 15:18:02 27.8 C 22 % 4.15 C
3403 07-08-2006 15:28:02 28.8 C 20 % 3.62 C
3404 07-08-2006 15:38:02 29.2 C 21 % 4.64 C
3405 07-08-2006 15:48:02 29.3 C 22 % 5.39 C
3406 07-08-2006 15:58:02 29.9 C 20 % 4.52 C
3407 07-08-2006 16:08:01 28.1 C 23 % 5.03 C
3408 07-08-2006 16:18:02 28.9 C 24 % 6.32 C
3409 07-08-2006 16:28:02 30 C 21 % 5.3 C
3410 07-08-2006 16:38:02 30.1 C 22 % 6.06 C
3411 07-08-2006 16:48:03 29.9 C 22 % 5.89 C
3412 07-08-2006 16:58:03 30.3 C 21 % 5.55 C
3413 07-08-2006 17:08:03 29.2 C 22 % 5.31 C
3414 07-08-2006 17:18:03 29.4 C 23 % 6.12 C
3415 07-08-2006 17:28:03 29.3 C 22 % 5.39 C
3416 07-08-2006 17:38:03 29.4 C 20 % 4.11 C
3417 07-08-2006 17:48:02 29 C 22 % 5.15 C
3418 07-08-2006 17:58:02 29.6 C 21 % 4.97 C
3419 07-08-2006 18:08:02 29.8 C 22 % 5.81 C
3420 07-08-2006 18:18:02 29.1 C 22 % 5.23 C
3421 07-08-2006 18:28:02 29.2 C 21 % 4.64 C
3422 07-08-2006 18:38:02 29.6 C 22 % 5.64 C
3423 07-08-2006 18:48:02 29.6 C 21 % 4.97 C
3424 07-08-2006 18:58:02 28.7 C 21 % 4.23 C
3425 07-08-2006 19:08:02 27.9 C 22 % 4.23 C
Sensor: Nr:Datum:Temp:Feuchte:Taupunkt:
Aussen-T/F 3426 07-08-2006 19:18:02 28 C 24 % 5.56 C
3427 07-08-2006 19:28:02 27.7 C 28 % 7.55 C
3428 07-08-2006 19:38:02 27 C 31 % 8.44 C
3429 07-08-2006 19:48:03 25.8 C 36 % 9.61 C
3430 07-08-2006 19:58:03 25.7 C 37 % 9.92 C
3431 07-08-2006 20:08:02 25.4 C 38 % 10.06 C
3432 07-08-2006 20:18:02 25.3 C 39 % 10.36 C
3433 07-08-2006 20:28:02 24.8 C 41 % 10.66 C
3434 07-08-2006 20:38:03 24.2 C 44 % 11.18 C
3435 07-08-2006 20:48:02 24.1 C 44 % 11.09 C
3436 07-08-2006 20:58:02 24.1 C 45 % 11.43 C
3437 07-08-2006 21:08:02 23.6 C 48 % 11.95 C
3438 07-08-2006 21:18:01 23.5 C 49 % 12.17 C
3439 07-08-2006 21:28:01 23 C 51 % 12.32 C
3440 07-08-2006 21:38:01 22.8 C 53 % 12.73 C
3441 07-08-2006 21:48:02 22.6 C 54 % 12.83 C
3442 07-08-2006 21:58:02 22.3 C 57 % 13.37 C
3443 07-08-2006 22:08:02 22 C 58 % 13.36 C
3444 07-08-2006 22:18:02 21.8 C 60 % 13.69 C
3445 07-08-2006 22:28:02 21.8 C 61 % 13.95 C
3446 07-08-2006 22:38:02 21.7 C 61 % 13.85 C
3447 07-08-2006 22:48:02 21.8 C 62 % 14.2 C
3448 07-08-2006 22:58:02 21.9 C 62 % 14.29 C
3449 07-08-2006 23:08:03 21.9 C 63 % 14.54 C
3450 07-08-2006 23:18:02 22 C 62 % 14.39 C
Sensor: Nr:Datum:Temp:Feuchte:Taupunkt:
Aussen-T/F 3451 07-08-2006 23:28:02 22 C 62 % 14.39 C
3452 07-08-2006 23:38:02 21.7 C 64 % 14.6 C
3453 07-08-2006 23:48:02 21.8 C 65 % 14.93 C
3454 07-08-2006 23:58:02 21.7 C 65 % 14.84 C
3455 08-08-2006 00:08:02 21.4 C 66 % 14.79 C
3456 08-08-2006 00:18:04 21.2 C 68 % 15.06 C
3457 08-08-2006 00:28:04 21.3 C 69 % 15.38 C
3458 08-08-2006 00:38:02 21.3 C 69 % 15.38 C
3459 08-08-2006 00:48:02 21.3 C 69 % 15.38 C
3460 08-08-2006 00:58:02 21.5 C 68 % 15.35 C
3461 08-08-2006 01:08:01 21.3 C 69 % 15.38 C
3462 08-08-2006 01:18:02 21.1 C 69 % 15.19 C
3463 08-08-2006 01:28:02 20.9 C 71 % 15.45 C
3464 08-08-2006 01:38:02 20.6 C 72 % 15.38 C
3465 08-08-2006 01:48:03 20.8 C 72 % 15.57 C
3466 08-08-2006 01:58:03 20.7 C 71 % 15.25 C
3467 08-08-2006 02:08:02 20.4 C 73 % 15.4 C
3468 08-08-2006 02:18:03 20.4 C 73 % 15.4 C
3469 08-08-2006 02:28:03 20.3 C 73 % 15.3 C
3470 08-08-2006 02:38:03 20.2 C 74 % 15.42 C
3471 08-08-2006 02:49:04 20.2 C 74 % 15.42 C
3472 08-08-2006 02:59:05 20.1 C 74 % 15.32 C
3473 08-08-2006 03:09:05 20.1 C 74 % 15.32 C
3474 08-08-2006 03:19:03 19.9 C 77 % 15.75 C
3475 08-08-2006 03:29:03 19.6 C 80 % 16.06 C
Sensor: Nr:Datum:Temp:Feuchte:Taupunkt:
Aussen-T/F 3476 08-08-2006 03:39:02 19.5 C 81 % 16.15 C
3477 08-08-2006 03:49:02 19.3 C 82 % 16.15 C
3478 08-08-2006 03:59:02 19.3 C 82 % 16.15 C
3479 08-08-2006 04:09:02 19.3 C 80 % 15.76 C
3480 08-08-2006 04:19:02 19.3 C 79 % 15.57 C
3481 08-08-2006 04:29:02 19.4 C 79 % 15.66 C
3482 08-08-2006 04:39:01 19.5 C 78 % 15.56 C
3483 08-08-2006 04:49:02 19.4 C 77 % 15.27 C
3484 08-08-2006 04:59:02 18.9 C 79 % 15.18 C
3485 08-08-2006 05:09:02 18.9 C 79 % 15.18 C
3486 08-08-2006 05:19:02 18.9 C 79 % 15.18 C
3487 08-08-2006 05:29:02 18.4 C 81 % 15.08 C
3488 08-08-2006 05:39:03 17.7 C 85 % 15.15 C
3489 08-08-2006 05:49:02 17.1 C 87 % 14.92 C
3490 08-08-2006 05:59:02 17 C 88 % 15 C
3491 08-08-2006 06:09:03 16.9 C 90 % 15.25 C
3492 08-08-2006 06:19:03 16.8 C 90 % 15.15 C
3493 08-08-2006 06:29:03 17 C 89 % 15.17 C
3494 08-08-2006 06:39:02 17.1 C 87 % 14.92 C
3495 08-08-2006 06:49:02 16.8 C 87 % 14.62 C
3496 08-08-2006 06:59:02 16.8 C 88 % 14.8 C
3497 08-08-2006 07:09:03 16.5 C 89 % 14.68 C
3498 08-08-2006 07:19:02 16.4 C 89 % 14.58 C
3499 08-08-2006 07:29:02 16.2 C 89 % 14.39 C
3500 08-08-2006 07:39:02 16.2 C 89 % 14.39 C
Sensor: Nr:Datum:Temp:Feuchte:Taupunkt:
Aussen-T/F 3501 08-08-2006 07:49:02 16.1 C 90 % 14.46 C
3502 08-08-2006 07:59:02 16.2 C 88 % 14.21 C
3503 08-08-2006 08:09:02 16.2 C 86 % 13.86 C
3504 08-08-2006 08:19:02 16.3 C 84 % 13.59 C
3505 08-08-2006 08:29:02 16.4 C 80 % 12.94 C
3506 08-08-2006 08:39:02 16.8 C 79 % 13.14 C
3507 08-08-2006 08:49:02 16.9 C 77 % 12.84 C
3508 08-08-2006 08:59:02 16.8 C 76 % 12.55 C
3509 08-08-2006 09:09:02 17 C 75 % 12.54 C
3510 08-08-2006 09:19:02 17.5 C 73 % 12.61 C
3511 08-08-2006 09:29:02 17.4 C 70 % 11.88 C
3512 08-08-2006 09:39:02 17.5 C 71 % 12.19 C
3513 08-08-2006 09:49:02 17.6 C 67 % 11.4 C
3514 08-08-2006 09:59:02 17.4 C 65 % 10.76 C
3515 08-08-2006 10:09:02 17.7 C 63 % 10.57 C
3516 08-08-2006 10:19:02 17.9 C 64 % 11 C
3517 08-08-2006 10:29:02 18.1 C 59 % 9.97 C
3518 08-08-2006 10:39:02 18.7 C 55 % 9.48 C
3519 08-08-2006 10:49:02 19.1 C 53 % 9.3 C
3520 08-08-2006 10:59:02 18.7 C 53 % 8.93 C
3521 08-08-2006 11:09:02 18.7 C 53 % 8.93 C
3522 08-08-2006 11:19:01 18.9 C 53 % 9.12 C
3523 08-08-2006 11:29:01 19.7 C 50 % 8.99 C
3524 08-08-2006 11:39:01 19.5 C 51 % 9.1 C
3525 08-08-2006 11:49:01 19.7 C 49 % 8.7 C
Sensor: Nr:Datum:Temp:Feuchte:Taupunkt:
Aussen-T/F 3526 08-08-2006 11:59:01 20.7 C 48 % 9.3 C
3527 08-08-2006 12:09:02 21.1 C 45 % 8.71 C
3528 08-08-2006 12:19:02 22.4 C 41 % 8.51 C
3529 08-08-2006 12:29:02 22.1 C 40 % 7.88 C
3530 08-08-2006 12:39:02 22.5 C 40 % 8.24 C
3531 08-08-2006 12:49:02 21.5 C 39 % 6.97 C
3532 08-08-2006 12:59:02 20.5 C 41 % 6.81 C
3533 08-08-2006 13:09:02 22 C 38 % 7.04 C
3534 08-08-2006 13:19:02 22.6 C 33 % 5.53 C
3535 08-08-2006 13:29:02 22 C 35 % 5.85 C
3536 08-08-2006 13:39:01 21.7 C 37 % 6.39 C
3537 08-08-2006 13:49:02 22.5 C 33 % 5.44 C
3538 08-08-2006 13:59:02 23.5 C 30 % 4.94 C
3539 08-08-2006 14:09:02 23.7 C 30 % 5.11 C
3540 08-08-2006 14:19:02 23.7 C 32 % 6.04 C
3541 08-08-2006 14:29:02 23.9 C 31 % 5.76 C
3542 08-08-2006 14:39:02 22.9 C 34 % 6.22 C
3543 08-08-2006 14:49:02 22.9 C 33 % 5.79 C
3544 08-08-2006 14:59:02 22.6 C 32 % 5.08 C
3545 08-08-2006 15:09:03 22.8 C 32 % 5.26 C
3546 08-08-2006 15:19:03 22.3 C 35 % 6.11 C
3547 08-08-2006 15:29:03 22.1 C 35 % 5.94 C
3548 08-08-2006 15:39:03 22.1 C 33 % 5.09 C
3549 08-08-2006 15:49:03 22.9 C 33 % 5.79 C
3550 08-08-2006 15:59:03 23.3 C 31 % 5.24 C
Sensor: Nr:Datum:Temp:Feuchte:Taupunkt:
Aussen-T/F 3551 08-08-2006 16:09:03 24.6 C 30 % 5.89 C
3552 08-08-2006 16:19:02 25.7 C 26 % 4.77 C
3553 08-08-2006 16:29:02 24.9 C 29 % 5.66 C
3554 08-08-2006 16:39:02 23 C 30 % 4.51 C
3555 08-08-2006 16:49:02 22.7 C 34 % 6.04 C
3556 08-08-2006 16:59:02 21.6 C 36 % 5.9 C
3557 08-08-2006 17:09:02 21.4 C 36 % 5.73 C
3558 08-08-2006 17:19:02 21.4 C 37 % 6.12 C
3559 08-08-2006 17:29:02 21.6 C 37 % 6.3 C
3560 08-08-2006 17:39:02 21.6 C 36 % 5.9 C
3561 08-08-2006 17:49:02 22.2 C 34 % 5.61 C
3562 08-08-2006 17:59:03 22.5 C 33 % 5.44 C
3563 08-08-2006 18:09:02 22.3 C 34 % 5.69 C
3564 08-08-2006 18:19:02 21.6 C 36 % 5.9 C
3565 08-08-2006 18:29:02 21.4 C 38 % 6.51 C
3566 08-08-2006 18:39:02 20.9 C 40 % 6.81 C
3567 08-08-2006 18:49:02 20.4 C 39 % 5.99 C
3568 08-08-2006 18:59:03 20.1 C 39 % 5.73 C
3569 08-08-2006 19:09:02 20 C 41 % 6.36 C
3570 08-08-2006 19:19:02 20 C 42 % 6.71 C
3571 08-08-2006 19:29:02 20.3 C 43 % 7.32 C
3572 08-08-2006 19:39:02 20.5 C 43 % 7.5 C
3573 08-08-2006 19:49:02 20.3 C 43 % 7.32 C
3574 08-08-2006 19:59:02 19.6 C 47 % 7.99 C
3575 08-08-2006 20:09:03 19.3 C 52 % 9.21 C
Sensor: Nr:Datum:Temp:Feuchte:Taupunkt:
Aussen-T/F 3576 08-08-2006 20:19:03 18.8 C 54 % 9.3 C
3577 08-08-2006 20:29:03 19.1 C 51 % 8.73 C
3578 08-08-2006 20:39:03 19.3 C 51 % 8.92 C
3579 08-08-2006 20:49:04 19.1 C 52 % 9.02 C
3580 08-08-2006 20:59:04 18.9 C 52 % 8.84 C
3581 08-08-2006 21:09:03 18.9 C 51 % 8.55 C
3582 08-08-2006 21:19:02 18.8 C 50 % 8.17 C
3583 08-08-2006 21:29:02 18.6 C 50 % 7.98 C
3584 08-08-2006 21:39:02 18.6 C 51 % 8.27 C
3585 08-08-2006 21:49:02 18.5 C 52 % 8.47 C
3586 08-08-2006 21:59:02 18.5 C 52 % 8.47 C
3587 08-08-2006 22:09:02 18.5 C 54 % 9.03 C
3588 08-08-2006 22:19:03 18.4 C 53 % 8.66 C
3589 08-08-2006 22:29:03 18.4 C 53 % 8.66 C
3590 08-08-2006 22:39:03 18.3 C 54 % 8.84 C
3591 08-08-2006 22:49:03 18.2 C 54 % 8.75 C
3592 08-08-2006 22:59:04 18.1 C 55 % 8.93 C
3593 08-08-2006 23:09:03 18.1 C 55 % 8.93 C
3594 08-08-2006 23:19:03 18 C 55 % 8.83 C
3595 08-08-2006 23:29:03 17.9 C 56 % 9.01 C
3596 08-08-2006 23:39:03 18 C 55 % 8.83 C
3597 08-08-2006 23:49:02 17.7 C 56 % 8.82 C
3598 08-08-2006 23:59:02 17.7 C 57 % 9.08 C
3599 09-08-2006 00:09:03 17.7 C 57 % 9.08 C
3600 09-08-2006 00:19:04 17.6 C 57 % 8.99 C
Sensor: Nr:Datum:Temp:Feuchte:Taupunkt:
Aussen-T/F 3601 09-08-2006 00:29:05 17.5 C 59 % 9.41 C
3602 09-08-2006 00:39:04 17.4 C 59 % 9.31 C
3603 09-08-2006 00:49:02 17.3 C 60 % 9.47 C
3604 09-08-2006 00:59:02 17.3 C 60 % 9.47 C
3605 09-08-2006 01:09:01 17.3 C 61 % 9.71 C
3606 09-08-2006 01:19:02 17.3 C 61 % 9.71 C
3607 09-08-2006 01:29:02 17.2 C 62 % 9.86 C
3608 09-08-2006 01:39:02 17.1 C 62 % 9.77 C
3609 09-08-2006 01:49:02 17 C 63 % 9.91 C
3610 09-08-2006 01:59:02 16.9 C 65 % 10.28 C
3611 09-08-2006 02:09:03 16.9 C 65 % 10.28 C
3612 09-08-2006 02:19:02 16.8 C 66 % 10.42 C
3613 09-08-2006 02:29:02 16.8 C 65 % 10.19 C
3614 09-08-2006 02:39:02 16.7 C 66 % 10.32 C
3615 09-08-2006 02:50:03 16.6 C 66 % 10.23 C
3616 09-08-2006 03:00:03 16.6 C 67 % 10.45 C
3617 09-08-2006 03:10:03 16.6 C 66 % 10.23 C
3618 09-08-2006 03:20:03 16.5 C 67 % 10.36 C
3619 09-08-2006 03:30:03 16.4 C 67 % 10.26 C
3620 09-08-2006 03:40:03 16.2 C 68 % 10.29 C
3621 09-08-2006 03:50:03 16.1 C 68 % 10.2 C
3622 09-08-2006 04:00:03 16 C 69 % 10.32 C
3623 09-08-2006 04:10:03 15.9 C 71 % 10.65 C
3624 09-08-2006 04:20:03 15.9 C 71 % 10.65 C
3625 09-08-2006 04:30:03 15.7 C 72 % 10.67 C
Sensor: Nr:Datum:Temp:Feuchte:Taupunkt:
Aussen-T/F 3626 09-08-2006 04:40:03 15.3 C 73 % 10.49 C
3627 09-08-2006 04:50:02 15 C 74 % 10.41 C
3628 09-08-2006 05:00:02 14.9 C 75 % 10.51 C
3629 09-08-2006 05:10:02 14.8 C 77 % 10.81 C
3630 09-08-2006 05:20:02 14.5 C 78 % 10.71 C
3631 09-08-2006 05:30:02 14.3 C 78 % 10.52 C
3632 09-08-2006 05:40:03 14.7 C 79 % 11.1 C
3633 09-08-2006 05:50:03 14.7 C 79 % 11.1 C
3634 09-08-2006 06:00:03 14.7 C 79 % 11.1 C
3635 09-08-2006 06:10:03 14.4 C 78 % 10.62 C
3636 09-08-2006 06:20:02 14.3 C 78 % 10.52 C
3637 09-08-2006 06:30:02 14 C 79 % 10.42 C
3638 09-08-2006 06:40:02 14 C 80 % 10.61 C
3639 09-08-2006 06:50:02 14 C 81 % 10.79 C
3640 09-08-2006 07:00:02 14.4 C 81 % 11.18 C
3641 09-08-2006 07:10:04 14.7 C 80 % 11.29 C
3642 09-08-2006 07:20:02 15 C 79 % 11.39 C
3643 09-08-2006 07:30:02 15.1 C 78 % 11.3 C
3644 09-08-2006 07:40:02 15.3 C 77 % 11.3 C
3645 09-08-2006 07:50:02 15.6 C 77 % 11.59 C
3646 09-08-2006 08:00:02 15.9 C 76 % 11.68 C
3647 09-08-2006 08:10:02 16.4 C 73 % 11.55 C
3648 09-08-2006 08:20:02 16.8 C 70 % 11.3 C
3649 09-08-2006 08:30:02 17 C 68 % 11.06 C
3650 09-08-2006 08:40:02 17.1 C 68 % 11.15 C
Sensor: Nr:Datum:Temp:Feuchte:Taupunkt:
Aussen-T/F 3651 09-08-2006 08:50:02 17.4 C 67 % 11.21 C
3652 09-08-2006 09:00:02 17.7 C 66 % 11.27 C
3653 09-08-2006 09:10:02 17.6 C 63 % 10.48 C
3654 09-08-2006 09:20:02 17.2 C 64 % 10.34 C
3655 09-08-2006 09:30:02 17.5 C 65 % 10.85 C
3656 09-08-2006 09:40:02 17.6 C 63 % 10.48 C
3657 09-08-2006 09:50:02 17.7 C 63 % 10.57 C
3658 09-08-2006 10:00:02 18.3 C 60 % 10.41 C
3659 09-08-2006 10:10:02 19.1 C 56 % 10.12 C
3660 09-08-2006 10:20:02 19.7 C 55 % 10.41 C
3661 09-08-2006 10:30:02 18.7 C 53 % 8.93 C
3662 09-08-2006 10:40:01 19.5 C 51 % 9.1 C
3663 09-08-2006 10:50:02 19.8 C 50 % 9.09 C
3664 09-08-2006 11:00:02 20.4 C 48 % 9.03 C
3665 09-08-2006 11:10:02 20.5 C 48 % 9.12 C
3666 09-08-2006 11:20:02 21.3 C 45 % 8.89 C
3667 09-08-2006 11:30:02 21 C 41 % 7.26 C
3668 09-08-2006 11:40:01 21.8 C 41 % 7.97 C
3669 09-08-2006 11:50:02 21.4 C 40 % 7.25 C
3670 09-08-2006 12:00:02 21.4 C 41 % 7.62 C
3671 09-08-2006 12:10:02 22.1 C 39 % 7.51 C
3672 09-08-2006 12:20:02 21.8 C 40 % 7.61 C
3673 09-08-2006 12:30:02 21.8 C 40 % 7.61 C
3674 09-08-2006 12:40:01 21.8 C 38 % 6.86 C
3675 09-08-2006 12:50:02 22 C 39 % 7.42 C
Sensor: Nr:Datum:Temp:Feuchte:Taupunkt:
Aussen-T/F 3676 09-08-2006 13:00:02 22 C 37 % 6.65 C
3677 09-08-2006 13:10:02 22.1 C 37 % 6.74 C
3678 09-08-2006 13:20:02 21.8 C 38 % 6.86 C
3679 09-08-2006 13:30:02 22.1 C 37 % 6.74 C
3680 09-08-2006 13:40:01 22.5 C 37 % 7.1 C
3681 09-08-2006 13:50:02 23.6 C 33 % 6.4 C
3682 09-08-2006 14:00:02 23.9 C 33 % 6.66 C
3683 09-08-2006 14:10:02 24.6 C 33 % 7.27 C
3684 09-08-2006 14:20:02 26.3 C 27 % 5.82 C
3685 09-08-2006 14:30:02 27.4 C 25 % 5.65 C
3686 09-08-2006 14:40:01 24.5 C 27 % 4.29 C
3687 09-08-2006 14:50:02 23.4 C 30 % 4.85 C
3688 09-08-2006 15:00:02 24.3 C 30 % 5.63 C
3689 09-08-2006 15:10:02 26.4 C 27 % 5.91 C
3690 09-08-2006 15:20:02 27.4 C 23 % 4.45 C
3691 09-08-2006 15:30:02 25 C 25 % 3.62 C
3692 09-08-2006 15:40:01 26 C 22 % 2.66 C
3693 09-08-2006 15:50:02 26.9 C 22 % 3.4 C
3694 09-08-2006 16:00:02 25.6 C 23 % 2.95 C
3695 09-08-2006 16:10:02 25.9 C 21 % 1.92 C
3696 09-08-2006 16:20:01 26 C 22 % 2.66 C
3697 09-08-2006 16:30:01 27.8 C 21 % 3.49 C
3698 09-08-2006 16:40:02 27.1 C 20 % 2.23 C
3699 09-08-2006 16:50:02 25.1 C 21 % 1.26 C
3700 09-08-2006 17:00:02 25 C 22 % 1.83 C
Sensor: Nr:Datum:Temp:Feuchte:Taupunkt:
Aussen-T/F 3701 09-08-2006 17:10:02 24.5 C 22 % 1.41 C
3702 09-08-2006 17:20:02 25.1 C 22 % 1.91 C
3703 09-08-2006 17:30:02 24.9 C 22 % 1.74 C
3704 09-08-2006 17:40:01 24.1 C 23 % 1.7 C
3705 09-08-2006 17:50:02 23.8 C 25 % 2.61 C
3706 09-08-2006 18:00:02 23.3 C 26 % 2.74 C
3707 09-08-2006 18:10:02 23.1 C 28 % 3.61 C
3708 09-08-2006 18:20:02 22.9 C 30 % 4.42 C
3709 09-08-2006 18:30:02 22.5 C 31 % 4.54 C
3710 09-08-2006 18:40:03 22.4 C 31 % 4.46 C
3711 09-08-2006 18:50:03 22 C 33 % 5 C
3712 09-08-2006 19:00:03 21.7 C 37 % 6.39 C
3713 09-08-2006 19:10:03 21.2 C 41 % 7.44 C
3714 09-08-2006 19:20:02 20.6 C 45 % 8.26 C
3715 09-08-2006 19:30:02 20.6 C 46 % 8.58 C
3716 09-08-2006 19:40:02 20.4 C 47 % 8.72 C
3717 09-08-2006 19:50:02 19.4 C 55 % 10.13 C
3718 09-08-2006 20:00:02 19 C 58 % 10.56 C
3719 09-08-2006 20:10:02 18.8 C 63 % 11.61 C
3720 09-08-2006 20:20:01 18.4 C 64 % 11.47 C
3721 09-08-2006 20:30:01 17.7 C 69 % 11.95 C
3722 09-08-2006 20:40:02 17.6 C 78 % 13.72 C
3723 09-08-2006 20:50:02 17.2 C 81 % 13.91 C
3724 09-08-2006 21:00:02 16.8 C 82 % 13.71 C
3725 09-08-2006 21:10:02 17.1 C 82 % 14 C
Sensor: Nr:Datum:Temp:Feuchte:Taupunkt:
Aussen-T/F 3726 09-08-2006 21:20:02 17.1 C 81 % 13.82 C
3727 09-08-2006 21:30:02 16.9 C 81 % 13.62 C
3728 09-08-2006 21:40:02 16.8 C 82 % 13.71 C
3729 09-08-2006 21:50:02 16.5 C 83 % 13.6 C
3730 09-08-2006 22:00:02 16.4 C 84 % 13.69 C
3731 09-08-2006 22:10:03 16.3 C 85 % 13.77 C
3732 09-08-2006 22:20:02 16 C 85 % 13.48 C
3733 09-08-2006 22:30:02 16 C 86 % 13.66 C
3734 09-08-2006 22:40:02 15.8 C 87 % 13.64 C
3735 09-08-2006 22:50:02 15.4 C 88 % 13.42 C
3736 09-08-2006 23:00:02 15.5 C 88 % 13.52 C
3737 09-08-2006 23:10:02 15.4 C 89 % 13.6 C
3738 09-08-2006 23:20:02 15.4 C 89 % 13.6 C
3739 09-08-2006 23:30:02 15.4 C 89 % 13.6 C
3740 09-08-2006 23:40:02 15.4 C 89 % 13.6 C
3741 09-08-2006 23:50:02 15.5 C 90 % 13.87 C
3742 10-08-2006 00:00:02 15.6 C 90 % 13.97 C
3743 10-08-2006 00:10:02 15.7 C 90 % 14.06 C
3744 10-08-2006 00:20:03 15.8 C 90 % 14.16 C
3745 10-08-2006 00:30:03 15.6 C 90 % 13.97 C
3746 10-08-2006 00:40:03 15.5 C 90 % 13.87 C
3747 10-08-2006 00:50:02 15.4 C 90 % 13.77 C
3748 10-08-2006 01:00:02 15.6 C 90 % 13.97 C
3749 10-08-2006 01:10:03 15.7 C 90 % 14.06 C
3750 10-08-2006 01:20:02 15.8 C 89 % 13.99 C
Sensor: Nr:Datum:Temp:Feuchte:Taupunkt:
Aussen-T/F 3751 10-08-2006 01:30:02 15.8 C 89 % 13.99 C
3752 10-08-2006 01:40:02 15.8 C 88 % 13.82 C
3753 10-08-2006 01:50:02 15.6 C 88 % 13.62 C
3754 10-08-2006 02:00:02 15.6 C 88 % 13.62 C
3755 10-08-2006 02:10:02 15.6 C 88 % 13.62 C
3756 10-08-2006 02:20:02 15.6 C 88 % 13.62 C
3757 10-08-2006 02:30:02 15.5 C 88 % 13.52 C
3758 10-08-2006 02:40:02 15.4 C 88 % 13.42 C
3759 10-08-2006 02:51:04 15.4 C 88 % 13.42 C
3760 10-08-2006 03:01:04 15.4 C 88 % 13.42 C
3761 10-08-2006 03:11:04 15.5 C 88 % 13.52 C
3762 10-08-2006 03:21:04 15.4 C 88 % 13.42 C
3763 10-08-2006 03:31:03 15.1 C 86 % 12.78 C
3764 10-08-2006 03:41:03 15 C 83 % 12.14 C
3765 10-08-2006 03:51:03 14.9 C 84 % 12.22 C
3766 10-08-2006 04:01:02 14.7 C 84 % 12.03 C
3767 10-08-2006 04:11:02 14.4 C 84 % 11.73 C
3768 10-08-2006 04:21:02 14.2 C 84 % 11.54 C
3769 10-08-2006 04:31:02 13.8 C 85 % 11.32 C
3770 10-08-2006 04:41:02 13.5 C 85 % 11.03 C
3771 10-08-2006 04:51:02 13.4 C 85 % 10.93 C
3772 10-08-2006 05:01:02 13.3 C 84 % 10.66 C
3773 10-08-2006 05:11:02 13.1 C 84 % 10.46 C
3774 10-08-2006 05:21:02 13 C 84 % 10.36 C
3775 10-08-2006 05:31:02 12.7 C 85 % 10.25 C
Sensor: Nr:Datum:Temp:Feuchte:Taupunkt:
Aussen-T/F 3776 10-08-2006 05:41:02 12.5 C 86 % 10.22 C
3777 10-08-2006 05:51:02 12.3 C 86 % 10.03 C
3778 10-08-2006 06:01:02 12.1 C 86 % 9.83 C
3779 10-08-2006 06:11:02 12 C 86 % 9.73 C
3780 10-08-2006 06:21:01 11.8 C 87 % 9.71 C
3781 10-08-2006 06:31:01 11.7 C 88 % 9.78 C
3782 10-08-2006 06:41:01 11.7 C 88 % 9.78 C
3783 10-08-2006 06:51:02 11.7 C 88 % 9.78 C
3784 10-08-2006 07:01:02 11.6 C 88 % 9.68 C
3785 10-08-2006 07:11:02 11.6 C 88 % 9.68 C
3786 10-08-2006 07:21:02 11.6 C 88 % 9.68 C
3787 10-08-2006 07:31:01 11.7 C 88 % 9.78 C
3788 10-08-2006 07:41:01 11.7 C 89 % 9.95 C
3789 10-08-2006 07:51:02 11.8 C 89 % 10.05 C
3790 10-08-2006 08:01:02 12 C 88 % 10.08 C
3791 10-08-2006 08:11:03 12 C 88 % 10.08 C
3792 10-08-2006 08:21:02 12.1 C 88 % 10.17 C
3793 10-08-2006 08:31:03 12.3 C 89 % 10.54 C
3794 10-08-2006 08:41:03 12.5 C 89 % 10.74 C
3795 10-08-2006 08:51:03 12.6 C 88 % 10.67 C
3796 10-08-2006 09:01:02 12.8 C 87 % 10.69 C
3797 10-08-2006 09:11:02 13 C 86 % 10.72 C
3798 10-08-2006 09:21:04 13.4 C 84 % 10.75 C
3799 10-08-2006 09:31:05 13.7 C 81 % 10.5 C
3800 10-08-2006 09:41:05 14.1 C 76 % 9.94 C
Sensor: Nr:Datum:Temp:Feuchte:Taupunkt:
Aussen-T/F 3801 10-08-2006 09:51:08 14.8 C 72 % 9.81 C
3802 10-08-2006 10:01:04 15.2 C 69 % 9.56 C
3803 10-08-2006 10:11:04 15.8 C 64 % 9.01 C
3804 10-08-2006 10:21:03 16 C 57 % 7.49 C
3805 10-08-2006 10:31:04 16.4 C 57 % 7.87 C
3806 10-08-2006 10:41:04 17.1 C 54 % 7.73 C
3807 10-08-2006 10:51:02 17.5 C 54 % 8.1 C
3808 10-08-2006 11:01:02 18 C 51 % 7.72 C
3809 10-08-2006 11:11:02 18.6 C 48 % 7.39 C
3810 10-08-2006 11:21:02 19.4 C 46 % 7.49 C
3811 10-08-2006 11:31:01 18.5 C 44 % 6.03 C
3812 10-08-2006 11:41:01 18.1 C 47 % 6.62 C
3813 10-08-2006 11:51:02 18.2 C 45 % 6.08 C
3814 10-08-2006 12:02:02 18.2 C 46 % 6.4 C
3815 10-08-2006 12:12:02 18.4 C 46 % 6.58 C
3816 10-08-2006 12:22:02 19.1 C 45 % 6.9 C
3817 10-08-2006 12:32:02 19.2 C 43 % 6.33 C
3818 10-08-2006 12:42:02 19.5 C 42 % 6.26 C
3819 10-08-2006 12:52:02 19.4 C 42 % 6.17 C
3820 10-08-2006 13:02:02 20.6 C 41 % 6.9 C
3821 10-08-2006 13:12:02 21.2 C 38 % 6.33 C
3822 10-08-2006 13:22:02 21.4 C 34 % 4.91 C
3823 10-08-2006 13:32:02 20.7 C 35 % 4.7 C
3824 10-08-2006 13:42:02 19.1 C 37 % 4.08 C
3825 10-08-2006 13:52:02 18.9 C 39 % 4.66 C
Sensor: Nr:Datum:Temp:Feuchte:Taupunkt:
Aussen-T/F 3826 10-08-2006 14:02:03 19.3 C 38 % 4.64 C
3827 10-08-2006 14:12:03 19.7 C 38 % 5 C
3828 10-08-2006 14:22:03 19.6 C 37 % 4.53 C
3829 10-08-2006 14:32:03 19.6 C 38 % 4.91 C
3830 10-08-2006 14:42:03 20 C 40 % 6 C
3831 10-08-2006 14:52:03 20.5 C 38 % 5.71 C
3832 10-08-2006 15:02:03 19.3 C 41 % 5.73 C
3833 10-08-2006 15:12:03 19.2 C 42 % 5.99 C
3834 10-08-2006 15:22:03 17.8 C 51 % 7.54 C
3835 10-08-2006 15:32:03 17.4 C 53 % 7.73 C
3836 10-08-2006 15:42:03 17.2 C 55 % 8.09 C
3837 10-08-2006 15:52:03 15.3 C 65 % 8.77 C
3838 10-08-2006 16:02:03 15.1 C 66 % 8.8 C
3839 10-08-2006 16:12:03 15.4 C 64 % 8.63 C
3840 10-08-2006 16:22:03 16.2 C 60 % 8.43 C
3841 10-08-2006 16:32:03 17 C 55 % 7.9 C
3842 10-08-2006 16:42:03 17.4 C 58 % 9.06 C
3843 10-08-2006 16:52:04 16.9 C 58 % 8.59 C
3844 10-08-2006 17:02:04 16.2 C 59 % 8.19 C
3845 10-08-2006 17:12:04 15.9 C 61 % 8.4 C
3846 10-08-2006 17:22:04 14.3 C 75 % 9.93 C
3847 10-08-2006 17:32:04 13.4 C 84 % 10.75 C
3848 10-08-2006 17:42:04 13.4 C 86 % 11.11 C
3849 10-08-2006 17:52:04 13.7 C 88 % 11.75 C
3850 10-08-2006 18:02:04 14 C 88 % 12.05 C
Sensor: Nr:Datum:Temp:Feuchte:Taupunkt:
Aussen-T/F 3851 10-08-2006 18:12:04 13.9 C 89 % 12.12 C
3852 10-08-2006 18:22:04 14 C 89 % 12.22 C
3853 10-08-2006 18:32:04 13.9 C 89 % 12.12 C
3854 10-08-2006 18:42:04 14 C 89 % 12.22 C
3855 10-08-2006 18:52:04 14.1 C 89 % 12.32 C
3856 10-08-2006 19:02:04 14.1 C 88 % 12.14 C
3857 10-08-2006 19:12:04 13.9 C 87 % 11.77 C
3858 10-08-2006 19:22:04 13.7 C 86 % 11.4 C
3859 10-08-2006 19:32:04 13.6 C 87 % 11.48 C
3860 10-08-2006 19:42:05 13.6 C 87 % 11.48 C
3861 10-08-2006 19:52:05 13.7 C 88 % 11.75 C
3862 10-08-2006 20:02:05 13.6 C 88 % 11.65 C
3863 10-08-2006 20:12:05 13.6 C 88 % 11.65 C
3864 10-08-2006 20:22:05 13.5 C 88 % 11.55 C
3865 10-08-2006 20:32:05 13.4 C 88 % 11.45 C
3866 10-08-2006 20:42:05 13.4 C 89 % 11.63 C
3867 10-08-2006 20:52:05 13.4 C 89 % 11.63 C
3868 10-08-2006 21:02:05 13.2 C 89 % 11.43 C
3869 10-08-2006 21:12:05 13.2 C 89 % 11.43 C
3870 10-08-2006 21:22:05 13.1 C 89 % 11.33 C
3871 10-08-2006 21:32:05 13.1 C 89 % 11.33 C
3872 10-08-2006 21:42:05 12.9 C 90 % 11.3 C
3873 10-08-2006 21:52:05 13 C 89 % 11.23 C
3874 10-08-2006 22:02:05 13.1 C 89 % 11.33 C
3875 10-08-2006 22:12:05 13.1 C 88 % 11.16 C
Sensor: Nr:Datum:Temp:Feuchte:Taupunkt:
Aussen-T/F 3876 10-08-2006 22:22:05 13.1 C 86 % 10.81 C
3877 10-08-2006 22:32:06 13.1 C 86 % 10.81 C
3878 10-08-2006 22:42:06 13.1 C 86 % 10.81 C
3879 10-08-2006 22:52:06 13.1 C 86 % 10.8